<?xml version="1.0" encoding="UTF-8" standalone="no" ?>
<gpx xmlns="http://www.topografix.com/GPX/1/1" xmlns:xsi="http://www.w3.org/2001/XMLSchema-instance" xsi:schemaLocation="http://www.topografix.com/GPX/1/1 http://www.topografix.com/GPX/1/1/gpx.xsd" version="1.1" creator="VisuGPX - https://www.visugpx.com">
  <metadata>
    <name>Niort (Pre Leroy (6,5km)</name>
  </metadata>
  <wpt lat="46.33116" lon="-0.46214">
    <ele>14.4</ele>
  </wpt>
  <wpt lat="46.33256" lon="-0.46219">
    <ele>15.8</ele>
  </wpt>
  <wpt lat="46.33469" lon="-0.46517">
    <ele>13.9</ele>
  </wpt>
  <wpt lat="46.33644" lon="-0.46613">
    <ele>13.4</ele>
  </wpt>
  <wpt lat="46.33021" lon="-0.45968">
    <ele>44.5</ele>
  </wpt>
  <wpt lat="46.33034" lon="-0.46159">
    <ele>36.7</ele>
  </wpt>
  <wpt lat="46.32999" lon="-0.4617">
    <ele>35.6</ele>
  </wpt>
  <wpt lat="46.32955" lon="-0.46254">
    <ele>13.4</ele>
  </wpt>
  <wpt lat="46.32689" lon="-0.46481">
    <ele>12.6</ele>
  </wpt>
  <wpt lat="46.32668" lon="-0.46625">
    <ele>12.5</ele>
  </wpt>
  <trk>
    <name><![CDATA[Niort (Pre Leroy (6,5km)_1]]></name>
    <trkseg>
      <trkpt lat="46.33085" lon="-0.46941">
        <ele>7.8</ele>
        <time>2014-02-27T14:01:45Z</time>
      </trkpt>
      <trkpt lat="46.33084" lon="-0.46941">
        <ele>7.8</ele>
        <time>2014-02-27T14:01:50Z</time>
      </trkpt>
      <trkpt lat="46.33084" lon="-0.46942">
        <ele>7.8</ele>
        <time>2014-02-27T14:01:55Z</time>
      </trkpt>
      <trkpt lat="46.33084" lon="-0.46941">
        <ele>7.8</ele>
        <time>2014-02-27T14:02:00Z</time>
      </trkpt>
      <trkpt lat="46.33084" lon="-0.46942">
        <ele>7.8</ele>
        <time>2014-02-27T14:02:05Z</time>
      </trkpt>
      <trkpt lat="46.33084" lon="-0.46943">
        <ele>7.8</ele>
        <time>2014-02-27T14:02:10Z</time>
      </trkpt>
      <trkpt lat="46.33083" lon="-0.46941">
        <ele>7.8</ele>
        <time>2014-02-27T14:02:40Z</time>
      </trkpt>
      <trkpt lat="46.33081" lon="-0.46932">
        <ele>11.224715</ele>
        <time>2014-02-27T14:02:45Z</time>
      </trkpt>
      <trkpt lat="46.33083" lon="-0.4693">
        <ele>11.224715</ele>
        <time>2014-02-27T14:02:50Z</time>
      </trkpt>
      <trkpt lat="46.33082" lon="-0.46925">
        <ele>11.224715</ele>
        <time>2014-02-27T14:02:55Z</time>
      </trkpt>
      <trkpt lat="46.33082" lon="-0.46919">
        <ele>10.756945</ele>
        <time>2014-02-27T14:03:00Z</time>
      </trkpt>
      <trkpt lat="46.33081" lon="-0.46911">
        <ele>10.756945</ele>
        <time>2014-02-27T14:03:05Z</time>
      </trkpt>
      <trkpt lat="46.33082" lon="-0.46904">
        <ele>11.259069</ele>
        <time>2014-02-27T14:03:10Z</time>
      </trkpt>
      <trkpt lat="46.33079" lon="-0.46896">
        <ele>11.259069</ele>
        <time>2014-02-27T14:03:15Z</time>
      </trkpt>
      <trkpt lat="46.33086" lon="-0.46895">
        <ele>11.875085</ele>
        <time>2014-02-27T14:03:20Z</time>
      </trkpt>
      <trkpt lat="46.33091" lon="-0.46891">
        <ele>11.875085</ele>
        <time>2014-02-27T14:03:25Z</time>
      </trkpt>
      <trkpt lat="46.3309" lon="-0.46886">
        <ele>11.875085</ele>
        <time>2014-02-27T14:03:30Z</time>
      </trkpt>
      <trkpt lat="46.3309" lon="-0.46877">
        <ele>12.844846</ele>
        <time>2014-02-27T14:03:35Z</time>
      </trkpt>
      <trkpt lat="46.33092" lon="-0.46872">
        <ele>12.844846</ele>
        <time>2014-02-27T14:03:40Z</time>
      </trkpt>
      <trkpt lat="46.33093" lon="-0.46867">
        <ele>12.844846</ele>
        <time>2014-02-27T14:03:45Z</time>
      </trkpt>
      <trkpt lat="46.33094" lon="-0.46859">
        <ele>13.616926</ele>
        <time>2014-02-27T14:03:50Z</time>
      </trkpt>
      <trkpt lat="46.33094" lon="-0.46851">
        <ele>13.616926</ele>
        <time>2014-02-27T14:03:55Z</time>
      </trkpt>
      <trkpt lat="46.33093" lon="-0.46845">
        <ele>14.323872</ele>
        <time>2014-02-27T14:04:00Z</time>
      </trkpt>
      <trkpt lat="46.33094" lon="-0.46838">
        <ele>14.323872</ele>
        <time>2014-02-27T14:04:05Z</time>
      </trkpt>
      <trkpt lat="46.33094" lon="-0.4683">
        <ele>14.969776</ele>
        <time>2014-02-27T14:04:10Z</time>
      </trkpt>
      <trkpt lat="46.33097" lon="-0.46824">
        <ele>14.969776</ele>
        <time>2014-02-27T14:04:15Z</time>
      </trkpt>
      <trkpt lat="46.33099" lon="-0.46818">
        <ele>15.728969</ele>
        <time>2014-02-27T14:04:20Z</time>
      </trkpt>
      <trkpt lat="46.33099" lon="-0.46809">
        <ele>15.728969</ele>
        <time>2014-02-27T14:04:25Z</time>
      </trkpt>
      <trkpt lat="46.33099" lon="-0.46802">
        <ele>16.179214</ele>
        <time>2014-02-27T14:04:30Z</time>
      </trkpt>
      <trkpt lat="46.33098" lon="-0.46795">
        <ele>16.179214</ele>
        <time>2014-02-27T14:04:35Z</time>
      </trkpt>
      <trkpt lat="46.33098" lon="-0.46787">
        <ele>16.15147</ele>
        <time>2014-02-27T14:04:40Z</time>
      </trkpt>
      <trkpt lat="46.33092" lon="-0.46777">
        <ele>15.536554</ele>
        <time>2014-02-27T14:04:45Z</time>
      </trkpt>
      <trkpt lat="46.33091" lon="-0.4677">
        <ele>15.536554</ele>
        <time>2014-02-27T14:04:50Z</time>
      </trkpt>
      <trkpt lat="46.33091" lon="-0.46764">
        <ele>14.889225</ele>
        <time>2014-02-27T14:04:55Z</time>
      </trkpt>
      <trkpt lat="46.33091" lon="-0.46758">
        <ele>14.889225</ele>
        <time>2014-02-27T14:05:00Z</time>
      </trkpt>
      <trkpt lat="46.33091" lon="-0.46751">
        <ele>14.889225</ele>
        <time>2014-02-27T14:05:05Z</time>
      </trkpt>
      <trkpt lat="46.33087" lon="-0.46745">
        <ele>14.037417</ele>
        <time>2014-02-27T14:05:10Z</time>
      </trkpt>
      <trkpt lat="46.33087" lon="-0.46744">
        <ele>14.037417</ele>
        <time>2014-02-27T14:05:15Z</time>
      </trkpt>
      <trkpt lat="46.33084" lon="-0.46739">
        <ele>14.037417</ele>
        <time>2014-02-27T14:05:20Z</time>
      </trkpt>
      <trkpt lat="46.33083" lon="-0.46727">
        <ele>13.375011</ele>
        <time>2014-02-27T14:05:25Z</time>
      </trkpt>
      <trkpt lat="46.33082" lon="-0.46718">
        <ele>13.375011</ele>
        <time>2014-02-27T14:05:30Z</time>
      </trkpt>
      <trkpt lat="46.3308" lon="-0.46712">
        <ele>12.429661</ele>
        <time>2014-02-27T14:05:35Z</time>
      </trkpt>
      <trkpt lat="46.3308" lon="-0.46713">
        <ele>12.429661</ele>
        <time>2014-02-27T14:05:40Z</time>
      </trkpt>
      <trkpt lat="46.33083" lon="-0.4671">
        <ele>12.429661</ele>
        <time>2014-02-27T14:05:45Z</time>
      </trkpt>
      <trkpt lat="46.3308" lon="-0.46704">
        <ele>12.429661</ele>
        <time>2014-02-27T14:05:50Z</time>
      </trkpt>
      <trkpt lat="46.33082" lon="-0.46693">
        <ele>12.071552</ele>
        <time>2014-02-27T14:05:55Z</time>
      </trkpt>
      <trkpt lat="46.33082" lon="-0.46683">
        <ele>12.071552</ele>
        <time>2014-02-27T14:06:00Z</time>
      </trkpt>
      <trkpt lat="46.33082" lon="-0.46672">
        <ele>11.691569</ele>
        <time>2014-02-27T14:06:05Z</time>
      </trkpt>
      <trkpt lat="46.33083" lon="-0.46662">
        <ele>11.691569</ele>
        <time>2014-02-27T14:06:10Z</time>
      </trkpt>
      <trkpt lat="46.33082" lon="-0.46654">
        <ele>11.262112</ele>
        <time>2014-02-27T14:06:15Z</time>
      </trkpt>
      <trkpt lat="46.33082" lon="-0.46645">
        <ele>11.262112</ele>
        <time>2014-02-27T14:06:20Z</time>
      </trkpt>
      <trkpt lat="46.33082" lon="-0.46635">
        <ele>10.884602</ele>
        <time>2014-02-27T14:06:25Z</time>
      </trkpt>
      <trkpt lat="46.3308" lon="-0.46625">
        <ele>10.884602</ele>
        <time>2014-02-27T14:06:30Z</time>
      </trkpt>
      <trkpt lat="46.33079" lon="-0.46618">
        <ele>10.894016</ele>
        <time>2014-02-27T14:06:35Z</time>
      </trkpt>
      <trkpt lat="46.33082" lon="-0.46608">
        <ele>10.894016</ele>
        <time>2014-02-27T14:06:40Z</time>
      </trkpt>
      <trkpt lat="46.33082" lon="-0.466">
        <ele>10.925837</ele>
        <time>2014-02-27T14:06:45Z</time>
      </trkpt>
      <trkpt lat="46.3308" lon="-0.46591">
        <ele>10.925837</ele>
        <time>2014-02-27T14:06:50Z</time>
      </trkpt>
      <trkpt lat="46.3308" lon="-0.46581">
        <ele>10.887044</ele>
        <time>2014-02-27T14:06:55Z</time>
      </trkpt>
      <trkpt lat="46.3308" lon="-0.46572">
        <ele>10.887044</ele>
        <time>2014-02-27T14:07:00Z</time>
      </trkpt>
      <trkpt lat="46.3308" lon="-0.46564">
        <ele>11.051135</ele>
        <time>2014-02-27T14:07:05Z</time>
      </trkpt>
      <trkpt lat="46.33083" lon="-0.46554">
        <ele>11.051135</ele>
        <time>2014-02-27T14:07:10Z</time>
      </trkpt>
      <trkpt lat="46.33083" lon="-0.46547">
        <ele>11.789069</ele>
        <time>2014-02-27T14:07:15Z</time>
      </trkpt>
      <trkpt lat="46.33083" lon="-0.4654">
        <ele>11.789069</ele>
        <time>2014-02-27T14:07:20Z</time>
      </trkpt>
      <trkpt lat="46.33083" lon="-0.46533">
        <ele>12.305532</ele>
        <time>2014-02-27T14:07:25Z</time>
      </trkpt>
      <trkpt lat="46.33082" lon="-0.46524">
        <ele>12.305532</ele>
        <time>2014-02-27T14:07:30Z</time>
      </trkpt>
      <trkpt lat="46.33082" lon="-0.46516">
        <ele>12.551427</ele>
        <time>2014-02-27T14:07:35Z</time>
      </trkpt>
      <trkpt lat="46.33078" lon="-0.46506">
        <ele>12.551427</ele>
        <time>2014-02-27T14:07:40Z</time>
      </trkpt>
      <trkpt lat="46.33079" lon="-0.46498">
        <ele>13.046898</ele>
        <time>2014-02-27T14:07:45Z</time>
      </trkpt>
      <trkpt lat="46.33082" lon="-0.46491">
        <ele>13.046898</ele>
        <time>2014-02-27T14:07:50Z</time>
      </trkpt>
      <trkpt lat="46.33081" lon="-0.46485">
        <ele>13.474598</ele>
        <time>2014-02-27T14:07:55Z</time>
      </trkpt>
      <trkpt lat="46.33077" lon="-0.46474">
        <ele>13.474598</ele>
        <time>2014-02-27T14:08:00Z</time>
      </trkpt>
      <trkpt lat="46.33077" lon="-0.46464">
        <ele>13.700925</ele>
        <time>2014-02-27T14:08:05Z</time>
      </trkpt>
      <trkpt lat="46.33076" lon="-0.46455">
        <ele>13.700925</ele>
        <time>2014-02-27T14:08:10Z</time>
      </trkpt>
      <trkpt lat="46.33076" lon="-0.46448">
        <ele>13.436517</ele>
        <time>2014-02-27T14:08:15Z</time>
      </trkpt>
      <trkpt lat="46.33075" lon="-0.4644">
        <ele>13.436517</ele>
        <time>2014-02-27T14:08:20Z</time>
      </trkpt>
      <trkpt lat="46.33075" lon="-0.46431">
        <ele>13.426797</ele>
        <time>2014-02-27T14:08:25Z</time>
      </trkpt>
      <trkpt lat="46.33076" lon="-0.46423">
        <ele>13.426797</ele>
        <time>2014-02-27T14:08:30Z</time>
      </trkpt>
      <trkpt lat="46.33076" lon="-0.46415">
        <ele>13.680714</ele>
        <time>2014-02-27T14:08:35Z</time>
      </trkpt>
      <trkpt lat="46.33076" lon="-0.46405">
        <ele>13.680714</ele>
        <time>2014-02-27T14:08:40Z</time>
      </trkpt>
      <trkpt lat="46.33077" lon="-0.46398">
        <ele>13.929468</ele>
        <time>2014-02-27T14:08:45Z</time>
      </trkpt>
      <trkpt lat="46.33079" lon="-0.46389">
        <ele>13.929468</ele>
        <time>2014-02-27T14:08:50Z</time>
      </trkpt>
      <trkpt lat="46.3308" lon="-0.46382">
        <ele>13.99157</ele>
        <time>2014-02-27T14:08:55Z</time>
      </trkpt>
      <trkpt lat="46.33083" lon="-0.46379">
        <ele>13.99157</ele>
        <time>2014-02-27T14:09:00Z</time>
      </trkpt>
      <trkpt lat="46.33087" lon="-0.46373">
        <ele>13.822251</ele>
        <time>2014-02-27T14:09:05Z</time>
      </trkpt>
      <trkpt lat="46.33091" lon="-0.46371">
        <ele>13.822251</ele>
        <time>2014-02-27T14:09:10Z</time>
      </trkpt>
      <trkpt lat="46.33092" lon="-0.46365">
        <ele>13.822251</ele>
        <time>2014-02-27T14:09:15Z</time>
      </trkpt>
      <trkpt lat="46.33091" lon="-0.46358">
        <ele>13.252259</ele>
        <time>2014-02-27T14:09:20Z</time>
      </trkpt>
      <trkpt lat="46.33091" lon="-0.46351">
        <ele>13.252259</ele>
        <time>2014-02-27T14:09:25Z</time>
      </trkpt>
      <trkpt lat="46.3309" lon="-0.46344">
        <ele>12.844833</ele>
        <time>2014-02-27T14:09:30Z</time>
      </trkpt>
      <trkpt lat="46.33091" lon="-0.46334">
        <ele>12.844833</ele>
        <time>2014-02-27T14:09:35Z</time>
      </trkpt>
      <trkpt lat="46.33091" lon="-0.4633">
        <ele>12.577607</ele>
        <time>2014-02-27T14:09:40Z</time>
      </trkpt>
      <trkpt lat="46.33093" lon="-0.46322">
        <ele>12.577607</ele>
        <time>2014-02-27T14:09:45Z</time>
      </trkpt>
      <trkpt lat="46.33094" lon="-0.46314">
        <ele>12.443567</ele>
        <time>2014-02-27T14:09:50Z</time>
      </trkpt>
      <trkpt lat="46.33094" lon="-0.46305">
        <ele>12.443567</ele>
        <time>2014-02-27T14:09:55Z</time>
      </trkpt>
      <trkpt lat="46.33093" lon="-0.46298">
        <ele>12.334377</ele>
        <time>2014-02-27T14:10:00Z</time>
      </trkpt>
      <trkpt lat="46.33093" lon="-0.46293">
        <ele>12.334377</ele>
        <time>2014-02-27T14:10:05Z</time>
      </trkpt>
      <trkpt lat="46.33094" lon="-0.46281">
        <ele>12.729838</ele>
        <time>2014-02-27T14:10:10Z</time>
      </trkpt>
      <trkpt lat="46.33095" lon="-0.46279">
        <ele>12.729838</ele>
        <time>2014-02-27T14:10:15Z</time>
      </trkpt>
      <trkpt lat="46.33095" lon="-0.46275">
        <ele>12.729838</ele>
        <time>2014-02-27T14:10:20Z</time>
      </trkpt>
      <trkpt lat="46.33098" lon="-0.46271">
        <ele>12.729838</ele>
        <time>2014-02-27T14:10:25Z</time>
      </trkpt>
      <trkpt lat="46.33102" lon="-0.46263">
        <ele>14.464104</ele>
        <time>2014-02-27T14:10:30Z</time>
      </trkpt>
      <trkpt lat="46.33098" lon="-0.46254">
        <ele>14.464104</ele>
        <time>2014-02-27T14:10:35Z</time>
      </trkpt>
      <trkpt lat="46.33097" lon="-0.46245">
        <ele>16.078083</ele>
        <time>2014-02-27T14:10:40Z</time>
      </trkpt>
      <trkpt lat="46.33097" lon="-0.46238">
        <ele>16.078083</ele>
        <time>2014-02-27T14:10:45Z</time>
      </trkpt>
      <trkpt lat="46.33097" lon="-0.46228">
        <ele>17.927652</ele>
        <time>2014-02-27T14:10:50Z</time>
      </trkpt>
      <trkpt lat="46.33098" lon="-0.46221">
        <ele>17.927652</ele>
        <time>2014-02-27T14:10:55Z</time>
      </trkpt>
      <trkpt lat="46.33098" lon="-0.46219">
        <ele>17.927652</ele>
        <time>2014-02-27T14:11:00Z</time>
      </trkpt>
      <trkpt lat="46.33101" lon="-0.46218">
        <ele>19.483067</ele>
        <time>2014-02-27T14:11:05Z</time>
      </trkpt>
      <trkpt lat="46.33106" lon="-0.46218">
        <ele>19.483067</ele>
        <time>2014-02-27T14:11:10Z</time>
      </trkpt>
      <trkpt lat="46.33113" lon="-0.46218">
        <ele>20.681885</ele>
        <time>2014-02-27T14:11:15Z</time>
      </trkpt>
      <trkpt lat="46.33114" lon="-0.46216">
        <ele>20.681885</ele>
        <time>2014-02-27T14:11:21Z</time>
      </trkpt>
      <trkpt lat="46.33116" lon="-0.46215">
        <ele>20.681885</ele>
        <time>2014-02-27T14:11:25Z</time>
      </trkpt>
      <trkpt lat="46.33116" lon="-0.46214">
        <ele>20.681885</ele>
        <time>2014-02-27T14:11:30Z</time>
      </trkpt>
      <trkpt lat="46.33121" lon="-0.46211">
        <ele>20.65783</ele>
        <time>2014-02-27T14:11:40Z</time>
      </trkpt>
      <trkpt lat="46.33127" lon="-0.46209">
        <ele>20.65783</ele>
        <time>2014-02-27T14:11:45Z</time>
      </trkpt>
      <trkpt lat="46.33132" lon="-0.46209">
        <ele>20.835295</ele>
        <time>2014-02-27T14:11:50Z</time>
      </trkpt>
      <trkpt lat="46.33137" lon="-0.4621">
        <ele>20.835295</ele>
        <time>2014-02-27T14:11:55Z</time>
      </trkpt>
      <trkpt lat="46.33146" lon="-0.4621">
        <ele>21.094654</ele>
        <time>2014-02-27T14:12:00Z</time>
      </trkpt>
      <trkpt lat="46.33156" lon="-0.46214">
        <ele>21.143103</ele>
        <time>2014-02-27T14:12:05Z</time>
      </trkpt>
      <trkpt lat="46.3316" lon="-0.46213">
        <ele>21.143103</ele>
        <time>2014-02-27T14:12:10Z</time>
      </trkpt>
      <trkpt lat="46.33161" lon="-0.46213">
        <ele>21.143103</ele>
        <time>2014-02-27T14:12:15Z</time>
      </trkpt>
      <trkpt lat="46.33165" lon="-0.46212">
        <ele>21.072613</ele>
        <time>2014-02-27T14:12:20Z</time>
      </trkpt>
      <trkpt lat="46.33175" lon="-0.46211">
        <ele>21.10481</ele>
        <time>2014-02-27T14:12:25Z</time>
      </trkpt>
      <trkpt lat="46.33182" lon="-0.46214">
        <ele>21.10481</ele>
        <time>2014-02-27T14:12:30Z</time>
      </trkpt>
      <trkpt lat="46.3319" lon="-0.46215">
        <ele>20.689342</ele>
        <time>2014-02-27T14:12:35Z</time>
      </trkpt>
      <trkpt lat="46.33197" lon="-0.46217">
        <ele>20.689342</ele>
        <time>2014-02-27T14:12:40Z</time>
      </trkpt>
      <trkpt lat="46.332" lon="-0.46218">
        <ele>20.346138</ele>
        <time>2014-02-27T14:12:45Z</time>
      </trkpt>
      <trkpt lat="46.33203" lon="-0.46218">
        <ele>20.346138</ele>
        <time>2014-02-27T14:12:50Z</time>
      </trkpt>
      <trkpt lat="46.33213" lon="-0.4622">
        <ele>20.643467</ele>
        <time>2014-02-27T14:12:55Z</time>
      </trkpt>
      <trkpt lat="46.3322" lon="-0.46221">
        <ele>20.643467</ele>
        <time>2014-02-27T14:13:00Z</time>
      </trkpt>
      <trkpt lat="46.33229" lon="-0.46221">
        <ele>20.507734</ele>
        <time>2014-02-27T14:13:05Z</time>
      </trkpt>
      <trkpt lat="46.33233" lon="-0.4622">
        <ele>20.507734</ele>
        <time>2014-02-27T14:13:10Z</time>
      </trkpt>
      <trkpt lat="46.33239" lon="-0.46214">
        <ele>20.215092</ele>
        <time>2014-02-27T14:13:15Z</time>
      </trkpt>
      <trkpt lat="46.33244" lon="-0.46213">
        <ele>20.215092</ele>
        <time>2014-02-27T14:13:20Z</time>
      </trkpt>
      <trkpt lat="46.33251" lon="-0.46212">
        <ele>20.183947</ele>
        <time>2014-02-27T14:13:25Z</time>
      </trkpt>
      <trkpt lat="46.33255" lon="-0.46215">
        <ele>20.183947</ele>
        <time>2014-02-27T14:13:30Z</time>
      </trkpt>
      <trkpt lat="46.33259" lon="-0.46222">
        <ele>19.915874</ele>
        <time>2014-02-27T14:13:36Z</time>
      </trkpt>
      <trkpt lat="46.33266" lon="-0.46228">
        <ele>19.915874</ele>
        <time>2014-02-27T14:13:40Z</time>
      </trkpt>
      <trkpt lat="46.33267" lon="-0.46229">
        <ele>19.208237</ele>
        <time>2014-02-27T14:13:45Z</time>
      </trkpt>
      <trkpt lat="46.33267" lon="-0.46231">
        <ele>19.208237</ele>
        <time>2014-02-27T14:13:50Z</time>
      </trkpt>
      <trkpt lat="46.33268" lon="-0.46231">
        <ele>19.208237</ele>
        <time>2014-02-27T14:13:55Z</time>
      </trkpt>
      <trkpt lat="46.33279" lon="-0.46225">
        <ele>18.560173</ele>
        <time>2014-02-27T14:14:00Z</time>
      </trkpt>
      <trkpt lat="46.33285" lon="-0.46229">
        <ele>18.560173</ele>
        <time>2014-02-27T14:14:05Z</time>
      </trkpt>
      <trkpt lat="46.33288" lon="-0.46229">
        <ele>17.998764</ele>
        <time>2014-02-27T14:14:10Z</time>
      </trkpt>
      <trkpt lat="46.33295" lon="-0.46234">
        <ele>17.998764</ele>
        <time>2014-02-27T14:14:15Z</time>
      </trkpt>
      <trkpt lat="46.33303" lon="-0.46237">
        <ele>17.651983</ele>
        <time>2014-02-27T14:14:20Z</time>
      </trkpt>
      <trkpt lat="46.33308" lon="-0.46238">
        <ele>17.651983</ele>
        <time>2014-02-27T14:14:25Z</time>
      </trkpt>
      <trkpt lat="46.33314" lon="-0.4624">
        <ele>17.66595</ele>
        <time>2014-02-27T14:14:30Z</time>
      </trkpt>
      <trkpt lat="46.33316" lon="-0.46241">
        <ele>17.66595</ele>
        <time>2014-02-27T14:14:35Z</time>
      </trkpt>
      <trkpt lat="46.33322" lon="-0.46242">
        <ele>17.66595</ele>
        <time>2014-02-27T14:14:40Z</time>
      </trkpt>
      <trkpt lat="46.33327" lon="-0.46243">
        <ele>18.291344</ele>
        <time>2014-02-27T14:14:45Z</time>
      </trkpt>
      <trkpt lat="46.33334" lon="-0.46249">
        <ele>18.291344</ele>
        <time>2014-02-27T14:14:50Z</time>
      </trkpt>
      <trkpt lat="46.33339" lon="-0.4625">
        <ele>18.729042</ele>
        <time>2014-02-27T14:14:55Z</time>
      </trkpt>
      <trkpt lat="46.33345" lon="-0.4625">
        <ele>18.729042</ele>
        <time>2014-02-27T14:15:00Z</time>
      </trkpt>
      <trkpt lat="46.33351" lon="-0.46253">
        <ele>18.75906</ele>
        <time>2014-02-27T14:15:05Z</time>
      </trkpt>
      <trkpt lat="46.33356" lon="-0.46255">
        <ele>18.75906</ele>
        <time>2014-02-27T14:15:10Z</time>
      </trkpt>
      <trkpt lat="46.33362" lon="-0.46255">
        <ele>18.42887</ele>
        <time>2014-02-27T14:15:15Z</time>
      </trkpt>
      <trkpt lat="46.33369" lon="-0.4626">
        <ele>18.42887</ele>
        <time>2014-02-27T14:15:20Z</time>
      </trkpt>
      <trkpt lat="46.33375" lon="-0.46264">
        <ele>18.308088</ele>
        <time>2014-02-27T14:15:25Z</time>
      </trkpt>
      <trkpt lat="46.3338" lon="-0.46266">
        <ele>18.308088</ele>
        <time>2014-02-27T14:15:31Z</time>
      </trkpt>
      <trkpt lat="46.33387" lon="-0.46273">
        <ele>18.089573</ele>
        <time>2014-02-27T14:15:35Z</time>
      </trkpt>
      <trkpt lat="46.33392" lon="-0.46278">
        <ele>18.089573</ele>
        <time>2014-02-27T14:15:40Z</time>
      </trkpt>
      <trkpt lat="46.33396" lon="-0.4628">
        <ele>17.869139</ele>
        <time>2014-02-27T14:15:45Z</time>
      </trkpt>
      <trkpt lat="46.33404" lon="-0.46284">
        <ele>17.869139</ele>
        <time>2014-02-27T14:15:50Z</time>
      </trkpt>
      <trkpt lat="46.33408" lon="-0.46288">
        <ele>17.880184</ele>
        <time>2014-02-27T14:15:55Z</time>
      </trkpt>
      <trkpt lat="46.33416" lon="-0.46296">
        <ele>18.163128</ele>
        <time>2014-02-27T14:16:00Z</time>
      </trkpt>
      <trkpt lat="46.3342" lon="-0.46301">
        <ele>18.163128</ele>
        <time>2014-02-27T14:16:05Z</time>
      </trkpt>
      <trkpt lat="46.33425" lon="-0.46301">
        <ele>19.058868</ele>
        <time>2014-02-27T14:16:10Z</time>
      </trkpt>
      <trkpt lat="46.3343" lon="-0.46298">
        <ele>19.058868</ele>
        <time>2014-02-27T14:16:15Z</time>
      </trkpt>
      <trkpt lat="46.33433" lon="-0.46302">
        <ele>19.939672</ele>
        <time>2014-02-27T14:16:20Z</time>
      </trkpt>
      <trkpt lat="46.33439" lon="-0.46306">
        <ele>19.939672</ele>
        <time>2014-02-27T14:16:25Z</time>
      </trkpt>
      <trkpt lat="46.33443" lon="-0.4631">
        <ele>21.469969</ele>
        <time>2014-02-27T14:16:30Z</time>
      </trkpt>
      <trkpt lat="46.33446" lon="-0.46314">
        <ele>21.469969</ele>
        <time>2014-02-27T14:16:35Z</time>
      </trkpt>
      <trkpt lat="46.33453" lon="-0.46318">
        <ele>22.26749</ele>
        <time>2014-02-27T14:16:40Z</time>
      </trkpt>
      <trkpt lat="46.33458" lon="-0.46321">
        <ele>22.26749</ele>
        <time>2014-02-27T14:16:45Z</time>
      </trkpt>
      <trkpt lat="46.33467" lon="-0.46326">
        <ele>22.631182</ele>
        <time>2014-02-27T14:16:50Z</time>
      </trkpt>
      <trkpt lat="46.33473" lon="-0.46328">
        <ele>22.631182</ele>
        <time>2014-02-27T14:16:55Z</time>
      </trkpt>
      <trkpt lat="46.33478" lon="-0.46328">
        <ele>22.361952</ele>
        <time>2014-02-27T14:17:00Z</time>
      </trkpt>
      <trkpt lat="46.33475" lon="-0.46326">
        <ele>22.361952</ele>
        <time>2014-02-27T14:17:05Z</time>
      </trkpt>
      <trkpt lat="46.33476" lon="-0.46328">
        <ele>22.361952</ele>
        <time>2014-02-27T14:17:10Z</time>
      </trkpt>
      <trkpt lat="46.33483" lon="-0.46331">
        <ele>21.262781</ele>
        <time>2014-02-27T14:17:15Z</time>
      </trkpt>
      <trkpt lat="46.33489" lon="-0.46335">
        <ele>21.262781</ele>
        <time>2014-02-27T14:17:20Z</time>
      </trkpt>
      <trkpt lat="46.33495" lon="-0.46337">
        <ele>20.264235</ele>
        <time>2014-02-27T14:17:25Z</time>
      </trkpt>
      <trkpt lat="46.33499" lon="-0.46341">
        <ele>20.264235</ele>
        <time>2014-02-27T14:17:30Z</time>
      </trkpt>
      <trkpt lat="46.33506" lon="-0.46344">
        <ele>19.246468</ele>
        <time>2014-02-27T14:17:35Z</time>
      </trkpt>
      <trkpt lat="46.33513" lon="-0.46346">
        <ele>19.246468</ele>
        <time>2014-02-27T14:17:40Z</time>
      </trkpt>
      <trkpt lat="46.33519" lon="-0.4635">
        <ele>17.939997</ele>
        <time>2014-02-27T14:17:45Z</time>
      </trkpt>
      <trkpt lat="46.33525" lon="-0.46356">
        <ele>17.939997</ele>
        <time>2014-02-27T14:17:50Z</time>
      </trkpt>
      <trkpt lat="46.3353" lon="-0.46359">
        <ele>16.41328</ele>
        <time>2014-02-27T14:17:55Z</time>
      </trkpt>
      <trkpt lat="46.33535" lon="-0.46364">
        <ele>16.41328</ele>
        <time>2014-02-27T14:18:00Z</time>
      </trkpt>
      <trkpt lat="46.33541" lon="-0.46368">
        <ele>14.557272</ele>
        <time>2014-02-27T14:18:05Z</time>
      </trkpt>
      <trkpt lat="46.33546" lon="-0.46372">
        <ele>14.557272</ele>
        <time>2014-02-27T14:18:10Z</time>
      </trkpt>
      <trkpt lat="46.33553" lon="-0.46377">
        <ele>13.122465</ele>
        <time>2014-02-27T14:18:15Z</time>
      </trkpt>
      <trkpt lat="46.33558" lon="-0.4638">
        <ele>13.122465</ele>
        <time>2014-02-27T14:18:20Z</time>
      </trkpt>
      <trkpt lat="46.33564" lon="-0.46383">
        <ele>11.721641</ele>
        <time>2014-02-27T14:18:25Z</time>
      </trkpt>
      <trkpt lat="46.33568" lon="-0.46387">
        <ele>11.721641</ele>
        <time>2014-02-27T14:18:30Z</time>
      </trkpt>
      <trkpt lat="46.33572" lon="-0.46389">
        <ele>10.687972</ele>
        <time>2014-02-27T14:18:35Z</time>
      </trkpt>
      <trkpt lat="46.33577" lon="-0.46393">
        <ele>10.687972</ele>
        <time>2014-02-27T14:18:41Z</time>
      </trkpt>
      <trkpt lat="46.33584" lon="-0.46396">
        <ele>9.36306</ele>
        <time>2014-02-27T14:18:45Z</time>
      </trkpt>
      <trkpt lat="46.33588" lon="-0.46406">
        <ele>9.36306</ele>
        <time>2014-02-27T14:18:50Z</time>
      </trkpt>
      <trkpt lat="46.33595" lon="-0.46411">
        <ele>8.103652</ele>
        <time>2014-02-27T14:18:55Z</time>
      </trkpt>
      <trkpt lat="46.33595" lon="-0.46418">
        <ele>8.103652</ele>
        <time>2014-02-27T14:19:00Z</time>
      </trkpt>
      <trkpt lat="46.33599" lon="-0.46423">
        <ele>8.105291</ele>
        <time>2014-02-27T14:19:06Z</time>
      </trkpt>
      <trkpt lat="46.336" lon="-0.46433">
        <ele>8.105291</ele>
        <time>2014-02-27T14:19:10Z</time>
      </trkpt>
      <trkpt lat="46.33601" lon="-0.46437">
        <ele>7.8908834</ele>
        <time>2014-02-27T14:19:15Z</time>
      </trkpt>
      <trkpt lat="46.33597" lon="-0.46445">
        <ele>7.8908834</ele>
        <time>2014-02-27T14:19:20Z</time>
      </trkpt>
      <trkpt lat="46.33593" lon="-0.46447">
        <ele>7.995843</ele>
        <time>2014-02-27T14:19:25Z</time>
      </trkpt>
      <trkpt lat="46.33587" lon="-0.46453">
        <ele>7.995843</ele>
        <time>2014-02-27T14:19:30Z</time>
      </trkpt>
      <trkpt lat="46.33584" lon="-0.46456">
        <ele>8.136527</ele>
        <time>2014-02-27T14:19:35Z</time>
      </trkpt>
      <trkpt lat="46.33579" lon="-0.46461">
        <ele>8.136527</ele>
        <time>2014-02-27T14:19:40Z</time>
      </trkpt>
      <trkpt lat="46.33575" lon="-0.46465">
        <ele>8.323969</ele>
        <time>2014-02-27T14:19:45Z</time>
      </trkpt>
      <trkpt lat="46.33569" lon="-0.4647">
        <ele>8.323969</ele>
        <time>2014-02-27T14:19:50Z</time>
      </trkpt>
      <trkpt lat="46.33566" lon="-0.46475">
        <ele>8.582624</ele>
        <time>2014-02-27T14:19:55Z</time>
      </trkpt>
      <trkpt lat="46.3356" lon="-0.46479">
        <ele>8.582624</ele>
        <time>2014-02-27T14:20:00Z</time>
      </trkpt>
      <trkpt lat="46.33555" lon="-0.4648">
        <ele>8.19927</ele>
        <time>2014-02-27T14:20:05Z</time>
      </trkpt>
      <trkpt lat="46.3355" lon="-0.46481">
        <ele>8.19927</ele>
        <time>2014-02-27T14:20:10Z</time>
      </trkpt>
      <trkpt lat="46.33545" lon="-0.46483">
        <ele>8.375582</ele>
        <time>2014-02-27T14:20:16Z</time>
      </trkpt>
      <trkpt lat="46.33538" lon="-0.4649">
        <ele>8.375582</ele>
        <time>2014-02-27T14:20:20Z</time>
      </trkpt>
      <trkpt lat="46.33535" lon="-0.46492">
        <ele>8.50681</ele>
        <time>2014-02-27T14:20:25Z</time>
      </trkpt>
      <trkpt lat="46.33528" lon="-0.46498">
        <ele>8.50681</ele>
        <time>2014-02-27T14:20:30Z</time>
      </trkpt>
      <trkpt lat="46.33521" lon="-0.46501">
        <ele>10.196407</ele>
        <time>2014-02-27T14:20:35Z</time>
      </trkpt>
      <trkpt lat="46.33517" lon="-0.46499">
        <ele>10.196407</ele>
        <time>2014-02-27T14:20:40Z</time>
      </trkpt>
      <trkpt lat="46.33513" lon="-0.46498">
        <ele>10.196407</ele>
        <time>2014-02-27T14:20:45Z</time>
      </trkpt>
      <trkpt lat="46.33506" lon="-0.46495">
        <ele>10.944389</ele>
        <time>2014-02-27T14:20:50Z</time>
      </trkpt>
      <trkpt lat="46.33503" lon="-0.46493">
        <ele>10.944389</ele>
        <time>2014-02-27T14:20:55Z</time>
      </trkpt>
      <trkpt lat="46.33501" lon="-0.46489">
        <ele>10.944389</ele>
        <time>2014-02-27T14:21:00Z</time>
      </trkpt>
      <trkpt lat="46.33498" lon="-0.46484">
        <ele>11.697141</ele>
        <time>2014-02-27T14:21:05Z</time>
      </trkpt>
      <trkpt lat="46.33491" lon="-0.46485">
        <ele>11.697141</ele>
        <time>2014-02-27T14:21:10Z</time>
      </trkpt>
      <trkpt lat="46.33489" lon="-0.46488">
        <ele>12.59579</ele>
        <time>2014-02-27T14:21:15Z</time>
      </trkpt>
      <trkpt lat="46.33488" lon="-0.46493">
        <ele>12.59579</ele>
        <time>2014-02-27T14:21:20Z</time>
      </trkpt>
      <trkpt lat="46.33487" lon="-0.46497">
        <ele>12.59579</ele>
        <time>2014-02-27T14:21:25Z</time>
      </trkpt>
      <trkpt lat="46.33481" lon="-0.46502">
        <ele>12.934145</ele>
        <time>2014-02-27T14:21:30Z</time>
      </trkpt>
      <trkpt lat="46.33475" lon="-0.4651">
        <ele>12.934145</ele>
        <time>2014-02-27T14:21:35Z</time>
      </trkpt>
      <trkpt lat="46.3347" lon="-0.46516">
        <ele>13.328782</ele>
        <time>2014-02-27T14:21:40Z</time>
      </trkpt>
      <trkpt lat="46.33468" lon="-0.46515">
        <ele>13.328782</ele>
        <time>2014-02-27T14:21:45Z</time>
      </trkpt>
      <trkpt lat="46.33468" lon="-0.46516">
        <ele>13.328782</ele>
        <time>2014-02-27T14:21:50Z</time>
      </trkpt>
      <trkpt lat="46.33469" lon="-0.46517">
        <ele>13.328782</ele>
        <time>2014-02-27T14:21:55Z</time>
      </trkpt>
      <trkpt lat="46.33468" lon="-0.46517">
        <ele>13.328782</ele>
        <time>2014-02-27T14:22:00Z</time>
      </trkpt>
      <trkpt lat="46.33469" lon="-0.46517">
        <ele>13.328782</ele>
        <time>2014-02-27T14:22:05Z</time>
      </trkpt>
      <trkpt lat="46.33469" lon="-0.46517">
        <ele>13.328782</ele>
        <time>2014-02-27T14:22:10Z</time>
      </trkpt>
      <trkpt lat="46.33469" lon="-0.46519">
        <ele>13.328782</ele>
        <time>2014-02-27T14:22:15Z</time>
      </trkpt>
      <trkpt lat="46.3347" lon="-0.46519">
        <ele>13.328782</ele>
        <time>2014-02-27T14:22:20Z</time>
      </trkpt>
      <trkpt lat="46.33473" lon="-0.46522">
        <ele>13.485425</ele>
        <time>2014-02-27T14:22:25Z</time>
      </trkpt>
      <trkpt lat="46.33474" lon="-0.46528">
        <ele>13.485425</ele>
        <time>2014-02-27T14:22:30Z</time>
      </trkpt>
      <trkpt lat="46.33472" lon="-0.46535">
        <ele>13.69459</ele>
        <time>2014-02-27T14:22:35Z</time>
      </trkpt>
      <trkpt lat="46.33475" lon="-0.46544">
        <ele>13.69459</ele>
        <time>2014-02-27T14:22:40Z</time>
      </trkpt>
      <trkpt lat="46.3348" lon="-0.46551">
        <ele>13.403305</ele>
        <time>2014-02-27T14:22:45Z</time>
      </trkpt>
      <trkpt lat="46.33481" lon="-0.4655">
        <ele>13.403305</ele>
        <time>2014-02-27T14:22:50Z</time>
      </trkpt>
      <trkpt lat="46.3348" lon="-0.46551">
        <ele>13.403305</ele>
        <time>2014-02-27T14:22:55Z</time>
      </trkpt>
      <trkpt lat="46.3348" lon="-0.46552">
        <ele>13.403305</ele>
        <time>2014-02-27T14:23:00Z</time>
      </trkpt>
      <trkpt lat="46.33485" lon="-0.46557">
        <ele>13.403305</ele>
        <time>2014-02-27T14:23:10Z</time>
      </trkpt>
      <trkpt lat="46.33487" lon="-0.46558">
        <ele>14.206032</ele>
        <time>2014-02-27T14:23:15Z</time>
      </trkpt>
      <trkpt lat="46.3349" lon="-0.4656">
        <ele>14.206032</ele>
        <time>2014-02-27T14:23:20Z</time>
      </trkpt>
      <trkpt lat="46.33494" lon="-0.46559">
        <ele>14.206032</ele>
        <time>2014-02-27T14:23:25Z</time>
      </trkpt>
      <trkpt lat="46.33501" lon="-0.46558">
        <ele>15.15435</ele>
        <time>2014-02-27T14:23:30Z</time>
      </trkpt>
      <trkpt lat="46.33507" lon="-0.46557">
        <ele>15.15435</ele>
        <time>2014-02-27T14:23:35Z</time>
      </trkpt>
      <trkpt lat="46.33507" lon="-0.46558">
        <ele>15.15435</ele>
        <time>2014-02-27T14:23:40Z</time>
      </trkpt>
      <trkpt lat="46.33512" lon="-0.46558">
        <ele>16.162333</ele>
        <time>2014-02-27T14:23:45Z</time>
      </trkpt>
      <trkpt lat="46.33517" lon="-0.46558">
        <ele>16.162333</ele>
        <time>2014-02-27T14:23:50Z</time>
      </trkpt>
      <trkpt lat="46.33527" lon="-0.46557">
        <ele>16.78982</ele>
        <time>2014-02-27T14:23:55Z</time>
      </trkpt>
      <trkpt lat="46.3353" lon="-0.46556">
        <ele>16.78982</ele>
        <time>2014-02-27T14:24:00Z</time>
      </trkpt>
      <trkpt lat="46.33533" lon="-0.46558">
        <ele>16.78982</ele>
        <time>2014-02-27T14:24:05Z</time>
      </trkpt>
      <trkpt lat="46.33539" lon="-0.4656">
        <ele>16.428347</ele>
        <time>2014-02-27T14:24:10Z</time>
      </trkpt>
      <trkpt lat="46.3354" lon="-0.46564">
        <ele>16.428347</ele>
        <time>2014-02-27T14:24:15Z</time>
      </trkpt>
      <trkpt lat="46.33543" lon="-0.46567">
        <ele>16.428347</ele>
        <time>2014-02-27T14:24:20Z</time>
      </trkpt>
      <trkpt lat="46.33545" lon="-0.4657">
        <ele>16.36232</ele>
        <time>2014-02-27T14:24:25Z</time>
      </trkpt>
      <trkpt lat="46.33549" lon="-0.46574">
        <ele>16.36232</ele>
        <time>2014-02-27T14:24:30Z</time>
      </trkpt>
      <trkpt lat="46.33551" lon="-0.46577">
        <ele>16.36232</ele>
        <time>2014-02-27T14:24:35Z</time>
      </trkpt>
      <trkpt lat="46.33557" lon="-0.46582">
        <ele>16.800526</ele>
        <time>2014-02-27T14:24:40Z</time>
      </trkpt>
      <trkpt lat="46.33563" lon="-0.46586">
        <ele>16.800526</ele>
        <time>2014-02-27T14:24:45Z</time>
      </trkpt>
      <trkpt lat="46.33565" lon="-0.46589">
        <ele>17.617886</ele>
        <time>2014-02-27T14:24:50Z</time>
      </trkpt>
      <trkpt lat="46.3357" lon="-0.46595">
        <ele>17.617886</ele>
        <time>2014-02-27T14:24:55Z</time>
      </trkpt>
      <trkpt lat="46.33574" lon="-0.46602">
        <ele>18.94256</ele>
        <time>2014-02-27T14:25:00Z</time>
      </trkpt>
      <trkpt lat="46.33578" lon="-0.46607">
        <ele>18.94256</ele>
        <time>2014-02-27T14:25:06Z</time>
      </trkpt>
      <trkpt lat="46.33585" lon="-0.46611">
        <ele>19.709976</ele>
        <time>2014-02-27T14:25:10Z</time>
      </trkpt>
      <trkpt lat="46.33589" lon="-0.46612">
        <ele>19.709976</ele>
        <time>2014-02-27T14:25:15Z</time>
      </trkpt>
      <trkpt lat="46.33595" lon="-0.46614">
        <ele>19.81472</ele>
        <time>2014-02-27T14:25:20Z</time>
      </trkpt>
      <trkpt lat="46.33597" lon="-0.46615">
        <ele>19.81472</ele>
        <time>2014-02-27T14:25:25Z</time>
      </trkpt>
      <trkpt lat="46.33601" lon="-0.46615">
        <ele>19.81472</ele>
        <time>2014-02-27T14:25:30Z</time>
      </trkpt>
      <trkpt lat="46.33607" lon="-0.46615">
        <ele>19.852858</ele>
        <time>2014-02-27T14:25:35Z</time>
      </trkpt>
      <trkpt lat="46.33609" lon="-0.46615">
        <ele>19.852858</ele>
        <time>2014-02-27T14:25:41Z</time>
      </trkpt>
      <trkpt lat="46.33617" lon="-0.46616">
        <ele>19.84357</ele>
        <time>2014-02-27T14:25:46Z</time>
      </trkpt>
      <trkpt lat="46.33623" lon="-0.46617">
        <ele>19.84357</ele>
        <time>2014-02-27T14:25:50Z</time>
      </trkpt>
      <trkpt lat="46.33631" lon="-0.46619">
        <ele>19.732758</ele>
        <time>2014-02-27T14:25:55Z</time>
      </trkpt>
      <trkpt lat="46.33632" lon="-0.46619">
        <ele>19.732758</ele>
        <time>2014-02-27T14:26:00Z</time>
      </trkpt>
      <trkpt lat="46.33638" lon="-0.4662">
        <ele>19.732758</ele>
        <time>2014-02-27T14:26:05Z</time>
      </trkpt>
      <trkpt lat="46.33644" lon="-0.46618">
        <ele>19.44179</ele>
        <time>2014-02-27T14:26:10Z</time>
      </trkpt>
      <trkpt lat="46.33644" lon="-0.46614">
        <ele>19.44179</ele>
        <time>2014-02-27T14:26:15Z</time>
      </trkpt>
      <trkpt lat="46.33644" lon="-0.46612">
        <ele>19.44179</ele>
        <time>2014-02-27T14:26:20Z</time>
      </trkpt>
      <trkpt lat="46.33644" lon="-0.46613">
        <ele>19.44179</ele>
        <time>2014-02-27T14:26:25Z</time>
      </trkpt>
      <trkpt lat="46.33646" lon="-0.46615">
        <ele>19.44179</ele>
        <time>2014-02-27T14:26:40Z</time>
      </trkpt>
      <trkpt lat="46.33652" lon="-0.46623">
        <ele>18.999254</ele>
        <time>2014-02-27T14:26:45Z</time>
      </trkpt>
      <trkpt lat="46.33654" lon="-0.46626">
        <ele>18.999254</ele>
        <time>2014-02-27T14:26:51Z</time>
      </trkpt>
      <trkpt lat="46.33663" lon="-0.46631">
        <ele>18.979733</ele>
        <time>2014-02-27T14:26:55Z</time>
      </trkpt>
      <trkpt lat="46.33667" lon="-0.46634">
        <ele>18.979733</ele>
        <time>2014-02-27T14:27:00Z</time>
      </trkpt>
      <trkpt lat="46.3367" lon="-0.46635">
        <ele>18.979733</ele>
        <time>2014-02-27T14:27:05Z</time>
      </trkpt>
      <trkpt lat="46.33674" lon="-0.46638">
        <ele>18.41562</ele>
        <time>2014-02-27T14:27:10Z</time>
      </trkpt>
      <trkpt lat="46.33676" lon="-0.46637">
        <ele>18.41562</ele>
        <time>2014-02-27T14:27:15Z</time>
      </trkpt>
      <trkpt lat="46.33683" lon="-0.46638">
        <ele>17.608126</ele>
        <time>2014-02-27T14:27:20Z</time>
      </trkpt>
      <trkpt lat="46.33689" lon="-0.46638">
        <ele>17.608126</ele>
        <time>2014-02-27T14:27:25Z</time>
      </trkpt>
      <trkpt lat="46.33694" lon="-0.46637">
        <ele>16.937891</ele>
        <time>2014-02-27T14:27:30Z</time>
      </trkpt>
      <trkpt lat="46.337" lon="-0.46639">
        <ele>16.937891</ele>
        <time>2014-02-27T14:27:35Z</time>
      </trkpt>
      <trkpt lat="46.33703" lon="-0.46635">
        <ele>16.49782</ele>
        <time>2014-02-27T14:27:40Z</time>
      </trkpt>
      <trkpt lat="46.33708" lon="-0.46633">
        <ele>16.49782</ele>
        <time>2014-02-27T14:27:45Z</time>
      </trkpt>
      <trkpt lat="46.33712" lon="-0.46626">
        <ele>15.6383705</ele>
        <time>2014-02-27T14:27:50Z</time>
      </trkpt>
      <trkpt lat="46.33716" lon="-0.4662">
        <ele>15.6383705</ele>
        <time>2014-02-27T14:27:55Z</time>
      </trkpt>
      <trkpt lat="46.3372" lon="-0.46614">
        <ele>14.493864</ele>
        <time>2014-02-27T14:28:00Z</time>
      </trkpt>
      <trkpt lat="46.33722" lon="-0.46608">
        <ele>14.493864</ele>
        <time>2014-02-27T14:28:05Z</time>
      </trkpt>
      <trkpt lat="46.33723" lon="-0.46599">
        <ele>13.636294</ele>
        <time>2014-02-27T14:28:10Z</time>
      </trkpt>
      <trkpt lat="46.33725" lon="-0.46594">
        <ele>13.636294</ele>
        <time>2014-02-27T14:28:15Z</time>
      </trkpt>
      <trkpt lat="46.33728" lon="-0.46586">
        <ele>13.104828</ele>
        <time>2014-02-27T14:28:20Z</time>
      </trkpt>
      <trkpt lat="46.3373" lon="-0.4658">
        <ele>13.104828</ele>
        <time>2014-02-27T14:28:25Z</time>
      </trkpt>
      <trkpt lat="46.3373" lon="-0.46573">
        <ele>12.358365</ele>
        <time>2014-02-27T14:28:30Z</time>
      </trkpt>
      <trkpt lat="46.33729" lon="-0.46566">
        <ele>12.358365</ele>
        <time>2014-02-27T14:28:36Z</time>
      </trkpt>
      <trkpt lat="46.3373" lon="-0.46555">
        <ele>11.659926</ele>
        <time>2014-02-27T14:28:40Z</time>
      </trkpt>
      <trkpt lat="46.33731" lon="-0.46549">
        <ele>11.659926</ele>
        <time>2014-02-27T14:28:45Z</time>
      </trkpt>
      <trkpt lat="46.33731" lon="-0.46541">
        <ele>11.1377535</ele>
        <time>2014-02-27T14:28:50Z</time>
      </trkpt>
      <trkpt lat="46.3373" lon="-0.46535">
        <ele>11.1377535</ele>
        <time>2014-02-27T14:28:55Z</time>
      </trkpt>
      <trkpt lat="46.33729" lon="-0.46526">
        <ele>10.93896</ele>
        <time>2014-02-27T14:29:00Z</time>
      </trkpt>
      <trkpt lat="46.33728" lon="-0.46518">
        <ele>10.93896</ele>
        <time>2014-02-27T14:29:05Z</time>
      </trkpt>
      <trkpt lat="46.33729" lon="-0.46509">
        <ele>11.184498</ele>
        <time>2014-02-27T14:29:10Z</time>
      </trkpt>
      <trkpt lat="46.33728" lon="-0.4651">
        <ele>11.184498</ele>
        <time>2014-02-27T14:29:15Z</time>
      </trkpt>
      <trkpt lat="46.33729" lon="-0.4651">
        <ele>11.184498</ele>
        <time>2014-02-27T14:29:20Z</time>
      </trkpt>
      <trkpt lat="46.33729" lon="-0.46508">
        <ele>11.184498</ele>
        <time>2014-02-27T14:29:25Z</time>
      </trkpt>
      <trkpt lat="46.33727" lon="-0.46501">
        <ele>11.184498</ele>
        <time>2014-02-27T14:29:40Z</time>
      </trkpt>
      <trkpt lat="46.33726" lon="-0.46494">
        <ele>11.077233</ele>
        <time>2014-02-27T14:29:45Z</time>
      </trkpt>
      <trkpt lat="46.33726" lon="-0.46485">
        <ele>11.077233</ele>
        <time>2014-02-27T14:29:50Z</time>
      </trkpt>
      <trkpt lat="46.33725" lon="-0.4648">
        <ele>11.0324545</ele>
        <time>2014-02-27T14:29:55Z</time>
      </trkpt>
      <trkpt lat="46.33723" lon="-0.4647">
        <ele>11.0324545</ele>
        <time>2014-02-27T14:30:00Z</time>
      </trkpt>
      <trkpt lat="46.33722" lon="-0.46463">
        <ele>11.189745</ele>
        <time>2014-02-27T14:30:05Z</time>
      </trkpt>
      <trkpt lat="46.33722" lon="-0.46456">
        <ele>11.189745</ele>
        <time>2014-02-27T14:30:10Z</time>
      </trkpt>
      <trkpt lat="46.33722" lon="-0.46449">
        <ele>11.159025</ele>
        <time>2014-02-27T14:30:15Z</time>
      </trkpt>
      <trkpt lat="46.3372" lon="-0.46445">
        <ele>11.159025</ele>
        <time>2014-02-27T14:30:20Z</time>
      </trkpt>
      <trkpt lat="46.33722" lon="-0.46444">
        <ele>11.159025</ele>
        <time>2014-02-27T14:30:25Z</time>
      </trkpt>
      <trkpt lat="46.33722" lon="-0.46437">
        <ele>10.737896</ele>
        <time>2014-02-27T14:30:30Z</time>
      </trkpt>
      <trkpt lat="46.33722" lon="-0.4643">
        <ele>10.737896</ele>
        <time>2014-02-27T14:30:35Z</time>
      </trkpt>
      <trkpt lat="46.33721" lon="-0.46425">
        <ele>10.737896</ele>
        <time>2014-02-27T14:30:40Z</time>
      </trkpt>
      <trkpt lat="46.33721" lon="-0.46422">
        <ele>10.287534</ele>
        <time>2014-02-27T14:30:45Z</time>
      </trkpt>
      <trkpt lat="46.3372" lon="-0.46418">
        <ele>10.287534</ele>
        <time>2014-02-27T14:30:50Z</time>
      </trkpt>
      <trkpt lat="46.33718" lon="-0.46416">
        <ele>10.287534</ele>
        <time>2014-02-27T14:30:55Z</time>
      </trkpt>
      <trkpt lat="46.33716" lon="-0.46411">
        <ele>9.883233</ele>
        <time>2014-02-27T14:31:00Z</time>
      </trkpt>
      <trkpt lat="46.33714" lon="-0.46409">
        <ele>9.883233</ele>
        <time>2014-02-27T14:31:05Z</time>
      </trkpt>
      <trkpt lat="46.33711" lon="-0.46404">
        <ele>9.883233</ele>
        <time>2014-02-27T14:31:10Z</time>
      </trkpt>
      <trkpt lat="46.33709" lon="-0.46402">
        <ele>9.8972435</ele>
        <time>2014-02-27T14:31:16Z</time>
      </trkpt>
      <trkpt lat="46.33704" lon="-0.464">
        <ele>9.8972435</ele>
        <time>2014-02-27T14:31:20Z</time>
      </trkpt>
      <trkpt lat="46.33701" lon="-0.46396">
        <ele>9.8972435</ele>
        <time>2014-02-27T14:31:25Z</time>
      </trkpt>
      <trkpt lat="46.33696" lon="-0.4639">
        <ele>10.889443</ele>
        <time>2014-02-27T14:31:30Z</time>
      </trkpt>
      <trkpt lat="46.3369" lon="-0.46387">
        <ele>10.889443</ele>
        <time>2014-02-27T14:31:35Z</time>
      </trkpt>
      <trkpt lat="46.33686" lon="-0.46385">
        <ele>12.049965</ele>
        <time>2014-02-27T14:31:40Z</time>
      </trkpt>
      <trkpt lat="46.33682" lon="-0.46382">
        <ele>12.049965</ele>
        <time>2014-02-27T14:31:45Z</time>
      </trkpt>
      <trkpt lat="46.33679" lon="-0.46381">
        <ele>12.049965</ele>
        <time>2014-02-27T14:31:50Z</time>
      </trkpt>
      <trkpt lat="46.33674" lon="-0.46376">
        <ele>13.53587</ele>
        <time>2014-02-27T14:31:55Z</time>
      </trkpt>
      <trkpt lat="46.3367" lon="-0.46376">
        <ele>13.53587</ele>
        <time>2014-02-27T14:32:00Z</time>
      </trkpt>
      <trkpt lat="46.33668" lon="-0.46374">
        <ele>13.53587</ele>
        <time>2014-02-27T14:32:06Z</time>
      </trkpt>
      <trkpt lat="46.33664" lon="-0.46368">
        <ele>14.20915</ele>
        <time>2014-02-27T14:32:10Z</time>
      </trkpt>
      <trkpt lat="46.33659" lon="-0.46364">
        <ele>14.20915</ele>
        <time>2014-02-27T14:32:16Z</time>
      </trkpt>
      <trkpt lat="46.33652" lon="-0.46358">
        <ele>14.285893</ele>
        <time>2014-02-27T14:32:20Z</time>
      </trkpt>
      <trkpt lat="46.33654" lon="-0.46353">
        <ele>14.285893</ele>
        <time>2014-02-27T14:32:25Z</time>
      </trkpt>
      <trkpt lat="46.3366" lon="-0.46349">
        <ele>13.852709</ele>
        <time>2014-02-27T14:32:30Z</time>
      </trkpt>
      <trkpt lat="46.33663" lon="-0.46346">
        <ele>13.852709</ele>
        <time>2014-02-27T14:32:35Z</time>
      </trkpt>
      <trkpt lat="46.33666" lon="-0.46342">
        <ele>13.852709</ele>
        <time>2014-02-27T14:32:40Z</time>
      </trkpt>
      <trkpt lat="46.33666" lon="-0.46337">
        <ele>14.1009655</ele>
        <time>2014-02-27T14:32:45Z</time>
      </trkpt>
      <trkpt lat="46.33667" lon="-0.46332">
        <ele>14.1009655</ele>
        <time>2014-02-27T14:32:50Z</time>
      </trkpt>
      <trkpt lat="46.3367" lon="-0.46329">
        <ele>14.1009655</ele>
        <time>2014-02-27T14:32:55Z</time>
      </trkpt>
      <trkpt lat="46.33672" lon="-0.46326">
        <ele>14.777944</ele>
        <time>2014-02-27T14:33:00Z</time>
      </trkpt>
      <trkpt lat="46.33675" lon="-0.46322">
        <ele>14.777944</ele>
        <time>2014-02-27T14:33:05Z</time>
      </trkpt>
      <trkpt lat="46.33676" lon="-0.4632">
        <ele>14.777944</ele>
        <time>2014-02-27T14:33:10Z</time>
      </trkpt>
      <trkpt lat="46.33676" lon="-0.46318">
        <ele>14.777944</ele>
        <time>2014-02-27T14:33:15Z</time>
      </trkpt>
      <trkpt lat="46.33675" lon="-0.46311">
        <ele>15.864475</ele>
        <time>2014-02-27T14:33:20Z</time>
      </trkpt>
      <trkpt lat="46.33678" lon="-0.46307">
        <ele>15.864475</ele>
        <time>2014-02-27T14:33:25Z</time>
      </trkpt>
      <trkpt lat="46.33681" lon="-0.46304">
        <ele>15.864475</ele>
        <time>2014-02-27T14:33:30Z</time>
      </trkpt>
      <trkpt lat="46.33682" lon="-0.46298">
        <ele>17.327263</ele>
        <time>2014-02-27T14:33:35Z</time>
      </trkpt>
      <trkpt lat="46.33683" lon="-0.46291">
        <ele>17.327263</ele>
        <time>2014-02-27T14:33:40Z</time>
      </trkpt>
      <trkpt lat="46.33688" lon="-0.46287">
        <ele>19.206491</ele>
        <time>2014-02-27T14:33:45Z</time>
      </trkpt>
      <trkpt lat="46.3369" lon="-0.46279">
        <ele>19.206491</ele>
        <time>2014-02-27T14:33:50Z</time>
      </trkpt>
      <trkpt lat="46.33691" lon="-0.46272">
        <ele>20.572702</ele>
        <time>2014-02-27T14:33:55Z</time>
      </trkpt>
      <trkpt lat="46.33696" lon="-0.46267">
        <ele>20.572702</ele>
        <time>2014-02-27T14:34:00Z</time>
      </trkpt>
      <trkpt lat="46.33696" lon="-0.4626">
        <ele>22.324389</ele>
        <time>2014-02-27T14:34:05Z</time>
      </trkpt>
      <trkpt lat="46.33697" lon="-0.46254">
        <ele>22.324389</ele>
        <time>2014-02-27T14:34:10Z</time>
      </trkpt>
      <trkpt lat="46.33701" lon="-0.46247">
        <ele>24.212172</ele>
        <time>2014-02-27T14:34:15Z</time>
      </trkpt>
      <trkpt lat="46.33703" lon="-0.4624">
        <ele>24.212172</ele>
        <time>2014-02-27T14:34:20Z</time>
      </trkpt>
      <trkpt lat="46.33705" lon="-0.46234">
        <ele>25.975855</ele>
        <time>2014-02-27T14:34:25Z</time>
      </trkpt>
      <trkpt lat="46.33708" lon="-0.46228">
        <ele>25.975855</ele>
        <time>2014-02-27T14:34:30Z</time>
      </trkpt>
      <trkpt lat="46.33709" lon="-0.46223">
        <ele>25.975855</ele>
        <time>2014-02-27T14:34:35Z</time>
      </trkpt>
      <trkpt lat="46.33713" lon="-0.46218">
        <ele>27.735071</ele>
        <time>2014-02-27T14:34:40Z</time>
      </trkpt>
      <trkpt lat="46.33716" lon="-0.46212">
        <ele>27.735071</ele>
        <time>2014-02-27T14:34:45Z</time>
      </trkpt>
      <trkpt lat="46.33717" lon="-0.46206">
        <ele>29.12519</ele>
        <time>2014-02-27T14:34:50Z</time>
      </trkpt>
      <trkpt lat="46.3372" lon="-0.462">
        <ele>29.12519</ele>
        <time>2014-02-27T14:34:55Z</time>
      </trkpt>
      <trkpt lat="46.33722" lon="-0.46192">
        <ele>30.285072</ele>
        <time>2014-02-27T14:35:00Z</time>
      </trkpt>
      <trkpt lat="46.33723" lon="-0.46186">
        <ele>30.285072</ele>
        <time>2014-02-27T14:35:05Z</time>
      </trkpt>
      <trkpt lat="46.33725" lon="-0.46181">
        <ele>30.285072</ele>
        <time>2014-02-27T14:35:10Z</time>
      </trkpt>
      <trkpt lat="46.33725" lon="-0.46176">
        <ele>31.387344</ele>
        <time>2014-02-27T14:35:16Z</time>
      </trkpt>
      <trkpt lat="46.33729" lon="-0.46172">
        <ele>31.387344</ele>
        <time>2014-02-27T14:35:20Z</time>
      </trkpt>
      <trkpt lat="46.3373" lon="-0.46171">
        <ele>31.387344</ele>
        <time>2014-02-27T14:35:25Z</time>
      </trkpt>
      <trkpt lat="46.33729" lon="-0.46167">
        <ele>32.145477</ele>
        <time>2014-02-27T14:35:30Z</time>
      </trkpt>
      <trkpt lat="46.33727" lon="-0.46158">
        <ele>32.145477</ele>
        <time>2014-02-27T14:35:35Z</time>
      </trkpt>
      <trkpt lat="46.33725" lon="-0.4615">
        <ele>32.568855</ele>
        <time>2014-02-27T14:35:40Z</time>
      </trkpt>
      <trkpt lat="46.33726" lon="-0.46142">
        <ele>32.568855</ele>
        <time>2014-02-27T14:35:45Z</time>
      </trkpt>
      <trkpt lat="46.33727" lon="-0.46134">
        <ele>33.013084</ele>
        <time>2014-02-27T14:35:50Z</time>
      </trkpt>
      <trkpt lat="46.33727" lon="-0.46128">
        <ele>33.013084</ele>
        <time>2014-02-27T14:35:55Z</time>
      </trkpt>
      <trkpt lat="46.33729" lon="-0.4612">
        <ele>33.46181</ele>
        <time>2014-02-27T14:36:00Z</time>
      </trkpt>
      <trkpt lat="46.33729" lon="-0.4611">
        <ele>33.46181</ele>
        <time>2014-02-27T14:36:05Z</time>
      </trkpt>
      <trkpt lat="46.33731" lon="-0.46102">
        <ele>33.972008</ele>
        <time>2014-02-27T14:36:10Z</time>
      </trkpt>
      <trkpt lat="46.33731" lon="-0.46095">
        <ele>33.972008</ele>
        <time>2014-02-27T14:36:15Z</time>
      </trkpt>
      <trkpt lat="46.33731" lon="-0.46087">
        <ele>34.42344</ele>
        <time>2014-02-27T14:36:20Z</time>
      </trkpt>
      <trkpt lat="46.33731" lon="-0.4608">
        <ele>34.42344</ele>
        <time>2014-02-27T14:36:25Z</time>
      </trkpt>
      <trkpt lat="46.33732" lon="-0.46071">
        <ele>34.632885</ele>
        <time>2014-02-27T14:36:30Z</time>
      </trkpt>
      <trkpt lat="46.33732" lon="-0.46064">
        <ele>34.632885</ele>
        <time>2014-02-27T14:36:35Z</time>
      </trkpt>
      <trkpt lat="46.33733" lon="-0.46054">
        <ele>34.604267</ele>
        <time>2014-02-27T14:36:40Z</time>
      </trkpt>
      <trkpt lat="46.33733" lon="-0.46048">
        <ele>34.604267</ele>
        <time>2014-02-27T14:36:45Z</time>
      </trkpt>
      <trkpt lat="46.33732" lon="-0.46043">
        <ele>34.604267</ele>
        <time>2014-02-27T14:36:50Z</time>
      </trkpt>
      <trkpt lat="46.33732" lon="-0.46042">
        <ele>34.604267</ele>
        <time>2014-02-27T14:36:55Z</time>
      </trkpt>
      <trkpt lat="46.33731" lon="-0.46042">
        <ele>34.63017</ele>
        <time>2014-02-27T14:37:00Z</time>
      </trkpt>
      <trkpt lat="46.3373" lon="-0.46039">
        <ele>34.63017</ele>
        <time>2014-02-27T14:37:05Z</time>
      </trkpt>
      <trkpt lat="46.33731" lon="-0.46033">
        <ele>34.63017</ele>
        <time>2014-02-27T14:37:10Z</time>
      </trkpt>
      <trkpt lat="46.33732" lon="-0.46026">
        <ele>34.578075</ele>
        <time>2014-02-27T14:37:15Z</time>
      </trkpt>
      <trkpt lat="46.33732" lon="-0.46022">
        <ele>34.578075</ele>
        <time>2014-02-27T14:37:20Z</time>
      </trkpt>
      <trkpt lat="46.33731" lon="-0.46014">
        <ele>34.578075</ele>
        <time>2014-02-27T14:37:25Z</time>
      </trkpt>
      <trkpt lat="46.33731" lon="-0.46008">
        <ele>34.483986</ele>
        <time>2014-02-27T14:37:30Z</time>
      </trkpt>
      <trkpt lat="46.33731" lon="-0.46001">
        <ele>34.483986</ele>
        <time>2014-02-27T14:37:35Z</time>
      </trkpt>
      <trkpt lat="46.33729" lon="-0.45993">
        <ele>34.20849</ele>
        <time>2014-02-27T14:37:40Z</time>
      </trkpt>
      <trkpt lat="46.33728" lon="-0.45987">
        <ele>34.20849</ele>
        <time>2014-02-27T14:37:45Z</time>
      </trkpt>
      <trkpt lat="46.33729" lon="-0.45979">
        <ele>34.012047</ele>
        <time>2014-02-27T14:37:50Z</time>
      </trkpt>
      <trkpt lat="46.33726" lon="-0.45973">
        <ele>34.012047</ele>
        <time>2014-02-27T14:37:55Z</time>
      </trkpt>
      <trkpt lat="46.33725" lon="-0.4597">
        <ele>34.012047</ele>
        <time>2014-02-27T14:38:00Z</time>
      </trkpt>
      <trkpt lat="46.33724" lon="-0.45969">
        <ele>34.012047</ele>
        <time>2014-02-27T14:38:05Z</time>
      </trkpt>
      <trkpt lat="46.33722" lon="-0.45969">
        <ele>34.32313</ele>
        <time>2014-02-27T14:38:10Z</time>
      </trkpt>
      <trkpt lat="46.33718" lon="-0.4597">
        <ele>34.32313</ele>
        <time>2014-02-27T14:38:15Z</time>
      </trkpt>
      <trkpt lat="46.33713" lon="-0.45969">
        <ele>34.32313</ele>
        <time>2014-02-27T14:38:20Z</time>
      </trkpt>
      <trkpt lat="46.33709" lon="-0.4597">
        <ele>34.514153</ele>
        <time>2014-02-27T14:38:26Z</time>
      </trkpt>
      <trkpt lat="46.33704" lon="-0.4597">
        <ele>34.514153</ele>
        <time>2014-02-27T14:38:30Z</time>
      </trkpt>
      <trkpt lat="46.33699" lon="-0.45972">
        <ele>34.782166</ele>
        <time>2014-02-27T14:38:35Z</time>
      </trkpt>
      <trkpt lat="46.33694" lon="-0.45972">
        <ele>34.782166</ele>
        <time>2014-02-27T14:38:40Z</time>
      </trkpt>
      <trkpt lat="46.3369" lon="-0.45973">
        <ele>35.194252</ele>
        <time>2014-02-27T14:38:45Z</time>
      </trkpt>
      <trkpt lat="46.33687" lon="-0.45974">
        <ele>35.194252</ele>
        <time>2014-02-27T14:38:50Z</time>
      </trkpt>
      <trkpt lat="46.33684" lon="-0.45975">
        <ele>35.194252</ele>
        <time>2014-02-27T14:38:55Z</time>
      </trkpt>
      <trkpt lat="46.33678" lon="-0.45974">
        <ele>35.94187</ele>
        <time>2014-02-27T14:39:00Z</time>
      </trkpt>
      <trkpt lat="46.33671" lon="-0.45971">
        <ele>35.94187</ele>
        <time>2014-02-27T14:39:05Z</time>
      </trkpt>
      <trkpt lat="46.33667" lon="-0.4597">
        <ele>36.740334</ele>
        <time>2014-02-27T14:39:10Z</time>
      </trkpt>
      <trkpt lat="46.33666" lon="-0.45971">
        <ele>36.740334</ele>
        <time>2014-02-27T14:39:15Z</time>
      </trkpt>
      <trkpt lat="46.33659" lon="-0.45971">
        <ele>36.740334</ele>
        <time>2014-02-27T14:39:20Z</time>
      </trkpt>
      <trkpt lat="46.33654" lon="-0.45969">
        <ele>37.585114</ele>
        <time>2014-02-27T14:39:25Z</time>
      </trkpt>
      <trkpt lat="46.3365" lon="-0.4597">
        <ele>37.585114</ele>
        <time>2014-02-27T14:39:30Z</time>
      </trkpt>
      <trkpt lat="46.33647" lon="-0.45969">
        <ele>37.585114</ele>
        <time>2014-02-27T14:39:35Z</time>
      </trkpt>
      <trkpt lat="46.33645" lon="-0.4597">
        <ele>37.585114</ele>
        <time>2014-02-27T14:39:40Z</time>
      </trkpt>
      <trkpt lat="46.33646" lon="-0.45968">
        <ele>38.486313</ele>
        <time>2014-02-27T14:39:45Z</time>
      </trkpt>
      <trkpt lat="46.33645" lon="-0.45962">
        <ele>38.486313</ele>
        <time>2014-02-27T14:39:50Z</time>
      </trkpt>
      <trkpt lat="46.33644" lon="-0.45955">
        <ele>38.486313</ele>
        <time>2014-02-27T14:39:55Z</time>
      </trkpt>
      <trkpt lat="46.33643" lon="-0.45947">
        <ele>39.453148</ele>
        <time>2014-02-27T14:40:00Z</time>
      </trkpt>
      <trkpt lat="46.33641" lon="-0.45939">
        <ele>39.453148</ele>
        <time>2014-02-27T14:40:05Z</time>
      </trkpt>
      <trkpt lat="46.3364" lon="-0.45933">
        <ele>40.46516</ele>
        <time>2014-02-27T14:40:10Z</time>
      </trkpt>
      <trkpt lat="46.33639" lon="-0.45929">
        <ele>40.46516</ele>
        <time>2014-02-27T14:40:15Z</time>
      </trkpt>
      <trkpt lat="46.33638" lon="-0.45925">
        <ele>40.46516</ele>
        <time>2014-02-27T14:40:20Z</time>
      </trkpt>
      <trkpt lat="46.33637" lon="-0.4592">
        <ele>41.056534</ele>
        <time>2014-02-27T14:40:25Z</time>
      </trkpt>
      <trkpt lat="46.33637" lon="-0.45918">
        <ele>41.056534</ele>
        <time>2014-02-27T14:40:30Z</time>
      </trkpt>
      <trkpt lat="46.33631" lon="-0.45912">
        <ele>41.056534</ele>
        <time>2014-02-27T14:40:35Z</time>
      </trkpt>
      <trkpt lat="46.33629" lon="-0.45905">
        <ele>41.474194</ele>
        <time>2014-02-27T14:40:40Z</time>
      </trkpt>
      <trkpt lat="46.33629" lon="-0.45898">
        <ele>41.474194</ele>
        <time>2014-02-27T14:40:45Z</time>
      </trkpt>
      <trkpt lat="46.33628" lon="-0.45891">
        <ele>41.731262</ele>
        <time>2014-02-27T14:40:50Z</time>
      </trkpt>
      <trkpt lat="46.33626" lon="-0.45884">
        <ele>41.731262</ele>
        <time>2014-02-27T14:40:55Z</time>
      </trkpt>
      <trkpt lat="46.33624" lon="-0.45876">
        <ele>41.898006</ele>
        <time>2014-02-27T14:41:00Z</time>
      </trkpt>
      <trkpt lat="46.33624" lon="-0.4587">
        <ele>41.898006</ele>
        <time>2014-02-27T14:41:05Z</time>
      </trkpt>
      <trkpt lat="46.33624" lon="-0.45867">
        <ele>41.898006</ele>
        <time>2014-02-27T14:41:11Z</time>
      </trkpt>
      <trkpt lat="46.33622" lon="-0.45859">
        <ele>41.938908</ele>
        <time>2014-02-27T14:41:15Z</time>
      </trkpt>
      <trkpt lat="46.33622" lon="-0.45855">
        <ele>41.938908</ele>
        <time>2014-02-27T14:41:20Z</time>
      </trkpt>
      <trkpt lat="46.33621" lon="-0.4585">
        <ele>41.938908</ele>
        <time>2014-02-27T14:41:25Z</time>
      </trkpt>
      <trkpt lat="46.33619" lon="-0.4584">
        <ele>41.360275</ele>
        <time>2014-02-27T14:41:30Z</time>
      </trkpt>
      <trkpt lat="46.33618" lon="-0.45827">
        <ele>41.277225</ele>
        <time>2014-02-27T14:41:35Z</time>
      </trkpt>
      <trkpt lat="46.33615" lon="-0.45814">
        <ele>41.539852</ele>
        <time>2014-02-27T14:41:40Z</time>
      </trkpt>
      <trkpt lat="46.33614" lon="-0.4581">
        <ele>41.539852</ele>
        <time>2014-02-27T14:41:45Z</time>
      </trkpt>
      <trkpt lat="46.33609" lon="-0.45806">
        <ele>41.539852</ele>
        <time>2014-02-27T14:41:50Z</time>
      </trkpt>
      <trkpt lat="46.33605" lon="-0.45805">
        <ele>42.195625</ele>
        <time>2014-02-27T14:41:55Z</time>
      </trkpt>
      <trkpt lat="46.33602" lon="-0.45806">
        <ele>42.195625</ele>
        <time>2014-02-27T14:42:00Z</time>
      </trkpt>
      <trkpt lat="46.33598" lon="-0.45808">
        <ele>42.195625</ele>
        <time>2014-02-27T14:42:05Z</time>
      </trkpt>
      <trkpt lat="46.33592" lon="-0.45809">
        <ele>43.388294</ele>
        <time>2014-02-27T14:42:10Z</time>
      </trkpt>
      <trkpt lat="46.33587" lon="-0.45812">
        <ele>43.388294</ele>
        <time>2014-02-27T14:42:15Z</time>
      </trkpt>
      <trkpt lat="46.33583" lon="-0.45813">
        <ele>44.500156</ele>
        <time>2014-02-27T14:42:20Z</time>
      </trkpt>
      <trkpt lat="46.33575" lon="-0.45812">
        <ele>44.500156</ele>
        <time>2014-02-27T14:42:25Z</time>
      </trkpt>
      <trkpt lat="46.33573" lon="-0.45817">
        <ele>45.290554</ele>
        <time>2014-02-27T14:42:30Z</time>
      </trkpt>
      <trkpt lat="46.33569" lon="-0.45818">
        <ele>45.290554</ele>
        <time>2014-02-27T14:42:35Z</time>
      </trkpt>
      <trkpt lat="46.33564" lon="-0.4582">
        <ele>45.290554</ele>
        <time>2014-02-27T14:42:40Z</time>
      </trkpt>
      <trkpt lat="46.33561" lon="-0.45819">
        <ele>45.984165</ele>
        <time>2014-02-27T14:42:45Z</time>
      </trkpt>
      <trkpt lat="46.33558" lon="-0.45817">
        <ele>45.984165</ele>
        <time>2014-02-27T14:42:50Z</time>
      </trkpt>
      <trkpt lat="46.33558" lon="-0.45819">
        <ele>45.984165</ele>
        <time>2014-02-27T14:42:55Z</time>
      </trkpt>
      <trkpt lat="46.33555" lon="-0.4582">
        <ele>45.984165</ele>
        <time>2014-02-27T14:43:05Z</time>
      </trkpt>
      <trkpt lat="46.33551" lon="-0.45815">
        <ele>46.674137</ele>
        <time>2014-02-27T14:43:10Z</time>
      </trkpt>
      <trkpt lat="46.33546" lon="-0.45814">
        <ele>46.674137</ele>
        <time>2014-02-27T14:43:15Z</time>
      </trkpt>
      <trkpt lat="46.33541" lon="-0.45815">
        <ele>47.389137</ele>
        <time>2014-02-27T14:43:20Z</time>
      </trkpt>
      <trkpt lat="46.33538" lon="-0.45817">
        <ele>47.389137</ele>
        <time>2014-02-27T14:43:25Z</time>
      </trkpt>
      <trkpt lat="46.33534" lon="-0.45822">
        <ele>47.389137</ele>
        <time>2014-02-27T14:43:30Z</time>
      </trkpt>
      <trkpt lat="46.3353" lon="-0.45825">
        <ele>48.21332</ele>
        <time>2014-02-27T14:43:35Z</time>
      </trkpt>
      <trkpt lat="46.33526" lon="-0.45829">
        <ele>48.21332</ele>
        <time>2014-02-27T14:43:40Z</time>
      </trkpt>
      <trkpt lat="46.33523" lon="-0.45834">
        <ele>48.748783</ele>
        <time>2014-02-27T14:43:45Z</time>
      </trkpt>
      <trkpt lat="46.33518" lon="-0.45838">
        <ele>48.748783</ele>
        <time>2014-02-27T14:43:50Z</time>
      </trkpt>
      <trkpt lat="46.33515" lon="-0.45842">
        <ele>49.4491</ele>
        <time>2014-02-27T14:43:55Z</time>
      </trkpt>
      <trkpt lat="46.33512" lon="-0.45846">
        <ele>49.4491</ele>
        <time>2014-02-27T14:44:00Z</time>
      </trkpt>
      <trkpt lat="46.3351" lon="-0.4585">
        <ele>49.4491</ele>
        <time>2014-02-27T14:44:05Z</time>
      </trkpt>
      <trkpt lat="46.33506" lon="-0.45858">
        <ele>49.624416</ele>
        <time>2014-02-27T14:44:10Z</time>
      </trkpt>
      <trkpt lat="46.33502" lon="-0.45865">
        <ele>49.624416</ele>
        <time>2014-02-27T14:44:15Z</time>
      </trkpt>
      <trkpt lat="46.33499" lon="-0.45871">
        <ele>49.78992</ele>
        <time>2014-02-27T14:44:20Z</time>
      </trkpt>
      <trkpt lat="46.335" lon="-0.45877">
        <ele>49.78992</ele>
        <time>2014-02-27T14:44:25Z</time>
      </trkpt>
      <trkpt lat="46.33499" lon="-0.45882">
        <ele>49.78992</ele>
        <time>2014-02-27T14:44:30Z</time>
      </trkpt>
      <trkpt lat="46.33498" lon="-0.45891">
        <ele>50.293285</ele>
        <time>2014-02-27T14:44:35Z</time>
      </trkpt>
      <trkpt lat="46.33498" lon="-0.45899">
        <ele>50.293285</ele>
        <time>2014-02-27T14:44:40Z</time>
      </trkpt>
      <trkpt lat="46.33499" lon="-0.45905">
        <ele>50.83602</ele>
        <time>2014-02-27T14:44:45Z</time>
      </trkpt>
      <trkpt lat="46.33499" lon="-0.45912">
        <ele>50.83602</ele>
        <time>2014-02-27T14:44:51Z</time>
      </trkpt>
      <trkpt lat="46.33501" lon="-0.45919">
        <ele>51.09822</ele>
        <time>2014-02-27T14:44:55Z</time>
      </trkpt>
      <trkpt lat="46.33501" lon="-0.45929">
        <ele>51.09822</ele>
        <time>2014-02-27T14:45:00Z</time>
      </trkpt>
      <trkpt lat="46.33501" lon="-0.45935">
        <ele>51.08689</ele>
        <time>2014-02-27T14:45:05Z</time>
      </trkpt>
      <trkpt lat="46.33502" lon="-0.45942">
        <ele>51.08689</ele>
        <time>2014-02-27T14:45:11Z</time>
      </trkpt>
      <trkpt lat="46.33504" lon="-0.45951">
        <ele>50.794888</ele>
        <time>2014-02-27T14:45:15Z</time>
      </trkpt>
      <trkpt lat="46.33506" lon="-0.45956">
        <ele>50.794888</ele>
        <time>2014-02-27T14:45:20Z</time>
      </trkpt>
      <trkpt lat="46.3351" lon="-0.4596">
        <ele>50.794888</ele>
        <time>2014-02-27T14:45:25Z</time>
      </trkpt>
      <trkpt lat="46.33507" lon="-0.45968">
        <ele>51.35483</ele>
        <time>2014-02-27T14:45:30Z</time>
      </trkpt>
      <trkpt lat="46.33504" lon="-0.45973">
        <ele>51.35483</ele>
        <time>2014-02-27T14:45:35Z</time>
      </trkpt>
      <trkpt lat="46.335" lon="-0.45977">
        <ele>51.349457</ele>
        <time>2014-02-27T14:45:40Z</time>
      </trkpt>
      <trkpt lat="46.33499" lon="-0.45977">
        <ele>51.349457</ele>
        <time>2014-02-27T14:45:45Z</time>
      </trkpt>
      <trkpt lat="46.3349" lon="-0.45974">
        <ele>51.42708</ele>
        <time>2014-02-27T14:45:50Z</time>
      </trkpt>
      <trkpt lat="46.33485" lon="-0.45968">
        <ele>51.42708</ele>
        <time>2014-02-27T14:45:55Z</time>
      </trkpt>
      <trkpt lat="46.33482" lon="-0.45967">
        <ele>51.467594</ele>
        <time>2014-02-27T14:46:00Z</time>
      </trkpt>
      <trkpt lat="46.3348" lon="-0.45971">
        <ele>51.467594</ele>
        <time>2014-02-27T14:46:05Z</time>
      </trkpt>
      <trkpt lat="46.33477" lon="-0.45976">
        <ele>51.467594</ele>
        <time>2014-02-27T14:46:10Z</time>
      </trkpt>
      <trkpt lat="46.33475" lon="-0.45982">
        <ele>51.345387</ele>
        <time>2014-02-27T14:46:16Z</time>
      </trkpt>
      <trkpt lat="46.33469" lon="-0.45988">
        <ele>51.345387</ele>
        <time>2014-02-27T14:46:20Z</time>
      </trkpt>
      <trkpt lat="46.33466" lon="-0.45993">
        <ele>51.26155</ele>
        <time>2014-02-27T14:46:25Z</time>
      </trkpt>
      <trkpt lat="46.33461" lon="-0.46002">
        <ele>51.26155</ele>
        <time>2014-02-27T14:46:30Z</time>
      </trkpt>
      <trkpt lat="46.33459" lon="-0.46004">
        <ele>51.085236</ele>
        <time>2014-02-27T14:46:36Z</time>
      </trkpt>
      <trkpt lat="46.33456" lon="-0.46012">
        <ele>51.085236</ele>
        <time>2014-02-27T14:46:40Z</time>
      </trkpt>
      <trkpt lat="46.33451" lon="-0.46021">
        <ele>51.47362</ele>
        <time>2014-02-27T14:46:45Z</time>
      </trkpt>
      <trkpt lat="46.33447" lon="-0.46026">
        <ele>51.47362</ele>
        <time>2014-02-27T14:46:50Z</time>
      </trkpt>
      <trkpt lat="46.33444" lon="-0.4603">
        <ele>51.79466</ele>
        <time>2014-02-27T14:46:55Z</time>
      </trkpt>
      <trkpt lat="46.33441" lon="-0.4603">
        <ele>51.79466</ele>
        <time>2014-02-27T14:47:00Z</time>
      </trkpt>
      <trkpt lat="46.33441" lon="-0.46033">
        <ele>51.79466</ele>
        <time>2014-02-27T14:47:05Z</time>
      </trkpt>
      <trkpt lat="46.33447" lon="-0.46039">
        <ele>52.44283</ele>
        <time>2014-02-27T14:47:10Z</time>
      </trkpt>
      <trkpt lat="46.3345" lon="-0.46044">
        <ele>52.44283</ele>
        <time>2014-02-27T14:47:16Z</time>
      </trkpt>
      <trkpt lat="46.33451" lon="-0.46044">
        <ele>52.44283</ele>
        <time>2014-02-27T14:47:20Z</time>
      </trkpt>
      <trkpt lat="46.33448" lon="-0.46043">
        <ele>52.44283</ele>
        <time>2014-02-27T14:47:25Z</time>
      </trkpt>
      <trkpt lat="46.33445" lon="-0.46037">
        <ele>52.572163</ele>
        <time>2014-02-27T14:47:30Z</time>
      </trkpt>
      <trkpt lat="46.3344" lon="-0.46037">
        <ele>52.572163</ele>
        <time>2014-02-27T14:47:35Z</time>
      </trkpt>
      <trkpt lat="46.33434" lon="-0.4604">
        <ele>53.057537</ele>
        <time>2014-02-27T14:47:40Z</time>
      </trkpt>
      <trkpt lat="46.33431" lon="-0.46042">
        <ele>53.057537</ele>
        <time>2014-02-27T14:47:45Z</time>
      </trkpt>
      <trkpt lat="46.33425" lon="-0.46043">
        <ele>53.057537</ele>
        <time>2014-02-27T14:47:50Z</time>
      </trkpt>
      <trkpt lat="46.33423" lon="-0.46043">
        <ele>53.45478</ele>
        <time>2014-02-27T14:47:55Z</time>
      </trkpt>
      <trkpt lat="46.33418" lon="-0.4604">
        <ele>53.45478</ele>
        <time>2014-02-27T14:48:00Z</time>
      </trkpt>
      <trkpt lat="46.33415" lon="-0.46037">
        <ele>53.45478</ele>
        <time>2014-02-27T14:48:05Z</time>
      </trkpt>
      <trkpt lat="46.3341" lon="-0.46032">
        <ele>52.876987</ele>
        <time>2014-02-27T14:48:10Z</time>
      </trkpt>
      <trkpt lat="46.33408" lon="-0.46023">
        <ele>52.876987</ele>
        <time>2014-02-27T14:48:15Z</time>
      </trkpt>
      <trkpt lat="46.33406" lon="-0.46024">
        <ele>52.876987</ele>
        <time>2014-02-27T14:48:20Z</time>
      </trkpt>
      <trkpt lat="46.33405" lon="-0.46019">
        <ele>51.67242</ele>
        <time>2014-02-27T14:48:25Z</time>
      </trkpt>
      <trkpt lat="46.33398" lon="-0.46014">
        <ele>51.67242</ele>
        <time>2014-02-27T14:48:30Z</time>
      </trkpt>
      <trkpt lat="46.33393" lon="-0.46013">
        <ele>51.635426</ele>
        <time>2014-02-27T14:48:35Z</time>
      </trkpt>
      <trkpt lat="46.3339" lon="-0.46015">
        <ele>51.635426</ele>
        <time>2014-02-27T14:48:40Z</time>
      </trkpt>
      <trkpt lat="46.33386" lon="-0.46019">
        <ele>51.635426</ele>
        <time>2014-02-27T14:48:45Z</time>
      </trkpt>
      <trkpt lat="46.33384" lon="-0.46021">
        <ele>51.297997</ele>
        <time>2014-02-27T14:48:50Z</time>
      </trkpt>
      <trkpt lat="46.33379" lon="-0.46028">
        <ele>51.297997</ele>
        <time>2014-02-27T14:48:55Z</time>
      </trkpt>
      <trkpt lat="46.33378" lon="-0.46031">
        <ele>51.303932</ele>
        <time>2014-02-27T14:49:00Z</time>
      </trkpt>
      <trkpt lat="46.33374" lon="-0.46036">
        <ele>51.303932</ele>
        <time>2014-02-27T14:49:05Z</time>
      </trkpt>
      <trkpt lat="46.33371" lon="-0.46038">
        <ele>51.303932</ele>
        <time>2014-02-27T14:49:10Z</time>
      </trkpt>
      <trkpt lat="46.33368" lon="-0.46042">
        <ele>50.99495</ele>
        <time>2014-02-27T14:49:15Z</time>
      </trkpt>
      <trkpt lat="46.33364" lon="-0.46048">
        <ele>50.99495</ele>
        <time>2014-02-27T14:49:20Z</time>
      </trkpt>
      <trkpt lat="46.33362" lon="-0.4605">
        <ele>50.99495</ele>
        <time>2014-02-27T14:49:25Z</time>
      </trkpt>
      <trkpt lat="46.33356" lon="-0.46055">
        <ele>51.11661</ele>
        <time>2014-02-27T14:49:30Z</time>
      </trkpt>
      <trkpt lat="46.33353" lon="-0.46056">
        <ele>51.11661</ele>
        <time>2014-02-27T14:49:35Z</time>
      </trkpt>
      <trkpt lat="46.33347" lon="-0.4606">
        <ele>51.65232</ele>
        <time>2014-02-27T14:49:40Z</time>
      </trkpt>
      <trkpt lat="46.33345" lon="-0.46064">
        <ele>51.65232</ele>
        <time>2014-02-27T14:49:45Z</time>
      </trkpt>
      <trkpt lat="46.33341" lon="-0.46067">
        <ele>51.65232</ele>
        <time>2014-02-27T14:49:50Z</time>
      </trkpt>
      <trkpt lat="46.3334" lon="-0.46067">
        <ele>51.67758</ele>
        <time>2014-02-27T14:49:55Z</time>
      </trkpt>
      <trkpt lat="46.33337" lon="-0.4607">
        <ele>51.67758</ele>
        <time>2014-02-27T14:50:00Z</time>
      </trkpt>
      <trkpt lat="46.33335" lon="-0.46071">
        <ele>51.67758</ele>
        <time>2014-02-27T14:50:05Z</time>
      </trkpt>
      <trkpt lat="46.33331" lon="-0.46074">
        <ele>51.98008</ele>
        <time>2014-02-27T14:50:10Z</time>
      </trkpt>
      <trkpt lat="46.33329" lon="-0.46077">
        <ele>51.98008</ele>
        <time>2014-02-27T14:50:15Z</time>
      </trkpt>
      <trkpt lat="46.33325" lon="-0.4608">
        <ele>51.98008</ele>
        <time>2014-02-27T14:50:20Z</time>
      </trkpt>
      <trkpt lat="46.33322" lon="-0.46085">
        <ele>52.4818</ele>
        <time>2014-02-27T14:50:25Z</time>
      </trkpt>
      <trkpt lat="46.33317" lon="-0.4609">
        <ele>52.4818</ele>
        <time>2014-02-27T14:50:30Z</time>
      </trkpt>
      <trkpt lat="46.33313" lon="-0.46092">
        <ele>52.57664</ele>
        <time>2014-02-27T14:50:35Z</time>
      </trkpt>
      <trkpt lat="46.33307" lon="-0.46091">
        <ele>52.57664</ele>
        <time>2014-02-27T14:50:40Z</time>
      </trkpt>
      <trkpt lat="46.33304" lon="-0.46088">
        <ele>52.338234</ele>
        <time>2014-02-27T14:50:45Z</time>
      </trkpt>
      <trkpt lat="46.33299" lon="-0.46089">
        <ele>52.338234</ele>
        <time>2014-02-27T14:50:50Z</time>
      </trkpt>
      <trkpt lat="46.33295" lon="-0.46087">
        <ele>51.763638</ele>
        <time>2014-02-27T14:50:55Z</time>
      </trkpt>
      <trkpt lat="46.33291" lon="-0.46084">
        <ele>51.763638</ele>
        <time>2014-02-27T14:51:00Z</time>
      </trkpt>
      <trkpt lat="46.3329" lon="-0.46085">
        <ele>51.763638</ele>
        <time>2014-02-27T14:51:05Z</time>
      </trkpt>
      <trkpt lat="46.33288" lon="-0.46075">
        <ele>51.254555</ele>
        <time>2014-02-27T14:51:10Z</time>
      </trkpt>
      <trkpt lat="46.33284" lon="-0.46071">
        <ele>51.254555</ele>
        <time>2014-02-27T14:51:15Z</time>
      </trkpt>
      <trkpt lat="46.33283" lon="-0.4606">
        <ele>50.822678</ele>
        <time>2014-02-27T14:51:20Z</time>
      </trkpt>
      <trkpt lat="46.33279" lon="-0.46061">
        <ele>50.822678</ele>
        <time>2014-02-27T14:51:25Z</time>
      </trkpt>
      <trkpt lat="46.33269" lon="-0.46059">
        <ele>50.694748</ele>
        <time>2014-02-27T14:51:30Z</time>
      </trkpt>
      <trkpt lat="46.33267" lon="-0.46059">
        <ele>50.694748</ele>
        <time>2014-02-27T14:51:35Z</time>
      </trkpt>
      <trkpt lat="46.33268" lon="-0.46059">
        <ele>50.694748</ele>
        <time>2014-02-27T14:51:40Z</time>
      </trkpt>
      <trkpt lat="46.33266" lon="-0.4606">
        <ele>50.694748</ele>
        <time>2014-02-27T14:51:45Z</time>
      </trkpt>
      <trkpt lat="46.33263" lon="-0.46064">
        <ele>51.397003</ele>
        <time>2014-02-27T14:51:50Z</time>
      </trkpt>
      <trkpt lat="46.33262" lon="-0.46064">
        <ele>51.397003</ele>
        <time>2014-02-27T14:51:55Z</time>
      </trkpt>
      <trkpt lat="46.33262" lon="-0.46064">
        <ele>51.397003</ele>
        <time>2014-02-27T14:52:00Z</time>
      </trkpt>
      <trkpt lat="46.33261" lon="-0.46063">
        <ele>51.397003</ele>
        <time>2014-02-27T14:52:05Z</time>
      </trkpt>
      <trkpt lat="46.33261" lon="-0.46063">
        <ele>51.397003</ele>
        <time>2014-02-27T14:52:10Z</time>
      </trkpt>
      <trkpt lat="46.33261" lon="-0.46064">
        <ele>51.397003</ele>
        <time>2014-02-27T14:52:16Z</time>
      </trkpt>
      <trkpt lat="46.33264" lon="-0.46057">
        <ele>51.397003</ele>
        <time>2014-02-27T14:52:25Z</time>
      </trkpt>
      <trkpt lat="46.33264" lon="-0.46053">
        <ele>52.405884</ele>
        <time>2014-02-27T14:52:30Z</time>
      </trkpt>
      <trkpt lat="46.33263" lon="-0.46054">
        <ele>52.405884</ele>
        <time>2014-02-27T14:52:35Z</time>
      </trkpt>
      <trkpt lat="46.3326" lon="-0.46048">
        <ele>52.405884</ele>
        <time>2014-02-27T14:52:40Z</time>
      </trkpt>
      <trkpt lat="46.33255" lon="-0.46045">
        <ele>52.644535</ele>
        <time>2014-02-27T14:52:45Z</time>
      </trkpt>
      <trkpt lat="46.33251" lon="-0.46037">
        <ele>52.644535</ele>
        <time>2014-02-27T14:52:50Z</time>
      </trkpt>
      <trkpt lat="46.33246" lon="-0.46028">
        <ele>53.264603</ele>
        <time>2014-02-27T14:52:55Z</time>
      </trkpt>
      <trkpt lat="46.33242" lon="-0.46021">
        <ele>53.264603</ele>
        <time>2014-02-27T14:53:00Z</time>
      </trkpt>
      <trkpt lat="46.33237" lon="-0.46017">
        <ele>54.164726</ele>
        <time>2014-02-27T14:53:05Z</time>
      </trkpt>
      <trkpt lat="46.33234" lon="-0.46016">
        <ele>54.164726</ele>
        <time>2014-02-27T14:53:10Z</time>
      </trkpt>
      <trkpt lat="46.3323" lon="-0.46014">
        <ele>54.164726</ele>
        <time>2014-02-27T14:53:15Z</time>
      </trkpt>
      <trkpt lat="46.33225" lon="-0.46011">
        <ele>54.68818</ele>
        <time>2014-02-27T14:53:20Z</time>
      </trkpt>
      <trkpt lat="46.33221" lon="-0.4601">
        <ele>54.68818</ele>
        <time>2014-02-27T14:53:25Z</time>
      </trkpt>
      <trkpt lat="46.33218" lon="-0.46008">
        <ele>54.68818</ele>
        <time>2014-02-27T14:53:30Z</time>
      </trkpt>
      <trkpt lat="46.33214" lon="-0.46003">
        <ele>54.991287</ele>
        <time>2014-02-27T14:53:35Z</time>
      </trkpt>
      <trkpt lat="46.33209" lon="-0.45996">
        <ele>54.991287</ele>
        <time>2014-02-27T14:53:40Z</time>
      </trkpt>
      <trkpt lat="46.33207" lon="-0.45996">
        <ele>54.816006</ele>
        <time>2014-02-27T14:53:45Z</time>
      </trkpt>
      <trkpt lat="46.33203" lon="-0.4599">
        <ele>54.816006</ele>
        <time>2014-02-27T14:53:50Z</time>
      </trkpt>
      <trkpt lat="46.33197" lon="-0.45989">
        <ele>54.760426</ele>
        <time>2014-02-27T14:53:55Z</time>
      </trkpt>
      <trkpt lat="46.33194" lon="-0.45989">
        <ele>54.760426</ele>
        <time>2014-02-27T14:54:00Z</time>
      </trkpt>
      <trkpt lat="46.33192" lon="-0.45985">
        <ele>54.760426</ele>
        <time>2014-02-27T14:54:05Z</time>
      </trkpt>
      <trkpt lat="46.33185" lon="-0.4598">
        <ele>54.383984</ele>
        <time>2014-02-27T14:54:10Z</time>
      </trkpt>
      <trkpt lat="46.33181" lon="-0.45976">
        <ele>54.383984</ele>
        <time>2014-02-27T14:54:15Z</time>
      </trkpt>
      <trkpt lat="46.33173" lon="-0.45974">
        <ele>54.086403</ele>
        <time>2014-02-27T14:54:20Z</time>
      </trkpt>
      <trkpt lat="46.33167" lon="-0.45975">
        <ele>54.086403</ele>
        <time>2014-02-27T14:54:25Z</time>
      </trkpt>
      <trkpt lat="46.33163" lon="-0.45972">
        <ele>53.79106</ele>
        <time>2014-02-27T14:54:30Z</time>
      </trkpt>
      <trkpt lat="46.33158" lon="-0.45971">
        <ele>53.79106</ele>
        <time>2014-02-27T14:54:35Z</time>
      </trkpt>
      <trkpt lat="46.33153" lon="-0.45972">
        <ele>53.354893</ele>
        <time>2014-02-27T14:54:40Z</time>
      </trkpt>
      <trkpt lat="46.33148" lon="-0.45971">
        <ele>53.354893</ele>
        <time>2014-02-27T14:54:45Z</time>
      </trkpt>
      <trkpt lat="46.33141" lon="-0.45971">
        <ele>52.84747</ele>
        <time>2014-02-27T14:54:50Z</time>
      </trkpt>
      <trkpt lat="46.33136" lon="-0.45969">
        <ele>52.84747</ele>
        <time>2014-02-27T14:54:55Z</time>
      </trkpt>
      <trkpt lat="46.33129" lon="-0.45971">
        <ele>52.20373</ele>
        <time>2014-02-27T14:55:00Z</time>
      </trkpt>
      <trkpt lat="46.33125" lon="-0.4597">
        <ele>52.20373</ele>
        <time>2014-02-27T14:55:05Z</time>
      </trkpt>
      <trkpt lat="46.3312" lon="-0.45969">
        <ele>51.666393</ele>
        <time>2014-02-27T14:55:10Z</time>
      </trkpt>
      <trkpt lat="46.33115" lon="-0.45969">
        <ele>51.666393</ele>
        <time>2014-02-27T14:55:15Z</time>
      </trkpt>
      <trkpt lat="46.33109" lon="-0.45968">
        <ele>51.114147</ele>
        <time>2014-02-27T14:55:20Z</time>
      </trkpt>
      <trkpt lat="46.33104" lon="-0.45969">
        <ele>51.114147</ele>
        <time>2014-02-27T14:55:25Z</time>
      </trkpt>
      <trkpt lat="46.331" lon="-0.45967">
        <ele>51.039867</ele>
        <time>2014-02-27T14:55:30Z</time>
      </trkpt>
      <trkpt lat="46.33096" lon="-0.45963">
        <ele>51.039867</ele>
        <time>2014-02-27T14:55:35Z</time>
      </trkpt>
      <trkpt lat="46.33091" lon="-0.45962">
        <ele>51.07742</ele>
        <time>2014-02-27T14:55:40Z</time>
      </trkpt>
      <trkpt lat="46.33086" lon="-0.45962">
        <ele>51.07742</ele>
        <time>2014-02-27T14:55:45Z</time>
      </trkpt>
      <trkpt lat="46.3308" lon="-0.45962">
        <ele>51.5069</ele>
        <time>2014-02-27T14:55:50Z</time>
      </trkpt>
      <trkpt lat="46.33074" lon="-0.45962">
        <ele>51.5069</ele>
        <time>2014-02-27T14:55:55Z</time>
      </trkpt>
      <trkpt lat="46.33069" lon="-0.45963">
        <ele>52.428173</ele>
        <time>2014-02-27T14:56:00Z</time>
      </trkpt>
      <trkpt lat="46.33063" lon="-0.45965">
        <ele>52.428173</ele>
        <time>2014-02-27T14:56:05Z</time>
      </trkpt>
      <trkpt lat="46.33058" lon="-0.45964">
        <ele>53.05329</ele>
        <time>2014-02-27T14:56:10Z</time>
      </trkpt>
      <trkpt lat="46.3305" lon="-0.45966">
        <ele>53.05329</ele>
        <time>2014-02-27T14:56:15Z</time>
      </trkpt>
      <trkpt lat="46.33041" lon="-0.45969">
        <ele>53.618546</ele>
        <time>2014-02-27T14:56:20Z</time>
      </trkpt>
      <trkpt lat="46.33042" lon="-0.45968">
        <ele>53.618546</ele>
        <time>2014-02-27T14:56:25Z</time>
      </trkpt>
      <trkpt lat="46.33038" lon="-0.45964">
        <ele>53.618546</ele>
        <time>2014-02-27T14:56:30Z</time>
      </trkpt>
      <trkpt lat="46.33034" lon="-0.45964">
        <ele>53.074844</ele>
        <time>2014-02-27T14:56:35Z</time>
      </trkpt>
      <trkpt lat="46.3303" lon="-0.45965">
        <ele>53.074844</ele>
        <time>2014-02-27T14:56:40Z</time>
      </trkpt>
      <trkpt lat="46.33025" lon="-0.45965">
        <ele>52.182594</ele>
        <time>2014-02-27T14:56:45Z</time>
      </trkpt>
      <trkpt lat="46.33022" lon="-0.45966">
        <ele>52.182594</ele>
        <time>2014-02-27T14:56:50Z</time>
      </trkpt>
      <trkpt lat="46.33023" lon="-0.45967">
        <ele>52.182594</ele>
        <time>2014-02-27T14:56:55Z</time>
      </trkpt>
      <trkpt lat="46.33021" lon="-0.45968">
        <ele>52.182594</ele>
        <time>2014-02-27T14:57:00Z</time>
      </trkpt>
      <trkpt lat="46.3302" lon="-0.45967">
        <ele>52.182594</ele>
        <time>2014-02-27T14:57:10Z</time>
      </trkpt>
      <trkpt lat="46.33017" lon="-0.45968">
        <ele>51.51761</ele>
        <time>2014-02-27T14:57:15Z</time>
      </trkpt>
      <trkpt lat="46.33016" lon="-0.45974">
        <ele>51.51761</ele>
        <time>2014-02-27T14:57:20Z</time>
      </trkpt>
      <trkpt lat="46.33017" lon="-0.45975">
        <ele>51.51761</ele>
        <time>2014-02-27T14:57:25Z</time>
      </trkpt>
      <trkpt lat="46.33016" lon="-0.45975">
        <ele>51.51761</ele>
        <time>2014-02-27T14:57:30Z</time>
      </trkpt>
      <trkpt lat="46.33017" lon="-0.45976">
        <ele>51.51761</ele>
        <time>2014-02-27T14:57:35Z</time>
      </trkpt>
      <trkpt lat="46.33021" lon="-0.45978">
        <ele>50.79132</ele>
        <time>2014-02-27T14:57:40Z</time>
      </trkpt>
      <trkpt lat="46.33024" lon="-0.4599">
        <ele>50.79132</ele>
        <time>2014-02-27T14:57:45Z</time>
      </trkpt>
      <trkpt lat="46.33027" lon="-0.45997">
        <ele>49.26094</ele>
        <time>2014-02-27T14:57:50Z</time>
      </trkpt>
      <trkpt lat="46.33029" lon="-0.46003">
        <ele>49.26094</ele>
        <time>2014-02-27T14:57:55Z</time>
      </trkpt>
      <trkpt lat="46.33039" lon="-0.46013">
        <ele>47.681576</ele>
        <time>2014-02-27T14:58:00Z</time>
      </trkpt>
      <trkpt lat="46.33045" lon="-0.46029">
        <ele>46.507984</ele>
        <time>2014-02-27T14:58:05Z</time>
      </trkpt>
      <trkpt lat="46.3304" lon="-0.46035">
        <ele>46.507984</ele>
        <time>2014-02-27T14:58:11Z</time>
      </trkpt>
      <trkpt lat="46.33042" lon="-0.46027">
        <ele>44.64716</ele>
        <time>2014-02-27T14:58:15Z</time>
      </trkpt>
      <trkpt lat="46.3304" lon="-0.46041">
        <ele>43.23552</ele>
        <time>2014-02-27T14:58:20Z</time>
      </trkpt>
      <trkpt lat="46.3304" lon="-0.4605">
        <ele>43.23552</ele>
        <time>2014-02-27T14:58:25Z</time>
      </trkpt>
      <trkpt lat="46.33041" lon="-0.4606">
        <ele>41.76828</ele>
        <time>2014-02-27T14:58:30Z</time>
      </trkpt>
      <trkpt lat="46.33043" lon="-0.46063">
        <ele>41.76828</ele>
        <time>2014-02-27T14:58:35Z</time>
      </trkpt>
      <trkpt lat="46.33045" lon="-0.46071">
        <ele>41.76828</ele>
        <time>2014-02-27T14:58:40Z</time>
      </trkpt>
      <trkpt lat="46.33044" lon="-0.46077">
        <ele>40.152504</ele>
        <time>2014-02-27T14:58:45Z</time>
      </trkpt>
      <trkpt lat="46.33044" lon="-0.4608">
        <ele>40.152504</ele>
        <time>2014-02-27T14:58:50Z</time>
      </trkpt>
      <trkpt lat="46.33043" lon="-0.46089">
        <ele>40.152504</ele>
        <time>2014-02-27T14:58:55Z</time>
      </trkpt>
      <trkpt lat="46.33037" lon="-0.46103">
        <ele>38.922104</ele>
        <time>2014-02-27T14:59:00Z</time>
      </trkpt>
      <trkpt lat="46.33043" lon="-0.46107">
        <ele>38.922104</ele>
        <time>2014-02-27T14:59:05Z</time>
      </trkpt>
      <trkpt lat="46.33037" lon="-0.46124">
        <ele>38.541786</ele>
        <time>2014-02-27T14:59:10Z</time>
      </trkpt>
      <trkpt lat="46.33034" lon="-0.46137">
        <ele>38.430878</ele>
        <time>2014-02-27T14:59:15Z</time>
      </trkpt>
      <trkpt lat="46.33032" lon="-0.46147">
        <ele>38.430878</ele>
        <time>2014-02-27T14:59:20Z</time>
      </trkpt>
      <trkpt lat="46.33033" lon="-0.46153">
        <ele>38.569324</ele>
        <time>2014-02-27T14:59:25Z</time>
      </trkpt>
      <trkpt lat="46.33032" lon="-0.46155">
        <ele>38.569324</ele>
        <time>2014-02-27T14:59:30Z</time>
      </trkpt>
      <trkpt lat="46.33033" lon="-0.46159">
        <ele>38.569324</ele>
        <time>2014-02-27T14:59:35Z</time>
      </trkpt>
      <trkpt lat="46.33034" lon="-0.46159">
        <ele>38.569324</ele>
        <time>2014-02-27T14:59:40Z</time>
      </trkpt>
      <trkpt lat="46.33034" lon="-0.46158">
        <ele>38.569324</ele>
        <time>2014-02-27T14:59:45Z</time>
      </trkpt>
      <trkpt lat="46.33034" lon="-0.46157">
        <ele>38.569324</ele>
        <time>2014-02-27T14:59:50Z</time>
      </trkpt>
      <trkpt lat="46.33038" lon="-0.46155">
        <ele>38.318092</ele>
        <time>2014-02-27T15:00:01Z</time>
      </trkpt>
      <trkpt lat="46.33037" lon="-0.46156">
        <ele>38.318092</ele>
        <time>2014-02-27T15:00:05Z</time>
      </trkpt>
      <trkpt lat="46.33035" lon="-0.46159">
        <ele>38.318092</ele>
        <time>2014-02-27T15:00:10Z</time>
      </trkpt>
      <trkpt lat="46.33029" lon="-0.4616">
        <ele>37.28787</ele>
        <time>2014-02-27T15:00:15Z</time>
      </trkpt>
      <trkpt lat="46.33025" lon="-0.4616">
        <ele>37.28787</ele>
        <time>2014-02-27T15:00:20Z</time>
      </trkpt>
      <trkpt lat="46.33018" lon="-0.46162">
        <ele>36.330593</ele>
        <time>2014-02-27T15:00:25Z</time>
      </trkpt>
      <trkpt lat="46.33012" lon="-0.46166">
        <ele>36.330593</ele>
        <time>2014-02-27T15:00:30Z</time>
      </trkpt>
      <trkpt lat="46.33007" lon="-0.46167">
        <ele>35.212173</ele>
        <time>2014-02-27T15:00:35Z</time>
      </trkpt>
      <trkpt lat="46.33002" lon="-0.46169">
        <ele>35.212173</ele>
        <time>2014-02-27T15:00:40Z</time>
      </trkpt>
      <trkpt lat="46.32999" lon="-0.4617">
        <ele>35.212173</ele>
        <time>2014-02-27T15:00:45Z</time>
      </trkpt>
      <trkpt lat="46.32999" lon="-0.4617">
        <ele>35.212173</ele>
        <time>2014-02-27T15:01:00Z</time>
      </trkpt>
      <trkpt lat="46.32991" lon="-0.46177">
        <ele>33.773727</ele>
        <time>2014-02-27T15:01:10Z</time>
      </trkpt>
      <trkpt lat="46.32988" lon="-0.46178">
        <ele>33.773727</ele>
        <time>2014-02-27T15:01:15Z</time>
      </trkpt>
      <trkpt lat="46.32981" lon="-0.46182">
        <ele>32.286816</ele>
        <time>2014-02-27T15:01:20Z</time>
      </trkpt>
      <trkpt lat="46.32977" lon="-0.46187">
        <ele>32.286816</ele>
        <time>2014-02-27T15:01:25Z</time>
      </trkpt>
      <trkpt lat="46.32972" lon="-0.46192">
        <ele>30.642828</ele>
        <time>2014-02-27T15:01:30Z</time>
      </trkpt>
      <trkpt lat="46.32967" lon="-0.46195">
        <ele>30.642828</ele>
        <time>2014-02-27T15:01:35Z</time>
      </trkpt>
      <trkpt lat="46.32959" lon="-0.46202">
        <ele>29.24589</ele>
        <time>2014-02-27T15:01:40Z</time>
      </trkpt>
      <trkpt lat="46.32959" lon="-0.46208">
        <ele>29.24589</ele>
        <time>2014-02-27T15:01:45Z</time>
      </trkpt>
      <trkpt lat="46.32965" lon="-0.46205">
        <ele>27.417656</ele>
        <time>2014-02-27T15:01:50Z</time>
      </trkpt>
      <trkpt lat="46.32971" lon="-0.46205">
        <ele>27.417656</ele>
        <time>2014-02-27T15:01:55Z</time>
      </trkpt>
      <trkpt lat="46.32971" lon="-0.46206">
        <ele>27.417656</ele>
        <time>2014-02-27T15:02:00Z</time>
      </trkpt>
      <trkpt lat="46.32968" lon="-0.46211">
        <ele>25.395409</ele>
        <time>2014-02-27T15:02:05Z</time>
      </trkpt>
      <trkpt lat="46.32966" lon="-0.46211">
        <ele>25.395409</ele>
        <time>2014-02-27T15:02:10Z</time>
      </trkpt>
      <trkpt lat="46.32965" lon="-0.46215">
        <ele>25.395409</ele>
        <time>2014-02-27T15:02:15Z</time>
      </trkpt>
      <trkpt lat="46.32966" lon="-0.46222">
        <ele>23.284166</ele>
        <time>2014-02-27T15:02:20Z</time>
      </trkpt>
      <trkpt lat="46.32971" lon="-0.46223">
        <ele>23.284166</ele>
        <time>2014-02-27T15:02:25Z</time>
      </trkpt>
      <trkpt lat="46.32974" lon="-0.46226">
        <ele>21.397556</ele>
        <time>2014-02-27T15:02:30Z</time>
      </trkpt>
      <trkpt lat="46.32977" lon="-0.46226">
        <ele>21.397556</ele>
        <time>2014-02-27T15:02:35Z</time>
      </trkpt>
      <trkpt lat="46.32979" lon="-0.46227">
        <ele>21.397556</ele>
        <time>2014-02-27T15:02:40Z</time>
      </trkpt>
      <trkpt lat="46.3298" lon="-0.46226">
        <ele>21.397556</ele>
        <time>2014-02-27T15:02:45Z</time>
      </trkpt>
      <trkpt lat="46.32984" lon="-0.46227">
        <ele>19.982206</ele>
        <time>2014-02-27T15:02:50Z</time>
      </trkpt>
      <trkpt lat="46.32986" lon="-0.46229">
        <ele>19.982206</ele>
        <time>2014-02-27T15:02:55Z</time>
      </trkpt>
      <trkpt lat="46.32988" lon="-0.46227">
        <ele>19.982206</ele>
        <time>2014-02-27T15:03:00Z</time>
      </trkpt>
      <trkpt lat="46.32989" lon="-0.46227">
        <ele>19.982206</ele>
        <time>2014-02-27T15:03:05Z</time>
      </trkpt>
      <trkpt lat="46.32994" lon="-0.46224">
        <ele>18.933748</ele>
        <time>2014-02-27T15:03:10Z</time>
      </trkpt>
      <trkpt lat="46.33" lon="-0.46224">
        <ele>18.933748</ele>
        <time>2014-02-27T15:03:15Z</time>
      </trkpt>
      <trkpt lat="46.33004" lon="-0.46226">
        <ele>17.736431</ele>
        <time>2014-02-27T15:03:20Z</time>
      </trkpt>
      <trkpt lat="46.33009" lon="-0.46232">
        <ele>17.736431</ele>
        <time>2014-02-27T15:03:25Z</time>
      </trkpt>
      <trkpt lat="46.33007" lon="-0.46234">
        <ele>17.736431</ele>
        <time>2014-02-27T15:03:30Z</time>
      </trkpt>
      <trkpt lat="46.33" lon="-0.46236">
        <ele>16.618856</ele>
        <time>2014-02-27T15:03:35Z</time>
      </trkpt>
      <trkpt lat="46.32992" lon="-0.46235">
        <ele>16.618856</ele>
        <time>2014-02-27T15:03:40Z</time>
      </trkpt>
      <trkpt lat="46.32986" lon="-0.46237">
        <ele>15.432233</ele>
        <time>2014-02-27T15:03:45Z</time>
      </trkpt>
      <trkpt lat="46.32982" lon="-0.46239">
        <ele>15.432233</ele>
        <time>2014-02-27T15:03:50Z</time>
      </trkpt>
      <trkpt lat="46.32982" lon="-0.46238">
        <ele>15.432233</ele>
        <time>2014-02-27T15:03:56Z</time>
      </trkpt>
      <trkpt lat="46.32979" lon="-0.46245">
        <ele>13.837047</ele>
        <time>2014-02-27T15:04:00Z</time>
      </trkpt>
      <trkpt lat="46.3298" lon="-0.46245">
        <ele>13.837047</ele>
        <time>2014-02-27T15:04:05Z</time>
      </trkpt>
      <trkpt lat="46.32975" lon="-0.46251">
        <ele>13.837047</ele>
        <time>2014-02-27T15:04:10Z</time>
      </trkpt>
      <trkpt lat="46.32971" lon="-0.46253">
        <ele>12.269159</ele>
        <time>2014-02-27T15:04:15Z</time>
      </trkpt>
      <trkpt lat="46.32965" lon="-0.46252">
        <ele>12.269159</ele>
        <time>2014-02-27T15:04:20Z</time>
      </trkpt>
      <trkpt lat="46.32958" lon="-0.46252">
        <ele>10.78638</ele>
        <time>2014-02-27T15:04:25Z</time>
      </trkpt>
      <trkpt lat="46.32955" lon="-0.46256">
        <ele>10.78638</ele>
        <time>2014-02-27T15:04:30Z</time>
      </trkpt>
      <trkpt lat="46.32956" lon="-0.46254">
        <ele>10.78638</ele>
        <time>2014-02-27T15:04:35Z</time>
      </trkpt>
      <trkpt lat="46.32957" lon="-0.46253">
        <ele>10.78638</ele>
        <time>2014-02-27T15:04:40Z</time>
      </trkpt>
      <trkpt lat="46.32957" lon="-0.46252">
        <ele>10.78638</ele>
        <time>2014-02-27T15:04:46Z</time>
      </trkpt>
      <trkpt lat="46.32956" lon="-0.46253">
        <ele>10.78638</ele>
        <time>2014-02-27T15:04:50Z</time>
      </trkpt>
      <trkpt lat="46.32955" lon="-0.46253">
        <ele>10.78638</ele>
        <time>2014-02-27T15:04:56Z</time>
      </trkpt>
      <trkpt lat="46.32955" lon="-0.46255">
        <ele>10.00398</ele>
        <time>2014-02-27T15:05:11Z</time>
      </trkpt>
      <trkpt lat="46.32953" lon="-0.46259">
        <ele>10.00398</ele>
        <time>2014-02-27T15:05:15Z</time>
      </trkpt>
      <trkpt lat="46.32953" lon="-0.46258">
        <ele>10.00398</ele>
        <time>2014-02-27T15:05:20Z</time>
      </trkpt>
      <trkpt lat="46.32953" lon="-0.46259">
        <ele>10.00398</ele>
        <time>2014-02-27T15:05:30Z</time>
      </trkpt>
      <trkpt lat="46.32954" lon="-0.46259">
        <ele>10.00398</ele>
        <time>2014-02-27T15:05:35Z</time>
      </trkpt>
      <trkpt lat="46.32952" lon="-0.46262">
        <ele>10.00398</ele>
        <time>2014-02-27T15:05:40Z</time>
      </trkpt>
      <trkpt lat="46.32953" lon="-0.46264">
        <ele>9.841488</ele>
        <time>2014-02-27T15:05:45Z</time>
      </trkpt>
      <trkpt lat="46.32952" lon="-0.46265">
        <ele>9.841488</ele>
        <time>2014-02-27T15:05:50Z</time>
      </trkpt>
      <trkpt lat="46.32947" lon="-0.46269">
        <ele>9.841488</ele>
        <time>2014-02-27T15:05:55Z</time>
      </trkpt>
      <trkpt lat="46.32943" lon="-0.46274">
        <ele>9.919893</ele>
        <time>2014-02-27T15:06:00Z</time>
      </trkpt>
      <trkpt lat="46.32936" lon="-0.46272">
        <ele>9.919893</ele>
        <time>2014-02-27T15:06:05Z</time>
      </trkpt>
      <trkpt lat="46.3293" lon="-0.46276">
        <ele>10.261974</ele>
        <time>2014-02-27T15:06:10Z</time>
      </trkpt>
      <trkpt lat="46.32924" lon="-0.46272">
        <ele>10.261974</ele>
        <time>2014-02-27T15:06:15Z</time>
      </trkpt>
      <trkpt lat="46.32921" lon="-0.46277">
        <ele>9.763975</ele>
        <time>2014-02-27T15:06:20Z</time>
      </trkpt>
      <trkpt lat="46.32918" lon="-0.46276">
        <ele>9.763975</ele>
        <time>2014-02-27T15:06:25Z</time>
      </trkpt>
      <trkpt lat="46.32912" lon="-0.4628">
        <ele>9.63926</ele>
        <time>2014-02-27T15:06:30Z</time>
      </trkpt>
      <trkpt lat="46.32907" lon="-0.46283">
        <ele>9.63926</ele>
        <time>2014-02-27T15:06:35Z</time>
      </trkpt>
      <trkpt lat="46.329" lon="-0.46286">
        <ele>9.829267</ele>
        <time>2014-02-27T15:06:40Z</time>
      </trkpt>
      <trkpt lat="46.32896" lon="-0.46287">
        <ele>9.829267</ele>
        <time>2014-02-27T15:06:45Z</time>
      </trkpt>
      <trkpt lat="46.32893" lon="-0.46288">
        <ele>9.829267</ele>
        <time>2014-02-27T15:06:50Z</time>
      </trkpt>
      <trkpt lat="46.32888" lon="-0.46294">
        <ele>10.091486</ele>
        <time>2014-02-27T15:06:55Z</time>
      </trkpt>
      <trkpt lat="46.32885" lon="-0.46296">
        <ele>10.091486</ele>
        <time>2014-02-27T15:07:00Z</time>
      </trkpt>
      <trkpt lat="46.32881" lon="-0.463">
        <ele>10.091486</ele>
        <time>2014-02-27T15:07:05Z</time>
      </trkpt>
      <trkpt lat="46.32876" lon="-0.46299">
        <ele>9.797501</ele>
        <time>2014-02-27T15:07:10Z</time>
      </trkpt>
      <trkpt lat="46.3287" lon="-0.46304">
        <ele>9.797501</ele>
        <time>2014-02-27T15:07:15Z</time>
      </trkpt>
      <trkpt lat="46.32864" lon="-0.4631">
        <ele>9.836544</ele>
        <time>2014-02-27T15:07:20Z</time>
      </trkpt>
      <trkpt lat="46.32859" lon="-0.46315">
        <ele>9.836544</ele>
        <time>2014-02-27T15:07:25Z</time>
      </trkpt>
      <trkpt lat="46.32854" lon="-0.46319">
        <ele>10.152524</ele>
        <time>2014-02-27T15:07:30Z</time>
      </trkpt>
      <trkpt lat="46.32848" lon="-0.46322">
        <ele>10.152524</ele>
        <time>2014-02-27T15:07:35Z</time>
      </trkpt>
      <trkpt lat="46.32843" lon="-0.46322">
        <ele>10.476539</ele>
        <time>2014-02-27T15:07:40Z</time>
      </trkpt>
      <trkpt lat="46.32835" lon="-0.46321">
        <ele>10.476539</ele>
        <time>2014-02-27T15:07:45Z</time>
      </trkpt>
      <trkpt lat="46.32831" lon="-0.46321">
        <ele>11.092651</ele>
        <time>2014-02-27T15:07:50Z</time>
      </trkpt>
      <trkpt lat="46.32827" lon="-0.46321">
        <ele>11.092651</ele>
        <time>2014-02-27T15:07:55Z</time>
      </trkpt>
      <trkpt lat="46.32823" lon="-0.46326">
        <ele>11.092651</ele>
        <time>2014-02-27T15:08:00Z</time>
      </trkpt>
      <trkpt lat="46.3282" lon="-0.4633">
        <ele>11.225673</ele>
        <time>2014-02-27T15:08:05Z</time>
      </trkpt>
      <trkpt lat="46.32816" lon="-0.46337">
        <ele>11.225673</ele>
        <time>2014-02-27T15:08:10Z</time>
      </trkpt>
      <trkpt lat="46.32813" lon="-0.46341">
        <ele>10.965775</ele>
        <time>2014-02-27T15:08:15Z</time>
      </trkpt>
      <trkpt lat="46.32809" lon="-0.4634">
        <ele>10.965775</ele>
        <time>2014-02-27T15:08:20Z</time>
      </trkpt>
      <trkpt lat="46.32806" lon="-0.46343">
        <ele>10.965775</ele>
        <time>2014-02-27T15:08:25Z</time>
      </trkpt>
      <trkpt lat="46.328" lon="-0.46345">
        <ele>10.412064</ele>
        <time>2014-02-27T15:08:30Z</time>
      </trkpt>
      <trkpt lat="46.32794" lon="-0.46346">
        <ele>10.412064</ele>
        <time>2014-02-27T15:08:35Z</time>
      </trkpt>
      <trkpt lat="46.32788" lon="-0.46349">
        <ele>10.579554</ele>
        <time>2014-02-27T15:08:40Z</time>
      </trkpt>
      <trkpt lat="46.32783" lon="-0.46349">
        <ele>10.579554</ele>
        <time>2014-02-27T15:08:45Z</time>
      </trkpt>
      <trkpt lat="46.32782" lon="-0.46353">
        <ele>10.579554</ele>
        <time>2014-02-27T15:08:50Z</time>
      </trkpt>
      <trkpt lat="46.32777" lon="-0.46356">
        <ele>10.490043</ele>
        <time>2014-02-27T15:08:55Z</time>
      </trkpt>
      <trkpt lat="46.32772" lon="-0.46362">
        <ele>10.490043</ele>
        <time>2014-02-27T15:09:00Z</time>
      </trkpt>
      <trkpt lat="46.3277" lon="-0.46366">
        <ele>10.405267</ele>
        <time>2014-02-27T15:09:05Z</time>
      </trkpt>
      <trkpt lat="46.32768" lon="-0.4637">
        <ele>10.405267</ele>
        <time>2014-02-27T15:09:10Z</time>
      </trkpt>
      <trkpt lat="46.32763" lon="-0.46369">
        <ele>10.405267</ele>
        <time>2014-02-27T15:09:15Z</time>
      </trkpt>
      <trkpt lat="46.32761" lon="-0.46372">
        <ele>10.020151</ele>
        <time>2014-02-27T15:09:20Z</time>
      </trkpt>
      <trkpt lat="46.32753" lon="-0.46374">
        <ele>10.020151</ele>
        <time>2014-02-27T15:09:25Z</time>
      </trkpt>
      <trkpt lat="46.32747" lon="-0.46378">
        <ele>10.148179</ele>
        <time>2014-02-27T15:09:30Z</time>
      </trkpt>
      <trkpt lat="46.3274" lon="-0.46382">
        <ele>10.148179</ele>
        <time>2014-02-27T15:09:35Z</time>
      </trkpt>
      <trkpt lat="46.32736" lon="-0.46384">
        <ele>10.849964</ele>
        <time>2014-02-27T15:09:40Z</time>
      </trkpt>
      <trkpt lat="46.32731" lon="-0.46389">
        <ele>10.849964</ele>
        <time>2014-02-27T15:09:45Z</time>
      </trkpt>
      <trkpt lat="46.32727" lon="-0.46392">
        <ele>11.618087</ele>
        <time>2014-02-27T15:09:50Z</time>
      </trkpt>
      <trkpt lat="46.32722" lon="-0.46394">
        <ele>11.618087</ele>
        <time>2014-02-27T15:09:55Z</time>
      </trkpt>
      <trkpt lat="46.32718" lon="-0.46399">
        <ele>12.270511</ele>
        <time>2014-02-27T15:10:00Z</time>
      </trkpt>
      <trkpt lat="46.32715" lon="-0.46401">
        <ele>12.270511</ele>
        <time>2014-02-27T15:10:05Z</time>
      </trkpt>
      <trkpt lat="46.32711" lon="-0.46403">
        <ele>12.270511</ele>
        <time>2014-02-27T15:10:11Z</time>
      </trkpt>
      <trkpt lat="46.32706" lon="-0.46405">
        <ele>13.445993</ele>
        <time>2014-02-27T15:10:15Z</time>
      </trkpt>
      <trkpt lat="46.32703" lon="-0.46404">
        <ele>13.445993</ele>
        <time>2014-02-27T15:10:20Z</time>
      </trkpt>
      <trkpt lat="46.327" lon="-0.46404">
        <ele>13.445993</ele>
        <time>2014-02-27T15:10:25Z</time>
      </trkpt>
      <trkpt lat="46.32701" lon="-0.46412">
        <ele>14.538865</ele>
        <time>2014-02-27T15:10:30Z</time>
      </trkpt>
      <trkpt lat="46.32703" lon="-0.46418">
        <ele>14.538865</ele>
        <time>2014-02-27T15:10:35Z</time>
      </trkpt>
      <trkpt lat="46.32705" lon="-0.46423">
        <ele>14.538865</ele>
        <time>2014-02-27T15:10:40Z</time>
      </trkpt>
      <trkpt lat="46.3271" lon="-0.46429">
        <ele>15.780881</ele>
        <time>2014-02-27T15:10:45Z</time>
      </trkpt>
      <trkpt lat="46.32711" lon="-0.46434">
        <ele>15.780881</ele>
        <time>2014-02-27T15:10:50Z</time>
      </trkpt>
      <trkpt lat="46.32714" lon="-0.46438">
        <ele>15.780881</ele>
        <time>2014-02-27T15:10:55Z</time>
      </trkpt>
      <trkpt lat="46.32717" lon="-0.46442">
        <ele>16.810009</ele>
        <time>2014-02-27T15:11:00Z</time>
      </trkpt>
      <trkpt lat="46.3272" lon="-0.46449">
        <ele>16.810009</ele>
        <time>2014-02-27T15:11:05Z</time>
      </trkpt>
      <trkpt lat="46.32722" lon="-0.46456">
        <ele>17.911198</ele>
        <time>2014-02-27T15:11:10Z</time>
      </trkpt>
      <trkpt lat="46.32722" lon="-0.4646">
        <ele>17.911198</ele>
        <time>2014-02-27T15:11:15Z</time>
      </trkpt>
      <trkpt lat="46.32719" lon="-0.46465">
        <ele>17.911198</ele>
        <time>2014-02-27T15:11:20Z</time>
      </trkpt>
      <trkpt lat="46.32716" lon="-0.46463">
        <ele>18.570164</ele>
        <time>2014-02-27T15:11:25Z</time>
      </trkpt>
      <trkpt lat="46.32716" lon="-0.46462">
        <ele>18.570164</ele>
        <time>2014-02-27T15:11:30Z</time>
      </trkpt>
      <trkpt lat="46.32711" lon="-0.46461">
        <ele>18.570164</ele>
        <time>2014-02-27T15:11:35Z</time>
      </trkpt>
      <trkpt lat="46.32707" lon="-0.46466">
        <ele>18.643225</ele>
        <time>2014-02-27T15:11:40Z</time>
      </trkpt>
      <trkpt lat="46.32703" lon="-0.46471">
        <ele>18.643225</ele>
        <time>2014-02-27T15:11:45Z</time>
      </trkpt>
      <trkpt lat="46.32703" lon="-0.46472">
        <ele>18.643225</ele>
        <time>2014-02-27T15:11:50Z</time>
      </trkpt>
      <trkpt lat="46.32702" lon="-0.46472">
        <ele>18.643225</ele>
        <time>2014-02-27T15:11:55Z</time>
      </trkpt>
      <trkpt lat="46.32698" lon="-0.46475">
        <ele>18.532215</ele>
        <time>2014-02-27T15:12:00Z</time>
      </trkpt>
      <trkpt lat="46.32693" lon="-0.46477">
        <ele>18.532215</ele>
        <time>2014-02-27T15:12:05Z</time>
      </trkpt>
      <trkpt lat="46.32691" lon="-0.46481">
        <ele>18.532215</ele>
        <time>2014-02-27T15:12:10Z</time>
      </trkpt>
      <trkpt lat="46.32689" lon="-0.4648">
        <ele>18.120106</ele>
        <time>2014-02-27T15:12:15Z</time>
      </trkpt>
      <trkpt lat="46.32689" lon="-0.46481">
        <ele>18.120106</ele>
        <time>2014-02-27T15:12:20Z</time>
      </trkpt>
      <trkpt lat="46.32688" lon="-0.46486">
        <ele>18.120106</ele>
        <time>2014-02-27T15:12:30Z</time>
      </trkpt>
      <trkpt lat="46.32685" lon="-0.46496">
        <ele>17.904684</ele>
        <time>2014-02-27T15:12:35Z</time>
      </trkpt>
      <trkpt lat="46.32683" lon="-0.46502">
        <ele>17.904684</ele>
        <time>2014-02-27T15:12:40Z</time>
      </trkpt>
      <trkpt lat="46.32682" lon="-0.46505">
        <ele>17.904684</ele>
        <time>2014-02-27T15:12:45Z</time>
      </trkpt>
      <trkpt lat="46.32682" lon="-0.46503">
        <ele>17.904684</ele>
        <time>2014-02-27T15:12:50Z</time>
      </trkpt>
      <trkpt lat="46.32681" lon="-0.46504">
        <ele>18.000849</ele>
        <time>2014-02-27T15:12:55Z</time>
      </trkpt>
      <trkpt lat="46.32677" lon="-0.46508">
        <ele>18.000849</ele>
        <time>2014-02-27T15:13:00Z</time>
      </trkpt>
      <trkpt lat="46.32673" lon="-0.46514">
        <ele>17.952251</ele>
        <time>2014-02-27T15:13:05Z</time>
      </trkpt>
      <trkpt lat="46.32668" lon="-0.46517">
        <ele>17.952251</ele>
        <time>2014-02-27T15:13:10Z</time>
      </trkpt>
      <trkpt lat="46.32664" lon="-0.46521">
        <ele>17.913</ele>
        <time>2014-02-27T15:13:15Z</time>
      </trkpt>
      <trkpt lat="46.3266" lon="-0.46524">
        <ele>17.913</ele>
        <time>2014-02-27T15:13:20Z</time>
      </trkpt>
      <trkpt lat="46.32655" lon="-0.46522">
        <ele>17.780958</ele>
        <time>2014-02-27T15:13:25Z</time>
      </trkpt>
      <trkpt lat="46.32656" lon="-0.46524">
        <ele>17.780958</ele>
        <time>2014-02-27T15:13:30Z</time>
      </trkpt>
      <trkpt lat="46.32652" lon="-0.4653">
        <ele>17.780958</ele>
        <time>2014-02-27T15:13:35Z</time>
      </trkpt>
      <trkpt lat="46.32653" lon="-0.46531">
        <ele>17.780958</ele>
        <time>2014-02-27T15:13:40Z</time>
      </trkpt>
      <trkpt lat="46.32654" lon="-0.46538">
        <ele>17.231249</ele>
        <time>2014-02-27T15:13:45Z</time>
      </trkpt>
      <trkpt lat="46.32656" lon="-0.46546">
        <ele>17.231249</ele>
        <time>2014-02-27T15:13:50Z</time>
      </trkpt>
      <trkpt lat="46.32658" lon="-0.46554">
        <ele>16.569374</ele>
        <time>2014-02-27T15:13:55Z</time>
      </trkpt>
      <trkpt lat="46.32662" lon="-0.46559">
        <ele>16.569374</ele>
        <time>2014-02-27T15:14:00Z</time>
      </trkpt>
      <trkpt lat="46.3266" lon="-0.46562">
        <ele>16.569374</ele>
        <time>2014-02-27T15:14:05Z</time>
      </trkpt>
      <trkpt lat="46.32662" lon="-0.46563">
        <ele>15.949072</ele>
        <time>2014-02-27T15:14:10Z</time>
      </trkpt>
      <trkpt lat="46.32664" lon="-0.46565">
        <ele>15.949072</ele>
        <time>2014-02-27T15:14:15Z</time>
      </trkpt>
      <trkpt lat="46.32667" lon="-0.46571">
        <ele>15.949072</ele>
        <time>2014-02-27T15:14:20Z</time>
      </trkpt>
      <trkpt lat="46.3267" lon="-0.46577">
        <ele>15.210094</ele>
        <time>2014-02-27T15:14:25Z</time>
      </trkpt>
      <trkpt lat="46.32672" lon="-0.4658">
        <ele>15.210094</ele>
        <time>2014-02-27T15:14:30Z</time>
      </trkpt>
      <trkpt lat="46.32674" lon="-0.46584">
        <ele>15.210094</ele>
        <time>2014-02-27T15:14:35Z</time>
      </trkpt>
      <trkpt lat="46.32673" lon="-0.46589">
        <ele>14.607859</ele>
        <time>2014-02-27T15:14:40Z</time>
      </trkpt>
      <trkpt lat="46.32672" lon="-0.46598">
        <ele>14.607859</ele>
        <time>2014-02-27T15:14:45Z</time>
      </trkpt>
      <trkpt lat="46.32671" lon="-0.46608">
        <ele>13.672528</ele>
        <time>2014-02-27T15:14:50Z</time>
      </trkpt>
      <trkpt lat="46.32668" lon="-0.46615">
        <ele>13.672528</ele>
        <time>2014-02-27T15:14:55Z</time>
      </trkpt>
      <trkpt lat="46.3267" lon="-0.46619">
        <ele>13.756729</ele>
        <time>2014-02-27T15:15:00Z</time>
      </trkpt>
      <trkpt lat="46.32674" lon="-0.4663">
        <ele>13.756729</ele>
        <time>2014-02-27T15:15:05Z</time>
      </trkpt>
      <trkpt lat="46.32677" lon="-0.4663">
        <ele>13.7907</ele>
        <time>2014-02-27T15:15:11Z</time>
      </trkpt>
      <trkpt lat="46.32676" lon="-0.46629">
        <ele>13.7907</ele>
        <time>2014-02-27T15:15:15Z</time>
      </trkpt>
      <trkpt lat="46.32676" lon="-0.46628">
        <ele>13.7907</ele>
        <time>2014-02-27T15:15:20Z</time>
      </trkpt>
      <trkpt lat="46.32674" lon="-0.46628">
        <ele>13.7907</ele>
        <time>2014-02-27T15:15:30Z</time>
      </trkpt>
      <trkpt lat="46.3267" lon="-0.46625">
        <ele>13.7907</ele>
        <time>2014-02-27T15:15:35Z</time>
      </trkpt>
      <trkpt lat="46.32668" lon="-0.46625">
        <ele>13.993962</ele>
        <time>2014-02-27T15:15:40Z</time>
      </trkpt>
      <trkpt lat="46.32667" lon="-0.46624">
        <ele>13.993962</ele>
        <time>2014-02-27T15:15:45Z</time>
      </trkpt>
      <trkpt lat="46.32669" lon="-0.46626">
        <ele>13.993962</ele>
        <time>2014-02-27T15:16:00Z</time>
      </trkpt>
      <trkpt lat="46.3267" lon="-0.46626">
        <ele>13.993962</ele>
        <time>2014-02-27T15:16:05Z</time>
      </trkpt>
      <trkpt lat="46.3267" lon="-0.46628">
        <ele>13.993962</ele>
        <time>2014-02-27T15:16:10Z</time>
      </trkpt>
      <trkpt lat="46.3267" lon="-0.46629">
        <ele>13.993962</ele>
        <time>2014-02-27T15:16:15Z</time>
      </trkpt>
      <trkpt lat="46.32666" lon="-0.4663">
        <ele>14.425349</ele>
        <time>2014-02-27T15:16:20Z</time>
      </trkpt>
      <trkpt lat="46.32665" lon="-0.46633">
        <ele>14.425349</ele>
        <time>2014-02-27T15:16:25Z</time>
      </trkpt>
      <trkpt lat="46.32662" lon="-0.46636">
        <ele>14.425349</ele>
        <time>2014-02-27T15:16:30Z</time>
      </trkpt>
      <trkpt lat="46.32659" lon="-0.46637">
        <ele>14.850533</ele>
        <time>2014-02-27T15:16:36Z</time>
      </trkpt>
      <trkpt lat="46.32654" lon="-0.46637">
        <ele>14.850533</ele>
        <time>2014-02-27T15:16:40Z</time>
      </trkpt>
      <trkpt lat="46.32651" lon="-0.46637">
        <ele>14.850533</ele>
        <time>2014-02-27T15:16:45Z</time>
      </trkpt>
      <trkpt lat="46.3265" lon="-0.46636">
        <ele>16.090042</ele>
        <time>2014-02-27T15:16:50Z</time>
      </trkpt>
      <trkpt lat="46.32649" lon="-0.46634">
        <ele>16.090042</ele>
        <time>2014-02-27T15:16:55Z</time>
      </trkpt>
      <trkpt lat="46.32648" lon="-0.46635">
        <ele>16.090042</ele>
        <time>2014-02-27T15:17:05Z</time>
      </trkpt>
      <trkpt lat="46.32648" lon="-0.46636">
        <ele>16.090042</ele>
        <time>2014-02-27T15:17:10Z</time>
      </trkpt>
      <trkpt lat="46.32645" lon="-0.46639">
        <ele>16.090042</ele>
        <time>2014-02-27T15:17:15Z</time>
      </trkpt>
      <trkpt lat="46.32645" lon="-0.46641">
        <ele>16.090042</ele>
        <time>2014-02-27T15:17:20Z</time>
      </trkpt>
      <trkpt lat="46.32647" lon="-0.46645">
        <ele>17.34548</ele>
        <time>2014-02-27T15:17:25Z</time>
      </trkpt>
      <trkpt lat="46.32648" lon="-0.46656">
        <ele>17.34548</ele>
        <time>2014-02-27T15:17:30Z</time>
      </trkpt>
      <trkpt lat="46.32649" lon="-0.4666">
        <ele>17.329464</ele>
        <time>2014-02-27T15:17:35Z</time>
      </trkpt>
      <trkpt lat="46.32652" lon="-0.46661">
        <ele>17.329464</ele>
        <time>2014-02-27T15:17:40Z</time>
      </trkpt>
      <trkpt lat="46.32653" lon="-0.46666">
        <ele>17.329464</ele>
        <time>2014-02-27T15:17:45Z</time>
      </trkpt>
      <trkpt lat="46.32653" lon="-0.46672">
        <ele>16.639763</ele>
        <time>2014-02-27T15:17:50Z</time>
      </trkpt>
      <trkpt lat="46.32656" lon="-0.46676">
        <ele>16.639763</ele>
        <time>2014-02-27T15:17:55Z</time>
      </trkpt>
      <trkpt lat="46.32656" lon="-0.46677">
        <ele>16.639763</ele>
        <time>2014-02-27T15:18:00Z</time>
      </trkpt>
      <trkpt lat="46.32654" lon="-0.46678">
        <ele>16.639763</ele>
        <time>2014-02-27T15:18:05Z</time>
      </trkpt>
      <trkpt lat="46.32651" lon="-0.46682">
        <ele>16.192438</ele>
        <time>2014-02-27T15:18:10Z</time>
      </trkpt>
      <trkpt lat="46.32645" lon="-0.46686">
        <ele>16.192438</ele>
        <time>2014-02-27T15:18:15Z</time>
      </trkpt>
      <trkpt lat="46.32643" lon="-0.46696">
        <ele>15.221568</ele>
        <time>2014-02-27T15:18:20Z</time>
      </trkpt>
      <trkpt lat="46.32637" lon="-0.46697">
        <ele>15.221568</ele>
        <time>2014-02-27T15:18:25Z</time>
      </trkpt>
      <trkpt lat="46.32632" lon="-0.467">
        <ele>14.35922</ele>
        <time>2014-02-27T15:18:30Z</time>
      </trkpt>
      <trkpt lat="46.32628" lon="-0.467">
        <ele>14.35922</ele>
        <time>2014-02-27T15:18:36Z</time>
      </trkpt>
      <trkpt lat="46.32621" lon="-0.46707">
        <ele>13.988983</ele>
        <time>2014-02-27T15:18:40Z</time>
      </trkpt>
      <trkpt lat="46.32619" lon="-0.46708">
        <ele>13.988983</ele>
        <time>2014-02-27T15:18:45Z</time>
      </trkpt>
      <trkpt lat="46.32619" lon="-0.46709">
        <ele>13.988983</ele>
        <time>2014-02-27T15:18:50Z</time>
      </trkpt>
      <trkpt lat="46.32609" lon="-0.46707">
        <ele>13.931693</ele>
        <time>2014-02-27T15:18:55Z</time>
      </trkpt>
      <trkpt lat="46.32607" lon="-0.46698">
        <ele>13.931693</ele>
        <time>2014-02-27T15:19:00Z</time>
      </trkpt>
      <trkpt lat="46.32605" lon="-0.46692">
        <ele>13.861947</ele>
        <time>2014-02-27T15:19:05Z</time>
      </trkpt>
      <trkpt lat="46.32601" lon="-0.46687">
        <ele>13.861947</ele>
        <time>2014-02-27T15:19:10Z</time>
      </trkpt>
      <trkpt lat="46.32598" lon="-0.46674">
        <ele>14.184432</ele>
        <time>2014-02-27T15:19:15Z</time>
      </trkpt>
      <trkpt lat="46.32594" lon="-0.46668">
        <ele>14.184432</ele>
        <time>2014-02-27T15:19:20Z</time>
      </trkpt>
      <trkpt lat="46.32594" lon="-0.46668">
        <ele>14.184432</ele>
        <time>2014-02-27T15:19:25Z</time>
      </trkpt>
      <trkpt lat="46.3259" lon="-0.46667">
        <ele>14.091296</ele>
        <time>2014-02-27T15:19:30Z</time>
      </trkpt>
      <trkpt lat="46.32586" lon="-0.46668">
        <ele>14.091296</ele>
        <time>2014-02-27T15:19:35Z</time>
      </trkpt>
      <trkpt lat="46.32579" lon="-0.46667">
        <ele>14.002499</ele>
        <time>2014-02-27T15:19:40Z</time>
      </trkpt>
      <trkpt lat="46.32575" lon="-0.4667">
        <ele>14.002499</ele>
        <time>2014-02-27T15:19:45Z</time>
      </trkpt>
      <trkpt lat="46.32571" lon="-0.4667">
        <ele>14.002499</ele>
        <time>2014-02-27T15:19:50Z</time>
      </trkpt>
      <trkpt lat="46.32568" lon="-0.46677">
        <ele>14.624188</ele>
        <time>2014-02-27T15:19:55Z</time>
      </trkpt>
      <trkpt lat="46.32565" lon="-0.46686">
        <ele>14.624188</ele>
        <time>2014-02-27T15:20:00Z</time>
      </trkpt>
      <trkpt lat="46.32559" lon="-0.46688">
        <ele>14.893724</ele>
        <time>2014-02-27T15:20:05Z</time>
      </trkpt>
      <trkpt lat="46.32555" lon="-0.46689">
        <ele>14.893724</ele>
        <time>2014-02-27T15:20:10Z</time>
      </trkpt>
      <trkpt lat="46.32553" lon="-0.46689">
        <ele>14.893724</ele>
        <time>2014-02-27T15:20:15Z</time>
      </trkpt>
      <trkpt lat="46.32548" lon="-0.4669">
        <ele>15.744204</ele>
        <time>2014-02-27T15:20:20Z</time>
      </trkpt>
      <trkpt lat="46.32546" lon="-0.46692">
        <ele>15.744204</ele>
        <time>2014-02-27T15:20:25Z</time>
      </trkpt>
      <trkpt lat="46.32543" lon="-0.46685">
        <ele>15.744204</ele>
        <time>2014-02-27T15:20:30Z</time>
      </trkpt>
      <trkpt lat="46.32537" lon="-0.46685">
        <ele>17.159477</ele>
        <time>2014-02-27T15:20:35Z</time>
      </trkpt>
      <trkpt lat="46.32534" lon="-0.46684">
        <ele>17.159477</ele>
        <time>2014-02-27T15:20:40Z</time>
      </trkpt>
      <trkpt lat="46.3253" lon="-0.46689">
        <ele>17.159477</ele>
        <time>2014-02-27T15:20:45Z</time>
      </trkpt>
      <trkpt lat="46.32527" lon="-0.46694">
        <ele>18.647451</ele>
        <time>2014-02-27T15:20:51Z</time>
      </trkpt>
      <trkpt lat="46.3253" lon="-0.46709">
        <ele>19.60789</ele>
        <time>2014-02-27T15:20:55Z</time>
      </trkpt>
      <trkpt lat="46.32527" lon="-0.46729">
        <ele>19.860847</ele>
        <time>2014-02-27T15:21:00Z</time>
      </trkpt>
      <trkpt lat="46.32527" lon="-0.46738">
        <ele>19.860847</ele>
        <time>2014-02-27T15:21:05Z</time>
      </trkpt>
      <trkpt lat="46.32525" lon="-0.46746">
        <ele>20.120699</ele>
        <time>2014-02-27T15:21:10Z</time>
      </trkpt>
      <trkpt lat="46.32529" lon="-0.46756">
        <ele>20.120699</ele>
        <time>2014-02-27T15:21:15Z</time>
      </trkpt>
      <trkpt lat="46.32531" lon="-0.46764">
        <ele>19.637066</ele>
        <time>2014-02-27T15:21:20Z</time>
      </trkpt>
      <trkpt lat="46.3253" lon="-0.46769">
        <ele>19.637066</ele>
        <time>2014-02-27T15:21:25Z</time>
      </trkpt>
      <trkpt lat="46.32531" lon="-0.46774">
        <ele>19.637066</ele>
        <time>2014-02-27T15:21:30Z</time>
      </trkpt>
      <trkpt lat="46.32533" lon="-0.4678">
        <ele>18.869703</ele>
        <time>2014-02-27T15:21:35Z</time>
      </trkpt>
      <trkpt lat="46.32535" lon="-0.46786">
        <ele>18.869703</ele>
        <time>2014-02-27T15:21:40Z</time>
      </trkpt>
      <trkpt lat="46.32541" lon="-0.46791">
        <ele>18.101305</ele>
        <time>2014-02-27T15:21:45Z</time>
      </trkpt>
      <trkpt lat="46.32546" lon="-0.46798">
        <ele>18.101305</ele>
        <time>2014-02-27T15:21:50Z</time>
      </trkpt>
      <trkpt lat="46.32552" lon="-0.46803">
        <ele>18.155853</ele>
        <time>2014-02-27T15:21:55Z</time>
      </trkpt>
      <trkpt lat="46.32555" lon="-0.4681">
        <ele>18.155853</ele>
        <time>2014-02-27T15:22:00Z</time>
      </trkpt>
      <trkpt lat="46.32559" lon="-0.46812">
        <ele>18.411041</ele>
        <time>2014-02-27T15:22:06Z</time>
      </trkpt>
      <trkpt lat="46.32565" lon="-0.46816">
        <ele>18.411041</ele>
        <time>2014-02-27T15:22:10Z</time>
      </trkpt>
      <trkpt lat="46.32567" lon="-0.46817">
        <ele>18.411041</ele>
        <time>2014-02-27T15:22:15Z</time>
      </trkpt>
      <trkpt lat="46.32565" lon="-0.46818">
        <ele>17.886213</ele>
        <time>2014-02-27T15:22:20Z</time>
      </trkpt>
      <trkpt lat="46.32561" lon="-0.46822">
        <ele>17.886213</ele>
        <time>2014-02-27T15:22:25Z</time>
      </trkpt>
      <trkpt lat="46.32559" lon="-0.46828">
        <ele>17.886213</ele>
        <time>2014-02-27T15:22:30Z</time>
      </trkpt>
      <trkpt lat="46.32556" lon="-0.46832">
        <ele>17.317816</ele>
        <time>2014-02-27T15:22:35Z</time>
      </trkpt>
      <trkpt lat="46.32556" lon="-0.46837">
        <ele>17.317816</ele>
        <time>2014-02-27T15:22:41Z</time>
      </trkpt>
      <trkpt lat="46.32553" lon="-0.46846">
        <ele>16.14896</ele>
        <time>2014-02-27T15:22:45Z</time>
      </trkpt>
      <trkpt lat="46.32553" lon="-0.46853">
        <ele>16.14896</ele>
        <time>2014-02-27T15:22:50Z</time>
      </trkpt>
      <trkpt lat="46.32552" lon="-0.46861">
        <ele>15.047058</ele>
        <time>2014-02-27T15:22:55Z</time>
      </trkpt>
      <trkpt lat="46.32555" lon="-0.46866">
        <ele>15.047058</ele>
        <time>2014-02-27T15:23:00Z</time>
      </trkpt>
      <trkpt lat="46.3256" lon="-0.46869">
        <ele>14.615886</ele>
        <time>2014-02-27T15:23:05Z</time>
      </trkpt>
      <trkpt lat="46.32561" lon="-0.46874">
        <ele>14.615886</ele>
        <time>2014-02-27T15:23:10Z</time>
      </trkpt>
      <trkpt lat="46.32562" lon="-0.46881">
        <ele>14.615886</ele>
        <time>2014-02-27T15:23:15Z</time>
      </trkpt>
      <trkpt lat="46.32562" lon="-0.46886">
        <ele>13.899794</ele>
        <time>2014-02-27T15:23:20Z</time>
      </trkpt>
      <trkpt lat="46.32562" lon="-0.46888">
        <ele>13.899794</ele>
        <time>2014-02-27T15:23:25Z</time>
      </trkpt>
      <trkpt lat="46.32559" lon="-0.46887">
        <ele>13.899794</ele>
        <time>2014-02-27T15:23:30Z</time>
      </trkpt>
      <trkpt lat="46.32559" lon="-0.46887">
        <ele>13.899794</ele>
        <time>2014-02-27T15:23:35Z</time>
      </trkpt>
      <trkpt lat="46.32558" lon="-0.46888">
        <ele>13.899794</ele>
        <time>2014-02-27T15:23:40Z</time>
      </trkpt>
      <trkpt lat="46.32556" lon="-0.46899">
        <ele>13.541689</ele>
        <time>2014-02-27T15:23:45Z</time>
      </trkpt>
      <trkpt lat="46.32554" lon="-0.46907">
        <ele>13.541689</ele>
        <time>2014-02-27T15:23:50Z</time>
      </trkpt>
      <trkpt lat="46.32552" lon="-0.46915">
        <ele>13.458895</ele>
        <time>2014-02-27T15:23:55Z</time>
      </trkpt>
      <trkpt lat="46.32549" lon="-0.46918">
        <ele>13.458895</ele>
        <time>2014-02-27T15:24:00Z</time>
      </trkpt>
      <trkpt lat="46.32546" lon="-0.46921">
        <ele>13.458895</ele>
        <time>2014-02-27T15:24:05Z</time>
      </trkpt>
      <trkpt lat="46.32545" lon="-0.46928">
        <ele>14.251329</ele>
        <time>2014-02-27T15:24:10Z</time>
      </trkpt>
      <trkpt lat="46.32545" lon="-0.46953">
        <ele>14.425979</ele>
        <time>2014-02-27T15:24:15Z</time>
      </trkpt>
      <trkpt lat="46.32543" lon="-0.46962">
        <ele>14.425979</ele>
        <time>2014-02-27T15:24:20Z</time>
      </trkpt>
      <trkpt lat="46.32543" lon="-0.46967">
        <ele>14.734061</ele>
        <time>2014-02-27T15:24:25Z</time>
      </trkpt>
      <trkpt lat="46.32542" lon="-0.46972">
        <ele>14.734061</ele>
        <time>2014-02-27T15:24:30Z</time>
      </trkpt>
      <trkpt lat="46.32542" lon="-0.46972">
        <ele>14.734061</ele>
        <time>2014-02-27T15:24:35Z</time>
      </trkpt>
      <trkpt lat="46.3254" lon="-0.46971">
        <ele>14.734061</ele>
        <time>2014-02-27T15:24:50Z</time>
      </trkpt>
      <trkpt lat="46.32541" lon="-0.46975">
        <ele>14.734061</ele>
        <time>2014-02-27T15:24:55Z</time>
      </trkpt>
      <trkpt lat="46.32541" lon="-0.46976">
        <ele>15.410057</ele>
        <time>2014-02-27T15:25:00Z</time>
      </trkpt>
      <trkpt lat="46.32539" lon="-0.4698">
        <ele>15.410057</ele>
        <time>2014-02-27T15:25:05Z</time>
      </trkpt>
      <trkpt lat="46.32539" lon="-0.46986">
        <ele>15.410057</ele>
        <time>2014-02-27T15:25:10Z</time>
      </trkpt>
      <trkpt lat="46.32538" lon="-0.46991">
        <ele>16.381958</ele>
        <time>2014-02-27T15:25:15Z</time>
      </trkpt>
      <trkpt lat="46.32534" lon="-0.46996">
        <ele>16.381958</ele>
        <time>2014-02-27T15:25:20Z</time>
      </trkpt>
      <trkpt lat="46.32534" lon="-0.47005">
        <ele>17.438093</ele>
        <time>2014-02-27T15:25:26Z</time>
      </trkpt>
      <trkpt lat="46.32534" lon="-0.47014">
        <ele>17.438093</ele>
        <time>2014-02-27T15:25:30Z</time>
      </trkpt>
      <trkpt lat="46.32531" lon="-0.47018">
        <ele>18.223581</ele>
        <time>2014-02-27T15:25:35Z</time>
      </trkpt>
      <trkpt lat="46.32531" lon="-0.47018">
        <ele>18.223581</ele>
        <time>2014-02-27T15:25:45Z</time>
      </trkpt>
      <trkpt lat="46.32531" lon="-0.47018">
        <ele>18.223581</ele>
        <time>2014-02-27T15:25:50Z</time>
      </trkpt>
      <trkpt lat="46.32531" lon="-0.47018">
        <ele>18.223581</ele>
        <time>2014-02-27T15:25:56Z</time>
      </trkpt>
      <trkpt lat="46.32535" lon="-0.47033">
        <ele>17.459242</ele>
        <time>2014-02-27T15:26:00Z</time>
      </trkpt>
      <trkpt lat="46.32535" lon="-0.47042">
        <ele>17.459242</ele>
        <time>2014-02-27T15:26:06Z</time>
      </trkpt>
      <trkpt lat="46.32535" lon="-0.4705">
        <ele>17.322</ele>
        <time>2014-02-27T15:26:11Z</time>
      </trkpt>
      <trkpt lat="46.32534" lon="-0.47063">
        <ele>17.322</ele>
        <time>2014-02-27T15:26:15Z</time>
      </trkpt>
      <trkpt lat="46.32538" lon="-0.47073">
        <ele>16.930485</ele>
        <time>2014-02-27T15:26:20Z</time>
      </trkpt>
      <trkpt lat="46.32543" lon="-0.47079">
        <ele>16.930485</ele>
        <time>2014-02-27T15:26:25Z</time>
      </trkpt>
      <trkpt lat="46.32539" lon="-0.47086">
        <ele>16.463148</ele>
        <time>2014-02-27T15:26:30Z</time>
      </trkpt>
      <trkpt lat="46.32539" lon="-0.47092">
        <ele>16.463148</ele>
        <time>2014-02-27T15:26:35Z</time>
      </trkpt>
      <trkpt lat="46.3254" lon="-0.47102">
        <ele>16.071136</ele>
        <time>2014-02-27T15:26:40Z</time>
      </trkpt>
      <trkpt lat="46.32537" lon="-0.47108">
        <ele>16.071136</ele>
        <time>2014-02-27T15:26:46Z</time>
      </trkpt>
      <trkpt lat="46.32532" lon="-0.47116">
        <ele>16.081623</ele>
        <time>2014-02-27T15:26:50Z</time>
      </trkpt>
      <trkpt lat="46.32531" lon="-0.47127">
        <ele>16.081623</ele>
        <time>2014-02-27T15:26:55Z</time>
      </trkpt>
      <trkpt lat="46.3253" lon="-0.47132">
        <ele>17.027187</ele>
        <time>2014-02-27T15:27:00Z</time>
      </trkpt>
      <trkpt lat="46.32531" lon="-0.47141">
        <ele>17.027187</ele>
        <time>2014-02-27T15:27:06Z</time>
      </trkpt>
      <trkpt lat="46.32537" lon="-0.4716">
        <ele>16.401146</ele>
        <time>2014-02-27T15:27:10Z</time>
      </trkpt>
      <trkpt lat="46.32539" lon="-0.47169">
        <ele>16.401146</ele>
        <time>2014-02-27T15:27:15Z</time>
      </trkpt>
      <trkpt lat="46.32538" lon="-0.47177">
        <ele>15.560193</ele>
        <time>2014-02-27T15:27:20Z</time>
      </trkpt>
      <trkpt lat="46.3254" lon="-0.47185">
        <ele>15.560193</ele>
        <time>2014-02-27T15:27:25Z</time>
      </trkpt>
      <trkpt lat="46.32542" lon="-0.47192">
        <ele>14.565831</ele>
        <time>2014-02-27T15:27:30Z</time>
      </trkpt>
      <trkpt lat="46.32541" lon="-0.47199">
        <ele>14.565831</ele>
        <time>2014-02-27T15:27:36Z</time>
      </trkpt>
      <trkpt lat="46.32542" lon="-0.47207">
        <ele>13.619573</ele>
        <time>2014-02-27T15:27:40Z</time>
      </trkpt>
      <trkpt lat="46.32542" lon="-0.47214">
        <ele>13.619573</ele>
        <time>2014-02-27T15:27:45Z</time>
      </trkpt>
      <trkpt lat="46.32545" lon="-0.47221">
        <ele>12.893562</ele>
        <time>2014-02-27T15:27:50Z</time>
      </trkpt>
      <trkpt lat="46.32546" lon="-0.47226">
        <ele>12.893562</ele>
        <time>2014-02-27T15:27:55Z</time>
      </trkpt>
      <trkpt lat="46.32544" lon="-0.4723">
        <ele>12.893562</ele>
        <time>2014-02-27T15:28:00Z</time>
      </trkpt>
      <trkpt lat="46.32544" lon="-0.4724">
        <ele>12.733998</ele>
        <time>2014-02-27T15:28:06Z</time>
      </trkpt>
      <trkpt lat="46.32547" lon="-0.47252">
        <ele>12.278321</ele>
        <time>2014-02-27T15:28:10Z</time>
      </trkpt>
      <trkpt lat="46.32547" lon="-0.4726">
        <ele>12.278321</ele>
        <time>2014-02-27T15:28:15Z</time>
      </trkpt>
      <trkpt lat="46.32549" lon="-0.47267">
        <ele>11.909843</ele>
        <time>2014-02-27T15:28:20Z</time>
      </trkpt>
      <trkpt lat="46.32548" lon="-0.47273">
        <ele>11.909843</ele>
        <time>2014-02-27T15:28:25Z</time>
      </trkpt>
      <trkpt lat="46.32549" lon="-0.47279">
        <ele>11.909843</ele>
        <time>2014-02-27T15:28:30Z</time>
      </trkpt>
      <trkpt lat="46.32552" lon="-0.47286">
        <ele>10.888198</ele>
        <time>2014-02-27T15:28:35Z</time>
      </trkpt>
      <trkpt lat="46.32555" lon="-0.47293">
        <ele>10.888198</ele>
        <time>2014-02-27T15:28:40Z</time>
      </trkpt>
      <trkpt lat="46.32557" lon="-0.47301">
        <ele>10.042368</ele>
        <time>2014-02-27T15:28:45Z</time>
      </trkpt>
      <trkpt lat="46.32556" lon="-0.47309">
        <ele>10.042368</ele>
        <time>2014-02-27T15:28:50Z</time>
      </trkpt>
      <trkpt lat="46.32557" lon="-0.47315">
        <ele>9.131131</ele>
        <time>2014-02-27T15:28:55Z</time>
      </trkpt>
      <trkpt lat="46.32558" lon="-0.47321">
        <ele>9.131131</ele>
        <time>2014-02-27T15:29:00Z</time>
      </trkpt>
      <trkpt lat="46.32559" lon="-0.47325">
        <ele>9.131131</ele>
        <time>2014-02-27T15:29:05Z</time>
      </trkpt>
      <trkpt lat="46.3256" lon="-0.47334">
        <ele>8.334636</ele>
        <time>2014-02-27T15:29:10Z</time>
      </trkpt>
      <trkpt lat="46.3256" lon="-0.47343">
        <ele>8.334636</ele>
        <time>2014-02-27T15:29:15Z</time>
      </trkpt>
      <trkpt lat="46.3256" lon="-0.47352">
        <ele>7.732965</ele>
        <time>2014-02-27T15:29:20Z</time>
      </trkpt>
      <trkpt lat="46.32561" lon="-0.47358">
        <ele>7.732965</ele>
        <time>2014-02-27T15:29:25Z</time>
      </trkpt>
      <trkpt lat="46.32563" lon="-0.47364">
        <ele>7.732965</ele>
        <time>2014-02-27T15:29:30Z</time>
      </trkpt>
      <trkpt lat="46.32563" lon="-0.47368">
        <ele>7.154733</ele>
        <time>2014-02-27T15:29:35Z</time>
      </trkpt>
      <trkpt lat="46.32564" lon="-0.47379">
        <ele>7.154733</ele>
        <time>2014-02-27T15:29:40Z</time>
      </trkpt>
      <trkpt lat="46.32565" lon="-0.47389">
        <ele>6.8301306</ele>
        <time>2014-02-27T15:29:45Z</time>
      </trkpt>
      <trkpt lat="46.32566" lon="-0.47392">
        <ele>6.8301306</ele>
        <time>2014-02-27T15:29:50Z</time>
      </trkpt>
      <trkpt lat="46.32567" lon="-0.47395">
        <ele>6.8301306</ele>
        <time>2014-02-27T15:29:55Z</time>
      </trkpt>
      <trkpt lat="46.32568" lon="-0.47396">
        <ele>6.8301306</ele>
        <time>2014-02-27T15:30:00Z</time>
      </trkpt>
      <trkpt lat="46.32569" lon="-0.47403">
        <ele>6.6546335</ele>
        <time>2014-02-27T15:30:05Z</time>
      </trkpt>
      <trkpt lat="46.3257" lon="-0.47413">
        <ele>6.6546335</ele>
        <time>2014-02-27T15:30:10Z</time>
      </trkpt>
      <trkpt lat="46.32572" lon="-0.47421">
        <ele>6.1130085</ele>
        <time>2014-02-27T15:30:15Z</time>
      </trkpt>
      <trkpt lat="46.32571" lon="-0.4743">
        <ele>6.1130085</ele>
        <time>2014-02-27T15:30:20Z</time>
      </trkpt>
      <trkpt lat="46.32572" lon="-0.47439">
        <ele>5.6223392</ele>
        <time>2014-02-27T15:30:26Z</time>
      </trkpt>
      <trkpt lat="46.32574" lon="-0.47448">
        <ele>5.6223392</ele>
        <time>2014-02-27T15:30:30Z</time>
      </trkpt>
      <trkpt lat="46.32577" lon="-0.47452">
        <ele>5.25184</ele>
        <time>2014-02-27T15:30:35Z</time>
      </trkpt>
      <trkpt lat="46.32579" lon="-0.47461">
        <ele>5.25184</ele>
        <time>2014-02-27T15:30:40Z</time>
      </trkpt>
      <trkpt lat="46.32583" lon="-0.47466">
        <ele>4.978793</ele>
        <time>2014-02-27T15:30:45Z</time>
      </trkpt>
      <trkpt lat="46.32586" lon="-0.47473">
        <ele>4.978793</ele>
        <time>2014-02-27T15:30:50Z</time>
      </trkpt>
      <trkpt lat="46.32588" lon="-0.4748">
        <ele>4.6953683</ele>
        <time>2014-02-27T15:30:55Z</time>
      </trkpt>
      <trkpt lat="46.32593" lon="-0.47481">
        <ele>4.6953683</ele>
        <time>2014-02-27T15:31:00Z</time>
      </trkpt>
      <trkpt lat="46.32596" lon="-0.47486">
        <ele>4.5754566</ele>
        <time>2014-02-27T15:31:05Z</time>
      </trkpt>
      <trkpt lat="46.32602" lon="-0.47488">
        <ele>4.5754566</ele>
        <time>2014-02-27T15:31:10Z</time>
      </trkpt>
      <trkpt lat="46.32607" lon="-0.47491">
        <ele>4.5346923</ele>
        <time>2014-02-27T15:31:15Z</time>
      </trkpt>
      <trkpt lat="46.32613" lon="-0.47496">
        <ele>4.5346923</ele>
        <time>2014-02-27T15:31:20Z</time>
      </trkpt>
      <trkpt lat="46.32616" lon="-0.47496">
        <ele>4.9125743</ele>
        <time>2014-02-27T15:31:25Z</time>
      </trkpt>
      <trkpt lat="46.32621" lon="-0.47502">
        <ele>4.9125743</ele>
        <time>2014-02-27T15:31:30Z</time>
      </trkpt>
      <trkpt lat="46.32626" lon="-0.47507">
        <ele>5.6333613</ele>
        <time>2014-02-27T15:31:35Z</time>
      </trkpt>
      <trkpt lat="46.32631" lon="-0.47506">
        <ele>5.6333613</ele>
        <time>2014-02-27T15:31:41Z</time>
      </trkpt>
      <trkpt lat="46.32636" lon="-0.47511">
        <ele>6.207971</ele>
        <time>2014-02-27T15:31:45Z</time>
      </trkpt>
      <trkpt lat="46.32641" lon="-0.47511">
        <ele>6.207971</ele>
        <time>2014-02-27T15:31:50Z</time>
      </trkpt>
      <trkpt lat="46.32646" lon="-0.47511">
        <ele>6.515103</ele>
        <time>2014-02-27T15:31:55Z</time>
      </trkpt>
      <trkpt lat="46.32651" lon="-0.47514">
        <ele>6.515103</ele>
        <time>2014-02-27T15:32:00Z</time>
      </trkpt>
      <trkpt lat="46.32655" lon="-0.47519">
        <ele>6.5583982</ele>
        <time>2014-02-27T15:32:05Z</time>
      </trkpt>
      <trkpt lat="46.32659" lon="-0.47524">
        <ele>6.5583982</ele>
        <time>2014-02-27T15:32:10Z</time>
      </trkpt>
      <trkpt lat="46.32663" lon="-0.47528">
        <ele>6.630195</ele>
        <time>2014-02-27T15:32:15Z</time>
      </trkpt>
      <trkpt lat="46.32669" lon="-0.47527">
        <ele>6.630195</ele>
        <time>2014-02-27T15:32:20Z</time>
      </trkpt>
      <trkpt lat="46.32674" lon="-0.47531">
        <ele>6.684234</ele>
        <time>2014-02-27T15:32:25Z</time>
      </trkpt>
      <trkpt lat="46.32678" lon="-0.47536">
        <ele>6.684234</ele>
        <time>2014-02-27T15:32:30Z</time>
      </trkpt>
      <trkpt lat="46.32683" lon="-0.47538">
        <ele>6.692121</ele>
        <time>2014-02-27T15:32:35Z</time>
      </trkpt>
      <trkpt lat="46.32687" lon="-0.47543">
        <ele>6.692121</ele>
        <time>2014-02-27T15:32:40Z</time>
      </trkpt>
      <trkpt lat="46.32691" lon="-0.47547">
        <ele>6.541219</ele>
        <time>2014-02-27T15:32:45Z</time>
      </trkpt>
      <trkpt lat="46.32695" lon="-0.47551">
        <ele>6.541219</ele>
        <time>2014-02-27T15:32:50Z</time>
      </trkpt>
      <trkpt lat="46.327" lon="-0.47551">
        <ele>6.574365</ele>
        <time>2014-02-27T15:32:55Z</time>
      </trkpt>
      <trkpt lat="46.32706" lon="-0.47547">
        <ele>6.574365</ele>
        <time>2014-02-27T15:33:00Z</time>
      </trkpt>
      <trkpt lat="46.32705" lon="-0.47546">
        <ele>6.574365</ele>
        <time>2014-02-27T15:33:05Z</time>
      </trkpt>
      <trkpt lat="46.32706" lon="-0.47545">
        <ele>6.574365</ele>
        <time>2014-02-27T15:33:10Z</time>
      </trkpt>
      <trkpt lat="46.3271" lon="-0.47545">
        <ele>6.6475496</ele>
        <time>2014-02-27T15:33:15Z</time>
      </trkpt>
      <trkpt lat="46.32714" lon="-0.47549">
        <ele>6.6475496</ele>
        <time>2014-02-27T15:33:20Z</time>
      </trkpt>
      <trkpt lat="46.32717" lon="-0.47551">
        <ele>6.6475496</ele>
        <time>2014-02-27T15:33:25Z</time>
      </trkpt>
      <trkpt lat="46.3272" lon="-0.47551">
        <ele>6.814587</ele>
        <time>2014-02-27T15:33:30Z</time>
      </trkpt>
      <trkpt lat="46.32724" lon="-0.47553">
        <ele>6.814587</ele>
        <time>2014-02-27T15:33:35Z</time>
      </trkpt>
      <trkpt lat="46.32727" lon="-0.47557">
        <ele>6.814587</ele>
        <time>2014-02-27T15:33:40Z</time>
      </trkpt>
      <trkpt lat="46.32732" lon="-0.47559">
        <ele>6.8080444</ele>
        <time>2014-02-27T15:33:45Z</time>
      </trkpt>
      <trkpt lat="46.32735" lon="-0.47563">
        <ele>6.8080444</ele>
        <time>2014-02-27T15:33:50Z</time>
      </trkpt>
      <trkpt lat="46.3274" lon="-0.47569">
        <ele>6.971493</ele>
        <time>2014-02-27T15:33:55Z</time>
      </trkpt>
      <trkpt lat="46.32746" lon="-0.47574">
        <ele>6.971493</ele>
        <time>2014-02-27T15:34:00Z</time>
      </trkpt>
      <trkpt lat="46.32749" lon="-0.47579">
        <ele>7.3922267</ele>
        <time>2014-02-27T15:34:05Z</time>
      </trkpt>
      <trkpt lat="46.32752" lon="-0.47582">
        <ele>7.3922267</ele>
        <time>2014-02-27T15:34:10Z</time>
      </trkpt>
      <trkpt lat="46.32758" lon="-0.47587">
        <ele>7.7613273</ele>
        <time>2014-02-27T15:34:15Z</time>
      </trkpt>
      <trkpt lat="46.32761" lon="-0.47592">
        <ele>7.7613273</ele>
        <time>2014-02-27T15:34:20Z</time>
      </trkpt>
      <trkpt lat="46.32762" lon="-0.47602">
        <ele>8.066546</ele>
        <time>2014-02-27T15:34:25Z</time>
      </trkpt>
      <trkpt lat="46.32767" lon="-0.47605">
        <ele>8.066546</ele>
        <time>2014-02-27T15:34:30Z</time>
      </trkpt>
      <trkpt lat="46.32771" lon="-0.47612">
        <ele>8.167041</ele>
        <time>2014-02-27T15:34:35Z</time>
      </trkpt>
      <trkpt lat="46.32776" lon="-0.47616">
        <ele>8.167041</ele>
        <time>2014-02-27T15:34:40Z</time>
      </trkpt>
      <trkpt lat="46.3278" lon="-0.47624">
        <ele>8.336425</ele>
        <time>2014-02-27T15:34:45Z</time>
      </trkpt>
      <trkpt lat="46.32782" lon="-0.47633">
        <ele>8.336425</ele>
        <time>2014-02-27T15:34:50Z</time>
      </trkpt>
      <trkpt lat="46.32782" lon="-0.47644">
        <ele>8.56865</ele>
        <time>2014-02-27T15:34:55Z</time>
      </trkpt>
      <trkpt lat="46.32788" lon="-0.47647">
        <ele>8.56865</ele>
        <time>2014-02-27T15:35:00Z</time>
      </trkpt>
      <trkpt lat="46.32789" lon="-0.47655">
        <ele>8.699444</ele>
        <time>2014-02-27T15:35:05Z</time>
      </trkpt>
      <trkpt lat="46.32791" lon="-0.47663">
        <ele>8.699444</ele>
        <time>2014-02-27T15:35:10Z</time>
      </trkpt>
      <trkpt lat="46.32798" lon="-0.47662">
        <ele>9.052481</ele>
        <time>2014-02-27T15:35:15Z</time>
      </trkpt>
      <trkpt lat="46.32806" lon="-0.47659">
        <ele>9.052481</ele>
        <time>2014-02-27T15:35:20Z</time>
      </trkpt>
      <trkpt lat="46.32813" lon="-0.47661">
        <ele>9.379446</ele>
        <time>2014-02-27T15:35:25Z</time>
      </trkpt>
      <trkpt lat="46.32818" lon="-0.47662">
        <ele>9.379446</ele>
        <time>2014-02-27T15:35:30Z</time>
      </trkpt>
      <trkpt lat="46.32823" lon="-0.47667">
        <ele>9.1765585</ele>
        <time>2014-02-27T15:35:35Z</time>
      </trkpt>
      <trkpt lat="46.32828" lon="-0.47671">
        <ele>9.1765585</ele>
        <time>2014-02-27T15:35:40Z</time>
      </trkpt>
      <trkpt lat="46.32833" lon="-0.47676">
        <ele>9.34762</ele>
        <time>2014-02-27T15:35:45Z</time>
      </trkpt>
      <trkpt lat="46.32837" lon="-0.47679">
        <ele>9.34762</ele>
        <time>2014-02-27T15:35:50Z</time>
      </trkpt>
      <trkpt lat="46.32841" lon="-0.47678">
        <ele>9.34762</ele>
        <time>2014-02-27T15:35:55Z</time>
      </trkpt>
      <trkpt lat="46.32846" lon="-0.47673">
        <ele>9.201443</ele>
        <time>2014-02-27T15:36:00Z</time>
      </trkpt>
      <trkpt lat="46.32849" lon="-0.47675">
        <ele>9.201443</ele>
        <time>2014-02-27T15:36:05Z</time>
      </trkpt>
      <trkpt lat="46.32854" lon="-0.47676">
        <ele>9.201443</ele>
        <time>2014-02-27T15:36:10Z</time>
      </trkpt>
      <trkpt lat="46.32858" lon="-0.47678">
        <ele>9.136134</ele>
        <time>2014-02-27T15:36:15Z</time>
      </trkpt>
      <trkpt lat="46.32864" lon="-0.47681">
        <ele>9.136134</ele>
        <time>2014-02-27T15:36:20Z</time>
      </trkpt>
      <trkpt lat="46.3287" lon="-0.47685">
        <ele>8.958326</ele>
        <time>2014-02-27T15:36:25Z</time>
      </trkpt>
      <trkpt lat="46.32877" lon="-0.47686">
        <ele>8.958326</ele>
        <time>2014-02-27T15:36:30Z</time>
      </trkpt>
      <trkpt lat="46.32884" lon="-0.47689">
        <ele>9.108872</ele>
        <time>2014-02-27T15:36:35Z</time>
      </trkpt>
      <trkpt lat="46.32888" lon="-0.47693">
        <ele>9.108872</ele>
        <time>2014-02-27T15:36:40Z</time>
      </trkpt>
      <trkpt lat="46.32894" lon="-0.47702">
        <ele>9.3324375</ele>
        <time>2014-02-27T15:36:45Z</time>
      </trkpt>
      <trkpt lat="46.32899" lon="-0.47707">
        <ele>9.3324375</ele>
        <time>2014-02-27T15:36:50Z</time>
      </trkpt>
      <trkpt lat="46.32903" lon="-0.47714">
        <ele>9.882239</ele>
        <time>2014-02-27T15:36:55Z</time>
      </trkpt>
      <trkpt lat="46.32906" lon="-0.47725">
        <ele>9.882239</ele>
        <time>2014-02-27T15:37:00Z</time>
      </trkpt>
      <trkpt lat="46.3291" lon="-0.47726">
        <ele>10.545261</ele>
        <time>2014-02-27T15:37:05Z</time>
      </trkpt>
      <trkpt lat="46.32916" lon="-0.47731">
        <ele>10.545261</ele>
        <time>2014-02-27T15:37:10Z</time>
      </trkpt>
      <trkpt lat="46.32916" lon="-0.47739">
        <ele>10.749156</ele>
        <time>2014-02-27T15:37:15Z</time>
      </trkpt>
      <trkpt lat="46.32916" lon="-0.4774">
        <ele>10.749156</ele>
        <time>2014-02-27T15:37:20Z</time>
      </trkpt>
      <trkpt lat="46.32922" lon="-0.47738">
        <ele>10.749156</ele>
        <time>2014-02-27T15:37:25Z</time>
      </trkpt>
      <trkpt lat="46.32932" lon="-0.47732">
        <ele>10.52697</ele>
        <time>2014-02-27T15:37:30Z</time>
      </trkpt>
      <trkpt lat="46.32936" lon="-0.47736">
        <ele>10.52697</ele>
        <time>2014-02-27T15:37:35Z</time>
      </trkpt>
      <trkpt lat="46.32941" lon="-0.47737">
        <ele>10.501403</ele>
        <time>2014-02-27T15:37:40Z</time>
      </trkpt>
      <trkpt lat="46.32945" lon="-0.47743">
        <ele>10.501403</ele>
        <time>2014-02-27T15:37:45Z</time>
      </trkpt>
      <trkpt lat="46.32951" lon="-0.47746">
        <ele>10.557153</ele>
        <time>2014-02-27T15:37:50Z</time>
      </trkpt>
      <trkpt lat="46.32954" lon="-0.47752">
        <ele>10.557153</ele>
        <time>2014-02-27T15:37:55Z</time>
      </trkpt>
      <trkpt lat="46.32958" lon="-0.4776">
        <ele>10.788944</ele>
        <time>2014-02-27T15:38:00Z</time>
      </trkpt>
      <trkpt lat="46.32964" lon="-0.47764">
        <ele>10.788944</ele>
        <time>2014-02-27T15:38:05Z</time>
      </trkpt>
      <trkpt lat="46.32968" lon="-0.4777">
        <ele>11.039082</ele>
        <time>2014-02-27T15:38:10Z</time>
      </trkpt>
      <trkpt lat="46.32972" lon="-0.47773">
        <ele>11.039082</ele>
        <time>2014-02-27T15:38:15Z</time>
      </trkpt>
      <trkpt lat="46.32976" lon="-0.47778">
        <ele>11.377595</ele>
        <time>2014-02-27T15:38:20Z</time>
      </trkpt>
      <trkpt lat="46.32979" lon="-0.47781">
        <ele>11.377595</ele>
        <time>2014-02-27T15:38:25Z</time>
      </trkpt>
      <trkpt lat="46.32984" lon="-0.47784">
        <ele>11.753859</ele>
        <time>2014-02-27T15:38:30Z</time>
      </trkpt>
      <trkpt lat="46.32986" lon="-0.47788">
        <ele>11.753859</ele>
        <time>2014-02-27T15:38:35Z</time>
      </trkpt>
      <trkpt lat="46.3299" lon="-0.4779">
        <ele>11.753859</ele>
        <time>2014-02-27T15:38:40Z</time>
      </trkpt>
      <trkpt lat="46.32994" lon="-0.47797">
        <ele>11.4867935</ele>
        <time>2014-02-27T15:38:45Z</time>
      </trkpt>
      <trkpt lat="46.32998" lon="-0.47804">
        <ele>11.4867935</ele>
        <time>2014-02-27T15:38:50Z</time>
      </trkpt>
      <trkpt lat="46.33006" lon="-0.47803">
        <ele>11.273003</ele>
        <time>2014-02-27T15:38:55Z</time>
      </trkpt>
      <trkpt lat="46.33008" lon="-0.47807">
        <ele>11.273003</ele>
        <time>2014-02-27T15:39:00Z</time>
      </trkpt>
      <trkpt lat="46.33013" lon="-0.47811">
        <ele>11.00841</ele>
        <time>2014-02-27T15:39:05Z</time>
      </trkpt>
      <trkpt lat="46.33018" lon="-0.47816">
        <ele>11.00841</ele>
        <time>2014-02-27T15:39:10Z</time>
      </trkpt>
      <trkpt lat="46.33027" lon="-0.47816">
        <ele>10.712037</ele>
        <time>2014-02-27T15:39:15Z</time>
      </trkpt>
      <trkpt lat="46.33032" lon="-0.47814">
        <ele>10.712037</ele>
        <time>2014-02-27T15:39:20Z</time>
      </trkpt>
      <trkpt lat="46.33037" lon="-0.47808">
        <ele>10.343964</ele>
        <time>2014-02-27T15:39:25Z</time>
      </trkpt>
      <trkpt lat="46.33036" lon="-0.47799">
        <ele>10.343964</ele>
        <time>2014-02-27T15:39:30Z</time>
      </trkpt>
      <trkpt lat="46.33036" lon="-0.4779">
        <ele>9.982701</ele>
        <time>2014-02-27T15:39:35Z</time>
      </trkpt>
      <trkpt lat="46.33036" lon="-0.47782">
        <ele>9.982701</ele>
        <time>2014-02-27T15:39:40Z</time>
      </trkpt>
      <trkpt lat="46.33038" lon="-0.47775">
        <ele>10.046849</ele>
        <time>2014-02-27T15:39:45Z</time>
      </trkpt>
      <trkpt lat="46.33039" lon="-0.47767">
        <ele>10.046849</ele>
        <time>2014-02-27T15:39:50Z</time>
      </trkpt>
      <trkpt lat="46.33038" lon="-0.47758">
        <ele>10.029578</ele>
        <time>2014-02-27T15:39:55Z</time>
      </trkpt>
      <trkpt lat="46.3304" lon="-0.47749">
        <ele>10.029578</ele>
        <time>2014-02-27T15:40:00Z</time>
      </trkpt>
      <trkpt lat="46.3304" lon="-0.4774">
        <ele>10.138841</ele>
        <time>2014-02-27T15:40:05Z</time>
      </trkpt>
      <trkpt lat="46.3304" lon="-0.47734">
        <ele>10.138841</ele>
        <time>2014-02-27T15:40:10Z</time>
      </trkpt>
      <trkpt lat="46.33041" lon="-0.47729">
        <ele>10.138841</ele>
        <time>2014-02-27T15:40:16Z</time>
      </trkpt>
      <trkpt lat="46.33045" lon="-0.47719">
        <ele>10.437262</ele>
        <time>2014-02-27T15:40:20Z</time>
      </trkpt>
      <trkpt lat="46.33045" lon="-0.47708">
        <ele>10.437262</ele>
        <time>2014-02-27T15:40:25Z</time>
      </trkpt>
      <trkpt lat="46.33045" lon="-0.47699">
        <ele>10.794991</ele>
        <time>2014-02-27T15:40:30Z</time>
      </trkpt>
      <trkpt lat="46.33047" lon="-0.47693">
        <ele>10.794991</ele>
        <time>2014-02-27T15:40:35Z</time>
      </trkpt>
      <trkpt lat="46.33047" lon="-0.47688">
        <ele>10.794991</ele>
        <time>2014-02-27T15:40:40Z</time>
      </trkpt>
      <trkpt lat="46.33048" lon="-0.47681">
        <ele>10.860977</ele>
        <time>2014-02-27T15:40:45Z</time>
      </trkpt>
      <trkpt lat="46.33049" lon="-0.47672">
        <ele>10.860977</ele>
        <time>2014-02-27T15:40:50Z</time>
      </trkpt>
      <trkpt lat="46.33048" lon="-0.47668">
        <ele>10.860977</ele>
        <time>2014-02-27T15:40:55Z</time>
      </trkpt>
      <trkpt lat="46.33051" lon="-0.47662">
        <ele>10.699877</ele>
        <time>2014-02-27T15:41:00Z</time>
      </trkpt>
      <trkpt lat="46.33054" lon="-0.47657">
        <ele>10.699877</ele>
        <time>2014-02-27T15:41:05Z</time>
      </trkpt>
      <trkpt lat="46.33056" lon="-0.47653">
        <ele>10.699877</ele>
        <time>2014-02-27T15:41:10Z</time>
      </trkpt>
      <trkpt lat="46.33058" lon="-0.47645">
        <ele>10.357829</ele>
        <time>2014-02-27T15:41:15Z</time>
      </trkpt>
      <trkpt lat="46.33058" lon="-0.47636">
        <ele>10.357829</ele>
        <time>2014-02-27T15:41:20Z</time>
      </trkpt>
      <trkpt lat="46.33057" lon="-0.47631">
        <ele>9.978967</ele>
        <time>2014-02-27T15:41:25Z</time>
      </trkpt>
      <trkpt lat="46.33062" lon="-0.47622">
        <ele>9.978967</ele>
        <time>2014-02-27T15:41:30Z</time>
      </trkpt>
      <trkpt lat="46.33064" lon="-0.47613">
        <ele>10.1004505</ele>
        <time>2014-02-27T15:41:35Z</time>
      </trkpt>
      <trkpt lat="46.33064" lon="-0.47605">
        <ele>10.1004505</ele>
        <time>2014-02-27T15:41:40Z</time>
      </trkpt>
      <trkpt lat="46.33065" lon="-0.47598">
        <ele>10.3394985</ele>
        <time>2014-02-27T15:41:45Z</time>
      </trkpt>
      <trkpt lat="46.33066" lon="-0.47591">
        <ele>10.3394985</ele>
        <time>2014-02-27T15:41:50Z</time>
      </trkpt>
      <trkpt lat="46.33065" lon="-0.47584">
        <ele>10.5716915</ele>
        <time>2014-02-27T15:41:55Z</time>
      </trkpt>
      <trkpt lat="46.33065" lon="-0.47581">
        <ele>10.5716915</ele>
        <time>2014-02-27T15:42:00Z</time>
      </trkpt>
      <trkpt lat="46.33065" lon="-0.47574">
        <ele>10.5716915</ele>
        <time>2014-02-27T15:42:05Z</time>
      </trkpt>
      <trkpt lat="46.33065" lon="-0.47569">
        <ele>10.926757</ele>
        <time>2014-02-27T15:42:10Z</time>
      </trkpt>
      <trkpt lat="46.33065" lon="-0.47561">
        <ele>10.926757</ele>
        <time>2014-02-27T15:42:15Z</time>
      </trkpt>
      <trkpt lat="46.33066" lon="-0.47552">
        <ele>10.991337</ele>
        <time>2014-02-27T15:42:20Z</time>
      </trkpt>
      <trkpt lat="46.33065" lon="-0.47545">
        <ele>10.991337</ele>
        <time>2014-02-27T15:42:25Z</time>
      </trkpt>
      <trkpt lat="46.33071" lon="-0.47538">
        <ele>10.959697</ele>
        <time>2014-02-27T15:42:30Z</time>
      </trkpt>
      <trkpt lat="46.33074" lon="-0.4753">
        <ele>10.959697</ele>
        <time>2014-02-27T15:42:35Z</time>
      </trkpt>
      <trkpt lat="46.33074" lon="-0.47522">
        <ele>11.012104</ele>
        <time>2014-02-27T15:42:40Z</time>
      </trkpt>
      <trkpt lat="46.33074" lon="-0.47518">
        <ele>11.012104</ele>
        <time>2014-02-27T15:42:45Z</time>
      </trkpt>
      <trkpt lat="46.33079" lon="-0.4751">
        <ele>11.286526</ele>
        <time>2014-02-27T15:42:50Z</time>
      </trkpt>
      <trkpt lat="46.33076" lon="-0.475">
        <ele>11.286526</ele>
        <time>2014-02-27T15:42:55Z</time>
      </trkpt>
      <trkpt lat="46.33075" lon="-0.47494">
        <ele>10.987862</ele>
        <time>2014-02-27T15:43:00Z</time>
      </trkpt>
      <trkpt lat="46.33073" lon="-0.47485">
        <ele>10.987862</ele>
        <time>2014-02-27T15:43:05Z</time>
      </trkpt>
      <trkpt lat="46.33073" lon="-0.47478">
        <ele>10.96625</ele>
        <time>2014-02-27T15:43:10Z</time>
      </trkpt>
      <trkpt lat="46.33074" lon="-0.47471">
        <ele>10.96625</ele>
        <time>2014-02-27T15:43:15Z</time>
      </trkpt>
      <trkpt lat="46.33072" lon="-0.47464">
        <ele>11.259224</ele>
        <time>2014-02-27T15:43:20Z</time>
      </trkpt>
      <trkpt lat="46.33074" lon="-0.47454">
        <ele>11.259224</ele>
        <time>2014-02-27T15:43:25Z</time>
      </trkpt>
      <trkpt lat="46.33073" lon="-0.47447">
        <ele>11.396286</ele>
        <time>2014-02-27T15:43:30Z</time>
      </trkpt>
      <trkpt lat="46.33074" lon="-0.47439">
        <ele>11.396286</ele>
        <time>2014-02-27T15:43:35Z</time>
      </trkpt>
      <trkpt lat="46.33075" lon="-0.47433">
        <ele>11.806609</ele>
        <time>2014-02-27T15:43:40Z</time>
      </trkpt>
      <trkpt lat="46.33075" lon="-0.47425">
        <ele>11.806609</ele>
        <time>2014-02-27T15:43:45Z</time>
      </trkpt>
      <trkpt lat="46.33077" lon="-0.47417">
        <ele>12.440329</ele>
        <time>2014-02-27T15:43:50Z</time>
      </trkpt>
      <trkpt lat="46.33076" lon="-0.4741">
        <ele>12.440329</ele>
        <time>2014-02-27T15:43:55Z</time>
      </trkpt>
      <trkpt lat="46.33076" lon="-0.47402">
        <ele>13.077689</ele>
        <time>2014-02-27T15:44:00Z</time>
      </trkpt>
      <trkpt lat="46.33074" lon="-0.47393">
        <ele>13.077689</ele>
        <time>2014-02-27T15:44:05Z</time>
      </trkpt>
      <trkpt lat="46.33074" lon="-0.47385">
        <ele>13.558309</ele>
        <time>2014-02-27T15:44:10Z</time>
      </trkpt>
      <trkpt lat="46.33076" lon="-0.4738">
        <ele>13.558309</ele>
        <time>2014-02-27T15:44:15Z</time>
      </trkpt>
      <trkpt lat="46.33077" lon="-0.47373">
        <ele>14.36813</ele>
        <time>2014-02-27T15:44:20Z</time>
      </trkpt>
      <trkpt lat="46.33079" lon="-0.47368">
        <ele>14.36813</ele>
        <time>2014-02-27T15:44:25Z</time>
      </trkpt>
      <trkpt lat="46.33078" lon="-0.47359">
        <ele>14.976533</ele>
        <time>2014-02-27T15:44:30Z</time>
      </trkpt>
      <trkpt lat="46.33078" lon="-0.47352">
        <ele>14.976533</ele>
        <time>2014-02-27T15:44:35Z</time>
      </trkpt>
      <trkpt lat="46.33077" lon="-0.47345">
        <ele>15.641841</ele>
        <time>2014-02-27T15:44:40Z</time>
      </trkpt>
      <trkpt lat="46.33077" lon="-0.47337">
        <ele>15.641841</ele>
        <time>2014-02-27T15:44:45Z</time>
      </trkpt>
      <trkpt lat="46.33078" lon="-0.47331">
        <ele>16.401506</ele>
        <time>2014-02-27T15:44:50Z</time>
      </trkpt>
      <trkpt lat="46.33079" lon="-0.47321">
        <ele>16.401506</ele>
        <time>2014-02-27T15:44:55Z</time>
      </trkpt>
      <trkpt lat="46.33082" lon="-0.47318">
        <ele>17.289997</ele>
        <time>2014-02-27T15:45:00Z</time>
      </trkpt>
      <trkpt lat="46.33084" lon="-0.47313">
        <ele>17.289997</ele>
        <time>2014-02-27T15:45:05Z</time>
      </trkpt>
      <trkpt lat="46.33087" lon="-0.47307">
        <ele>18.468613</ele>
        <time>2014-02-27T15:45:10Z</time>
      </trkpt>
      <trkpt lat="46.33089" lon="-0.473">
        <ele>18.468613</ele>
        <time>2014-02-27T15:45:15Z</time>
      </trkpt>
      <trkpt lat="46.33085" lon="-0.47292">
        <ele>19.307829</ele>
        <time>2014-02-27T15:45:20Z</time>
      </trkpt>
      <trkpt lat="46.33085" lon="-0.47286">
        <ele>19.307829</ele>
        <time>2014-02-27T15:45:25Z</time>
      </trkpt>
      <trkpt lat="46.33086" lon="-0.47276">
        <ele>19.614454</ele>
        <time>2014-02-27T15:45:30Z</time>
      </trkpt>
      <trkpt lat="46.33086" lon="-0.47268">
        <ele>19.614454</ele>
        <time>2014-02-27T15:45:35Z</time>
      </trkpt>
      <trkpt lat="46.33086" lon="-0.47261">
        <ele>19.859522</ele>
        <time>2014-02-27T15:45:40Z</time>
      </trkpt>
      <trkpt lat="46.33085" lon="-0.47254">
        <ele>19.859522</ele>
        <time>2014-02-27T15:45:45Z</time>
      </trkpt>
      <trkpt lat="46.33084" lon="-0.47248">
        <ele>20.220276</ele>
        <time>2014-02-27T15:45:50Z</time>
      </trkpt>
      <trkpt lat="46.33084" lon="-0.47239">
        <ele>20.220276</ele>
        <time>2014-02-27T15:45:55Z</time>
      </trkpt>
      <trkpt lat="46.33085" lon="-0.47236">
        <ele>20.220276</ele>
        <time>2014-02-27T15:46:00Z</time>
      </trkpt>
      <trkpt lat="46.33084" lon="-0.47228">
        <ele>20.60126</ele>
        <time>2014-02-27T15:46:05Z</time>
      </trkpt>
      <trkpt lat="46.33082" lon="-0.47217">
        <ele>20.60126</ele>
        <time>2014-02-27T15:46:10Z</time>
      </trkpt>
      <trkpt lat="46.3308" lon="-0.47211">
        <ele>20.380793</ele>
        <time>2014-02-27T15:46:15Z</time>
      </trkpt>
      <trkpt lat="46.3308" lon="-0.47204">
        <ele>20.380793</ele>
        <time>2014-02-27T15:46:20Z</time>
      </trkpt>
      <trkpt lat="46.33077" lon="-0.47201">
        <ele>20.380793</ele>
        <time>2014-02-27T15:46:25Z</time>
      </trkpt>
      <trkpt lat="46.33085" lon="-0.47191">
        <ele>21.059784</ele>
        <time>2014-02-27T15:46:30Z</time>
      </trkpt>
      <trkpt lat="46.33086" lon="-0.47184">
        <ele>21.059784</ele>
        <time>2014-02-27T15:46:35Z</time>
      </trkpt>
      <trkpt lat="46.33085" lon="-0.47177">
        <ele>21.879147</ele>
        <time>2014-02-27T15:46:40Z</time>
      </trkpt>
      <trkpt lat="46.33083" lon="-0.4717">
        <ele>21.879147</ele>
        <time>2014-02-27T15:46:45Z</time>
      </trkpt>
      <trkpt lat="46.33083" lon="-0.47164">
        <ele>22.5387</ele>
        <time>2014-02-27T15:46:50Z</time>
      </trkpt>
      <trkpt lat="46.33084" lon="-0.47153">
        <ele>22.5387</ele>
        <time>2014-02-27T15:46:55Z</time>
      </trkpt>
      <trkpt lat="46.33084" lon="-0.47144">
        <ele>22.616688</ele>
        <time>2014-02-27T15:47:00Z</time>
      </trkpt>
      <trkpt lat="46.33084" lon="-0.47136">
        <ele>22.616688</ele>
        <time>2014-02-27T15:47:05Z</time>
      </trkpt>
      <trkpt lat="46.33079" lon="-0.47134">
        <ele>23.006586</ele>
        <time>2014-02-27T15:47:10Z</time>
      </trkpt>
      <trkpt lat="46.33083" lon="-0.47127">
        <ele>23.006586</ele>
        <time>2014-02-27T15:47:15Z</time>
      </trkpt>
      <trkpt lat="46.33084" lon="-0.47119">
        <ele>23.45456</ele>
        <time>2014-02-27T15:47:20Z</time>
      </trkpt>
      <trkpt lat="46.33085" lon="-0.47111">
        <ele>23.45456</ele>
        <time>2014-02-27T15:47:25Z</time>
      </trkpt>
      <trkpt lat="46.33086" lon="-0.47104">
        <ele>23.451477</ele>
        <time>2014-02-27T15:47:30Z</time>
      </trkpt>
      <trkpt lat="46.33087" lon="-0.47096">
        <ele>23.451477</ele>
        <time>2014-02-27T15:47:35Z</time>
      </trkpt>
      <trkpt lat="46.3309" lon="-0.47089">
        <ele>23.679789</ele>
        <time>2014-02-27T15:47:40Z</time>
      </trkpt>
      <trkpt lat="46.33091" lon="-0.4708">
        <ele>23.679789</ele>
        <time>2014-02-27T15:47:45Z</time>
      </trkpt>
      <trkpt lat="46.33094" lon="-0.47075">
        <ele>23.82005</ele>
        <time>2014-02-27T15:47:50Z</time>
      </trkpt>
      <trkpt lat="46.33097" lon="-0.47065">
        <ele>23.82005</ele>
        <time>2014-02-27T15:47:55Z</time>
      </trkpt>
      <trkpt lat="46.3309" lon="-0.47059">
        <ele>23.936834</ele>
        <time>2014-02-27T15:48:00Z</time>
      </trkpt>
      <trkpt lat="46.33091" lon="-0.47057">
        <ele>23.936834</ele>
        <time>2014-02-27T15:48:05Z</time>
      </trkpt>
      <trkpt lat="46.3309" lon="-0.47052">
        <ele>23.936834</ele>
        <time>2014-02-27T15:48:10Z</time>
      </trkpt>
      <trkpt lat="46.33086" lon="-0.47054">
        <ele>23.936834</ele>
        <time>2014-02-27T15:48:15Z</time>
      </trkpt>
      <trkpt lat="46.33082" lon="-0.47056">
        <ele>24.47915</ele>
        <time>2014-02-27T15:48:20Z</time>
      </trkpt>
      <trkpt lat="46.33083" lon="-0.47056">
        <ele>24.47915</ele>
        <time>2014-02-27T15:48:25Z</time>
      </trkpt>
      <trkpt lat="46.33083" lon="-0.4705">
        <ele>24.47915</ele>
        <time>2014-02-27T15:48:30Z</time>
      </trkpt>
      <trkpt lat="46.33084" lon="-0.47042">
        <ele>25.02601</ele>
        <time>2014-02-27T15:48:35Z</time>
      </trkpt>
      <trkpt lat="46.33084" lon="-0.47032">
        <ele>25.02601</ele>
        <time>2014-02-27T15:48:40Z</time>
      </trkpt>
      <trkpt lat="46.33084" lon="-0.47021">
        <ele>25.634094</ele>
        <time>2014-02-27T15:48:45Z</time>
      </trkpt>
      <trkpt lat="46.33083" lon="-0.47014">
        <ele>25.634094</ele>
        <time>2014-02-27T15:48:50Z</time>
      </trkpt>
      <trkpt lat="46.33089" lon="-0.47006">
        <ele>24.943474</ele>
        <time>2014-02-27T15:48:55Z</time>
      </trkpt>
      <trkpt lat="46.33088" lon="-0.46994">
        <ele>24.943474</ele>
        <time>2014-02-27T15:49:00Z</time>
      </trkpt>
      <trkpt lat="46.33087" lon="-0.46991">
        <ele>24.709698</ele>
        <time>2014-02-27T15:49:05Z</time>
      </trkpt>
      <trkpt lat="46.33085" lon="-0.46985">
        <ele>24.709698</ele>
        <time>2014-02-27T15:49:10Z</time>
      </trkpt>
      <trkpt lat="46.33086" lon="-0.46979">
        <ele>24.709698</ele>
        <time>2014-02-27T15:49:15Z</time>
      </trkpt>
      <trkpt lat="46.33085" lon="-0.46972">
        <ele>23.992903</ele>
        <time>2014-02-27T15:49:20Z</time>
      </trkpt>
      <trkpt lat="46.33082" lon="-0.46965">
        <ele>23.992903</ele>
        <time>2014-02-27T15:49:25Z</time>
      </trkpt>
      <trkpt lat="46.33081" lon="-0.46959">
        <ele>23.451202</ele>
        <time>2014-02-27T15:49:30Z</time>
      </trkpt>
      <trkpt lat="46.33081" lon="-0.46954">
        <ele>23.451202</ele>
        <time>2014-02-27T15:49:35Z</time>
      </trkpt>
    </trkseg>
  </trk>
</gpx>